<?xml version="1.0" encoding="UTF-8" standalone="no" ?>
<gpx xmlns="http://www.topografix.com/GPX/1/1" xmlns:xsi="http://www.w3.org/2001/XMLSchema-instance" xsi:schemaLocation="http://www.topografix.com/GPX/1/1 http://www.topografix.com/GPX/1/1/gpx.xsd" version="1.1" creator="VisuGPX - https://www.visugpx.com">
  <metadata>
    <name>parcours 30km au départ de Seillons</name>
    <desc><![CDATA[parcours sans grosses difficultés. Il est préférable de faire ce parcours dans le sens proposé (plus difficile dans l'autre sens)]]></desc>
  </metadata>
  <trk>
    <name><![CDATA[20180617224903-AfNfp]]></name>
    <trkseg>
      <trkpt lat="43.50403" lon="5.88629">
        <ele>313</ele>
        <time>2018-06-17T05:02:00Z</time>
      </trkpt>
      <trkpt lat="43.50387" lon="5.88642">
        <ele>312</ele>
        <time>2018-06-17T05:02:06Z</time>
      </trkpt>
      <trkpt lat="43.50372" lon="5.8866">
        <ele>311</ele>
        <time>2018-06-17T05:02:40Z</time>
      </trkpt>
      <trkpt lat="43.50366" lon="5.88685">
        <ele>309</ele>
        <time>2018-06-17T05:03:34Z</time>
      </trkpt>
      <trkpt lat="43.50369" lon="5.88659">
        <ele>311</ele>
        <time>2018-06-17T05:11:49Z</time>
      </trkpt>
      <trkpt lat="43.50383" lon="5.88643">
        <ele>312</ele>
        <time>2018-06-17T05:12:10Z</time>
      </trkpt>
      <trkpt lat="43.50401" lon="5.8863">
        <ele>313</ele>
        <time>2018-06-17T05:12:18Z</time>
      </trkpt>
      <trkpt lat="43.5042" lon="5.88619">
        <ele>317</ele>
        <time>2018-06-17T05:12:25Z</time>
      </trkpt>
      <trkpt lat="43.50437" lon="5.8861">
        <ele>317</ele>
        <time>2018-06-17T05:12:31Z</time>
      </trkpt>
      <trkpt lat="43.50455" lon="5.88599">
        <ele>317</ele>
        <time>2018-06-17T05:12:37Z</time>
      </trkpt>
      <trkpt lat="43.50472" lon="5.88586">
        <ele>317</ele>
        <time>2018-06-17T05:12:43Z</time>
      </trkpt>
      <trkpt lat="43.50491" lon="5.88574">
        <ele>318</ele>
        <time>2018-06-17T05:12:50Z</time>
      </trkpt>
      <trkpt lat="43.50507" lon="5.8856">
        <ele>320</ele>
        <time>2018-06-17T05:12:57Z</time>
      </trkpt>
      <trkpt lat="43.50524" lon="5.88546">
        <ele>322</ele>
        <time>2018-06-17T05:13:05Z</time>
      </trkpt>
      <trkpt lat="43.50536" lon="5.88528">
        <ele>322</ele>
        <time>2018-06-17T05:13:12Z</time>
      </trkpt>
      <trkpt lat="43.5055" lon="5.8851">
        <ele>322</ele>
        <time>2018-06-17T05:13:18Z</time>
      </trkpt>
      <trkpt lat="43.50565" lon="5.88493">
        <ele>324</ele>
        <time>2018-06-17T05:13:25Z</time>
      </trkpt>
      <trkpt lat="43.5058" lon="5.88479">
        <ele>325</ele>
        <time>2018-06-17T05:13:32Z</time>
      </trkpt>
      <trkpt lat="43.50597" lon="5.88464">
        <ele>324</ele>
        <time>2018-06-17T05:13:39Z</time>
      </trkpt>
      <trkpt lat="43.50616" lon="5.8846">
        <ele>324</ele>
        <time>2018-06-17T05:13:46Z</time>
      </trkpt>
      <trkpt lat="43.50634" lon="5.88452">
        <ele>324</ele>
        <time>2018-06-17T05:13:52Z</time>
      </trkpt>
      <trkpt lat="43.50652" lon="5.88445">
        <ele>323</ele>
        <time>2018-06-17T05:13:58Z</time>
      </trkpt>
      <trkpt lat="43.50671" lon="5.88437">
        <ele>325</ele>
        <time>2018-06-17T05:14:05Z</time>
      </trkpt>
      <trkpt lat="43.50685" lon="5.88423">
        <ele>325</ele>
        <time>2018-06-17T05:14:13Z</time>
      </trkpt>
      <trkpt lat="43.50696" lon="5.884">
        <ele>327</ele>
        <time>2018-06-17T05:14:21Z</time>
      </trkpt>
      <trkpt lat="43.50713" lon="5.88383">
        <ele>328</ele>
        <time>2018-06-17T05:14:29Z</time>
      </trkpt>
      <trkpt lat="43.50725" lon="5.88362">
        <ele>328</ele>
        <time>2018-06-17T05:14:36Z</time>
      </trkpt>
      <trkpt lat="43.50733" lon="5.88339">
        <ele>327</ele>
        <time>2018-06-17T05:14:42Z</time>
      </trkpt>
      <trkpt lat="43.50745" lon="5.88317">
        <ele>332</ele>
        <time>2018-06-17T05:14:50Z</time>
      </trkpt>
      <trkpt lat="43.50761" lon="5.88304">
        <ele>333</ele>
        <time>2018-06-17T05:14:57Z</time>
      </trkpt>
      <trkpt lat="43.50779" lon="5.88295">
        <ele>335</ele>
        <time>2018-06-17T05:15:08Z</time>
      </trkpt>
      <trkpt lat="43.50796" lon="5.88304">
        <ele>335</ele>
        <time>2018-06-17T05:15:16Z</time>
      </trkpt>
      <trkpt lat="43.50804" lon="5.88329">
        <ele>333</ele>
        <time>2018-06-17T05:15:24Z</time>
      </trkpt>
      <trkpt lat="43.50804" lon="5.88356">
        <ele>329</ele>
        <time>2018-06-17T05:15:33Z</time>
      </trkpt>
      <trkpt lat="43.50804" lon="5.88382">
        <ele>329</ele>
        <time>2018-06-17T05:15:41Z</time>
      </trkpt>
      <trkpt lat="43.50822" lon="5.88397">
        <ele>329</ele>
        <time>2018-06-17T05:15:46Z</time>
      </trkpt>
      <trkpt lat="43.50836" lon="5.88415">
        <ele>330</ele>
        <time>2018-06-17T05:15:52Z</time>
      </trkpt>
      <trkpt lat="43.50854" lon="5.88426">
        <ele>334</ele>
        <time>2018-06-17T05:16:01Z</time>
      </trkpt>
      <trkpt lat="43.50872" lon="5.8844">
        <ele>337</ele>
        <time>2018-06-17T05:16:09Z</time>
      </trkpt>
      <trkpt lat="43.50887" lon="5.88456">
        <ele>338</ele>
        <time>2018-06-17T05:16:17Z</time>
      </trkpt>
      <trkpt lat="43.50901" lon="5.88472">
        <ele>339</ele>
        <time>2018-06-17T05:16:25Z</time>
      </trkpt>
      <trkpt lat="43.50919" lon="5.88481">
        <ele>341</ele>
        <time>2018-06-17T05:16:34Z</time>
      </trkpt>
      <trkpt lat="43.50938" lon="5.88477">
        <ele>341</ele>
        <time>2018-06-17T05:16:43Z</time>
      </trkpt>
      <trkpt lat="43.50956" lon="5.8848">
        <ele>341</ele>
        <time>2018-06-17T05:16:50Z</time>
      </trkpt>
      <trkpt lat="43.50975" lon="5.88479">
        <ele>341</ele>
        <time>2018-06-17T05:16:58Z</time>
      </trkpt>
      <trkpt lat="43.50994" lon="5.88486">
        <ele>341</ele>
        <time>2018-06-17T05:17:05Z</time>
      </trkpt>
      <trkpt lat="43.51013" lon="5.88497">
        <ele>343</ele>
        <time>2018-06-17T05:17:13Z</time>
      </trkpt>
      <trkpt lat="43.5103" lon="5.8851">
        <ele>348</ele>
        <time>2018-06-17T05:17:21Z</time>
      </trkpt>
      <trkpt lat="43.51047" lon="5.88523">
        <ele>350</ele>
        <time>2018-06-17T05:17:29Z</time>
      </trkpt>
      <trkpt lat="43.5106" lon="5.88541">
        <ele>351</ele>
        <time>2018-06-17T05:17:38Z</time>
      </trkpt>
      <trkpt lat="43.51063" lon="5.88566">
        <ele>351</ele>
        <time>2018-06-17T05:17:48Z</time>
      </trkpt>
      <trkpt lat="43.5107" lon="5.88591">
        <ele>356</ele>
        <time>2018-06-17T05:17:56Z</time>
      </trkpt>
      <trkpt lat="43.51075" lon="5.88616">
        <ele>359</ele>
        <time>2018-06-17T05:18:04Z</time>
      </trkpt>
      <trkpt lat="43.51081" lon="5.88641">
        <ele>360</ele>
        <time>2018-06-17T05:18:13Z</time>
      </trkpt>
      <trkpt lat="43.51101" lon="5.8866">
        <ele>359</ele>
        <time>2018-06-17T05:18:23Z</time>
      </trkpt>
      <trkpt lat="43.51116" lon="5.88675">
        <ele>361</ele>
        <time>2018-06-17T05:18:32Z</time>
      </trkpt>
      <trkpt lat="43.5113" lon="5.88693">
        <ele>361</ele>
        <time>2018-06-17T05:18:41Z</time>
      </trkpt>
      <trkpt lat="43.5115" lon="5.88695">
        <ele>361</ele>
        <time>2018-06-17T05:18:50Z</time>
      </trkpt>
      <trkpt lat="43.51169" lon="5.88697">
        <ele>360</ele>
        <time>2018-06-17T05:18:59Z</time>
      </trkpt>
      <trkpt lat="43.51188" lon="5.88704">
        <ele>360</ele>
        <time>2018-06-17T05:19:08Z</time>
      </trkpt>
      <trkpt lat="43.51206" lon="5.88707">
        <ele>360</ele>
        <time>2018-06-17T05:19:16Z</time>
      </trkpt>
      <trkpt lat="43.51223" lon="5.88719">
        <ele>360</ele>
        <time>2018-06-17T05:19:23Z</time>
      </trkpt>
      <trkpt lat="43.5124" lon="5.88731">
        <ele>360</ele>
        <time>2018-06-17T05:19:30Z</time>
      </trkpt>
      <trkpt lat="43.51258" lon="5.88739">
        <ele>361</ele>
        <time>2018-06-17T05:19:39Z</time>
      </trkpt>
      <trkpt lat="43.51267" lon="5.88763">
        <ele>362</ele>
        <time>2018-06-17T05:19:54Z</time>
      </trkpt>
      <trkpt lat="43.51267" lon="5.8879">
        <ele>364</ele>
        <time>2018-06-17T05:20:04Z</time>
      </trkpt>
      <trkpt lat="43.51282" lon="5.88806">
        <ele>365</ele>
        <time>2018-06-17T05:20:15Z</time>
      </trkpt>
      <trkpt lat="43.51298" lon="5.88818">
        <ele>365</ele>
        <time>2018-06-17T05:20:25Z</time>
      </trkpt>
      <trkpt lat="43.51308" lon="5.8884">
        <ele>369</ele>
        <time>2018-06-17T05:20:37Z</time>
      </trkpt>
      <trkpt lat="43.51316" lon="5.88863">
        <ele>371</ele>
        <time>2018-06-17T05:20:49Z</time>
      </trkpt>
      <trkpt lat="43.51318" lon="5.88889">
        <ele>372</ele>
        <time>2018-06-17T05:21:01Z</time>
      </trkpt>
      <trkpt lat="43.51319" lon="5.88915">
        <ele>373</ele>
        <time>2018-06-17T05:21:14Z</time>
      </trkpt>
      <trkpt lat="43.51316" lon="5.88939">
        <ele>379</ele>
        <time>2018-06-17T05:21:28Z</time>
      </trkpt>
      <trkpt lat="43.51307" lon="5.88962">
        <ele>381</ele>
        <time>2018-06-17T05:21:40Z</time>
      </trkpt>
      <trkpt lat="43.51301" lon="5.88987">
        <ele>382</ele>
        <time>2018-06-17T05:21:54Z</time>
      </trkpt>
      <trkpt lat="43.51298" lon="5.89012">
        <ele>387</ele>
        <time>2018-06-17T05:22:08Z</time>
      </trkpt>
      <trkpt lat="43.51282" lon="5.89025">
        <ele>387</ele>
        <time>2018-06-17T05:22:22Z</time>
      </trkpt>
      <trkpt lat="43.51266" lon="5.89038">
        <ele>388</ele>
        <time>2018-06-17T05:22:35Z</time>
      </trkpt>
      <trkpt lat="43.51251" lon="5.89055">
        <ele>388</ele>
        <time>2018-06-17T05:22:47Z</time>
      </trkpt>
      <trkpt lat="43.51233" lon="5.89065">
        <ele>390</ele>
        <time>2018-06-17T05:22:57Z</time>
      </trkpt>
      <trkpt lat="43.51215" lon="5.89073">
        <ele>390</ele>
        <time>2018-06-17T05:23:04Z</time>
      </trkpt>
      <trkpt lat="43.51205" lon="5.89095">
        <ele>393</ele>
        <time>2018-06-17T05:23:17Z</time>
      </trkpt>
      <trkpt lat="43.51188" lon="5.89104">
        <ele>393</ele>
        <time>2018-06-17T05:23:25Z</time>
      </trkpt>
      <trkpt lat="43.51171" lon="5.89116">
        <ele>394</ele>
        <time>2018-06-17T05:23:36Z</time>
      </trkpt>
      <trkpt lat="43.51155" lon="5.89135">
        <ele>396</ele>
        <time>2018-06-17T05:23:49Z</time>
      </trkpt>
      <trkpt lat="43.51137" lon="5.89152">
        <ele>396</ele>
        <time>2018-06-17T05:24:06Z</time>
      </trkpt>
      <trkpt lat="43.51118" lon="5.89148">
        <ele>397</ele>
        <time>2018-06-17T05:24:09Z</time>
      </trkpt>
      <trkpt lat="43.51109" lon="5.8917">
        <ele>399</ele>
        <time>2018-06-17T05:24:19Z</time>
      </trkpt>
      <trkpt lat="43.51091" lon="5.89177">
        <ele>400</ele>
        <time>2018-06-17T05:24:27Z</time>
      </trkpt>
      <trkpt lat="43.51083" lon="5.89202">
        <ele>401</ele>
        <time>2018-06-17T05:24:37Z</time>
      </trkpt>
      <trkpt lat="43.51073" lon="5.89226">
        <ele>401</ele>
        <time>2018-06-17T05:24:49Z</time>
      </trkpt>
      <trkpt lat="43.51066" lon="5.89255">
        <ele>402</ele>
        <time>2018-06-17T05:24:55Z</time>
      </trkpt>
      <trkpt lat="43.51073" lon="5.89279">
        <ele>403</ele>
        <time>2018-06-17T05:25:06Z</time>
      </trkpt>
      <trkpt lat="43.51089" lon="5.89292">
        <ele>404</ele>
        <time>2018-06-17T05:25:16Z</time>
      </trkpt>
      <trkpt lat="43.51109" lon="5.893">
        <ele>404</ele>
        <time>2018-06-17T05:25:27Z</time>
      </trkpt>
      <trkpt lat="43.51128" lon="5.89307">
        <ele>404</ele>
        <time>2018-06-17T05:25:36Z</time>
      </trkpt>
      <trkpt lat="43.51147" lon="5.89308">
        <ele>405</ele>
        <time>2018-06-17T05:25:44Z</time>
      </trkpt>
      <trkpt lat="43.51166" lon="5.8931">
        <ele>405</ele>
        <time>2018-06-17T05:25:53Z</time>
      </trkpt>
      <trkpt lat="43.51184" lon="5.89315">
        <ele>406</ele>
        <time>2018-06-17T05:26:02Z</time>
      </trkpt>
      <trkpt lat="43.51201" lon="5.89328">
        <ele>406</ele>
        <time>2018-06-17T05:26:11Z</time>
      </trkpt>
      <trkpt lat="43.51215" lon="5.89345">
        <ele>408</ele>
        <time>2018-06-17T05:26:22Z</time>
      </trkpt>
      <trkpt lat="43.5123" lon="5.89362">
        <ele>408</ele>
        <time>2018-06-17T05:26:33Z</time>
      </trkpt>
      <trkpt lat="43.51245" lon="5.89376">
        <ele>409</ele>
        <time>2018-06-17T05:26:43Z</time>
      </trkpt>
      <trkpt lat="43.51256" lon="5.89396">
        <ele>411</ele>
        <time>2018-06-17T05:26:56Z</time>
      </trkpt>
      <trkpt lat="43.51268" lon="5.89416">
        <ele>411</ele>
        <time>2018-06-17T05:27:04Z</time>
      </trkpt>
      <trkpt lat="43.51284" lon="5.89432">
        <ele>412</ele>
        <time>2018-06-17T05:27:14Z</time>
      </trkpt>
      <trkpt lat="43.51304" lon="5.89437">
        <ele>412</ele>
        <time>2018-06-17T05:27:23Z</time>
      </trkpt>
      <trkpt lat="43.51323" lon="5.89438">
        <ele>412</ele>
        <time>2018-06-17T05:27:30Z</time>
      </trkpt>
      <trkpt lat="43.51342" lon="5.89438">
        <ele>411</ele>
        <time>2018-06-17T05:27:36Z</time>
      </trkpt>
      <trkpt lat="43.51363" lon="5.89442">
        <ele>411</ele>
        <time>2018-06-17T05:27:43Z</time>
      </trkpt>
      <trkpt lat="43.51381" lon="5.89455">
        <ele>410</ele>
        <time>2018-06-17T05:27:49Z</time>
      </trkpt>
      <trkpt lat="43.51403" lon="5.89461">
        <ele>409</ele>
        <time>2018-06-17T05:28:36Z</time>
      </trkpt>
      <trkpt lat="43.51417" lon="5.89478">
        <ele>407</ele>
        <time>2018-06-17T05:28:51Z</time>
      </trkpt>
      <trkpt lat="43.51436" lon="5.89492">
        <ele>406</ele>
        <time>2018-06-17T05:28:57Z</time>
      </trkpt>
      <trkpt lat="43.51455" lon="5.89501">
        <ele>402</ele>
        <time>2018-06-17T05:29:01Z</time>
      </trkpt>
      <trkpt lat="43.51474" lon="5.89506">
        <ele>402</ele>
        <time>2018-06-17T05:29:05Z</time>
      </trkpt>
      <trkpt lat="43.51492" lon="5.89514">
        <ele>402</ele>
        <time>2018-06-17T05:29:09Z</time>
      </trkpt>
      <trkpt lat="43.5151" lon="5.89522">
        <ele>400</ele>
        <time>2018-06-17T05:29:13Z</time>
      </trkpt>
      <trkpt lat="43.51533" lon="5.89533">
        <ele>399</ele>
        <time>2018-06-17T05:29:18Z</time>
      </trkpt>
      <trkpt lat="43.51553" lon="5.89546">
        <ele>398</ele>
        <time>2018-06-17T05:29:22Z</time>
      </trkpt>
      <trkpt lat="43.51564" lon="5.89568">
        <ele>397</ele>
        <time>2018-06-17T05:29:27Z</time>
      </trkpt>
      <trkpt lat="43.51574" lon="5.89591">
        <ele>395</ele>
        <time>2018-06-17T05:29:32Z</time>
      </trkpt>
      <trkpt lat="43.51577" lon="5.89617">
        <ele>394</ele>
        <time>2018-06-17T05:29:38Z</time>
      </trkpt>
      <trkpt lat="43.51591" lon="5.89635">
        <ele>394</ele>
        <time>2018-06-17T05:29:44Z</time>
      </trkpt>
      <trkpt lat="43.51608" lon="5.89652">
        <ele>394</ele>
        <time>2018-06-17T05:29:51Z</time>
      </trkpt>
      <trkpt lat="43.51624" lon="5.89663">
        <ele>394</ele>
        <time>2018-06-17T05:29:56Z</time>
      </trkpt>
      <trkpt lat="43.51645" lon="5.89669">
        <ele>393</ele>
        <time>2018-06-17T05:30:01Z</time>
      </trkpt>
      <trkpt lat="43.51666" lon="5.89678">
        <ele>393</ele>
        <time>2018-06-17T05:30:06Z</time>
      </trkpt>
      <trkpt lat="43.51686" lon="5.89685">
        <ele>392</ele>
        <time>2018-06-17T05:30:11Z</time>
      </trkpt>
      <trkpt lat="43.51706" lon="5.89687">
        <ele>392</ele>
        <time>2018-06-17T05:30:14Z</time>
      </trkpt>
      <trkpt lat="43.51726" lon="5.89691">
        <ele>392</ele>
        <time>2018-06-17T05:30:17Z</time>
      </trkpt>
      <trkpt lat="43.51745" lon="5.89699">
        <ele>392</ele>
        <time>2018-06-17T05:30:20Z</time>
      </trkpt>
      <trkpt lat="43.51763" lon="5.89703">
        <ele>390</ele>
        <time>2018-06-17T05:30:23Z</time>
      </trkpt>
      <trkpt lat="43.51782" lon="5.89705">
        <ele>390</ele>
        <time>2018-06-17T05:30:26Z</time>
      </trkpt>
      <trkpt lat="43.518" lon="5.89705">
        <ele>390</ele>
        <time>2018-06-17T05:30:29Z</time>
      </trkpt>
      <trkpt lat="43.51818" lon="5.89704">
        <ele>390</ele>
        <time>2018-06-17T05:30:32Z</time>
      </trkpt>
      <trkpt lat="43.51837" lon="5.89703">
        <ele>389</ele>
        <time>2018-06-17T05:30:35Z</time>
      </trkpt>
      <trkpt lat="43.51858" lon="5.897">
        <ele>389</ele>
        <time>2018-06-17T05:30:38Z</time>
      </trkpt>
      <trkpt lat="43.51876" lon="5.89697">
        <ele>389</ele>
        <time>2018-06-17T05:30:41Z</time>
      </trkpt>
      <trkpt lat="43.51899" lon="5.89694">
        <ele>389</ele>
        <time>2018-06-17T05:30:45Z</time>
      </trkpt>
      <trkpt lat="43.5192" lon="5.89689">
        <ele>388</ele>
        <time>2018-06-17T05:30:49Z</time>
      </trkpt>
      <trkpt lat="43.5194" lon="5.89679">
        <ele>388</ele>
        <time>2018-06-17T05:30:53Z</time>
      </trkpt>
      <trkpt lat="43.51962" lon="5.89671">
        <ele>388</ele>
        <time>2018-06-17T05:30:57Z</time>
      </trkpt>
      <trkpt lat="43.51984" lon="5.89662">
        <ele>391</ele>
        <time>2018-06-17T05:31:01Z</time>
      </trkpt>
      <trkpt lat="43.52003" lon="5.89654">
        <ele>390</ele>
        <time>2018-06-17T05:31:05Z</time>
      </trkpt>
      <trkpt lat="43.52023" lon="5.89649">
        <ele>391</ele>
        <time>2018-06-17T05:31:09Z</time>
      </trkpt>
      <trkpt lat="43.52044" lon="5.89643">
        <ele>391</ele>
        <time>2018-06-17T05:31:13Z</time>
      </trkpt>
      <trkpt lat="43.52062" lon="5.89635">
        <ele>391</ele>
        <time>2018-06-17T05:31:17Z</time>
      </trkpt>
      <trkpt lat="43.5208" lon="5.89625">
        <ele>391</ele>
        <time>2018-06-17T05:31:21Z</time>
      </trkpt>
      <trkpt lat="43.52098" lon="5.89619">
        <ele>390</ele>
        <time>2018-06-17T05:31:25Z</time>
      </trkpt>
      <trkpt lat="43.52116" lon="5.89612">
        <ele>390</ele>
        <time>2018-06-17T05:31:29Z</time>
      </trkpt>
      <trkpt lat="43.52133" lon="5.89602">
        <ele>390</ele>
        <time>2018-06-17T05:31:33Z</time>
      </trkpt>
      <trkpt lat="43.52152" lon="5.89593">
        <ele>391</ele>
        <time>2018-06-17T05:31:37Z</time>
      </trkpt>
      <trkpt lat="43.52174" lon="5.89583">
        <ele>394</ele>
        <time>2018-06-17T05:31:42Z</time>
      </trkpt>
      <trkpt lat="43.52192" lon="5.89575">
        <ele>395</ele>
        <time>2018-06-17T05:31:46Z</time>
      </trkpt>
      <trkpt lat="43.52212" lon="5.89565">
        <ele>395</ele>
        <time>2018-06-17T05:31:50Z</time>
      </trkpt>
      <trkpt lat="43.52232" lon="5.89558">
        <ele>394</ele>
        <time>2018-06-17T05:31:53Z</time>
      </trkpt>
      <trkpt lat="43.52252" lon="5.89555">
        <ele>390</ele>
        <time>2018-06-17T05:31:56Z</time>
      </trkpt>
      <trkpt lat="43.52276" lon="5.89555">
        <ele>390</ele>
        <time>2018-06-17T05:32:00Z</time>
      </trkpt>
      <trkpt lat="43.52294" lon="5.89555">
        <ele>390</ele>
        <time>2018-06-17T05:32:03Z</time>
      </trkpt>
      <trkpt lat="43.52318" lon="5.89554">
        <ele>389</ele>
        <time>2018-06-17T05:32:07Z</time>
      </trkpt>
      <trkpt lat="43.52337" lon="5.89553">
        <ele>389</ele>
        <time>2018-06-17T05:32:11Z</time>
      </trkpt>
      <trkpt lat="43.52358" lon="5.89552">
        <ele>390</ele>
        <time>2018-06-17T05:32:15Z</time>
      </trkpt>
      <trkpt lat="43.5238" lon="5.89553">
        <ele>390</ele>
        <time>2018-06-17T05:32:19Z</time>
      </trkpt>
      <trkpt lat="43.52401" lon="5.89553">
        <ele>390</ele>
        <time>2018-06-17T05:32:23Z</time>
      </trkpt>
      <trkpt lat="43.52422" lon="5.89555">
        <ele>391</ele>
        <time>2018-06-17T05:32:26Z</time>
      </trkpt>
      <trkpt lat="43.52442" lon="5.89558">
        <ele>391</ele>
        <time>2018-06-17T05:32:30Z</time>
      </trkpt>
      <trkpt lat="43.52461" lon="5.89559">
        <ele>391</ele>
        <time>2018-06-17T05:32:34Z</time>
      </trkpt>
      <trkpt lat="43.52481" lon="5.8956">
        <ele>390</ele>
        <time>2018-06-17T05:32:39Z</time>
      </trkpt>
      <trkpt lat="43.525" lon="5.89562">
        <ele>389</ele>
        <time>2018-06-17T05:32:43Z</time>
      </trkpt>
      <trkpt lat="43.52522" lon="5.89561">
        <ele>390</ele>
        <time>2018-06-17T05:32:47Z</time>
      </trkpt>
      <trkpt lat="43.52542" lon="5.89561">
        <ele>390</ele>
        <time>2018-06-17T05:32:50Z</time>
      </trkpt>
      <trkpt lat="43.52561" lon="5.89561">
        <ele>389</ele>
        <time>2018-06-17T05:32:53Z</time>
      </trkpt>
      <trkpt lat="43.52583" lon="5.89561">
        <ele>388</ele>
        <time>2018-06-17T05:32:56Z</time>
      </trkpt>
      <trkpt lat="43.52606" lon="5.89563">
        <ele>387</ele>
        <time>2018-06-17T05:33:00Z</time>
      </trkpt>
      <trkpt lat="43.52629" lon="5.89564">
        <ele>387</ele>
        <time>2018-06-17T05:33:04Z</time>
      </trkpt>
      <trkpt lat="43.52653" lon="5.89566">
        <ele>386</ele>
        <time>2018-06-17T05:33:08Z</time>
      </trkpt>
      <trkpt lat="43.52672" lon="5.89568">
        <ele>384</ele>
        <time>2018-06-17T05:33:11Z</time>
      </trkpt>
      <trkpt lat="43.52692" lon="5.89571">
        <ele>384</ele>
        <time>2018-06-17T05:33:14Z</time>
      </trkpt>
      <trkpt lat="43.52711" lon="5.89569">
        <ele>384</ele>
        <time>2018-06-17T05:33:17Z</time>
      </trkpt>
      <trkpt lat="43.52737" lon="5.8957">
        <ele>382</ele>
        <time>2018-06-17T05:33:21Z</time>
      </trkpt>
      <trkpt lat="43.52755" lon="5.89568">
        <ele>380</ele>
        <time>2018-06-17T05:33:24Z</time>
      </trkpt>
      <trkpt lat="43.52778" lon="5.89561">
        <ele>380</ele>
        <time>2018-06-17T05:33:28Z</time>
      </trkpt>
      <trkpt lat="43.528" lon="5.89555">
        <ele>380</ele>
        <time>2018-06-17T05:33:32Z</time>
      </trkpt>
      <trkpt lat="43.52817" lon="5.89547">
        <ele>380</ele>
        <time>2018-06-17T05:33:35Z</time>
      </trkpt>
      <trkpt lat="43.52837" lon="5.89536">
        <ele>378</ele>
        <time>2018-06-17T05:33:39Z</time>
      </trkpt>
      <trkpt lat="43.52858" lon="5.89524">
        <ele>379</ele>
        <time>2018-06-17T05:33:44Z</time>
      </trkpt>
      <trkpt lat="43.5288" lon="5.89516">
        <ele>378</ele>
        <time>2018-06-17T05:33:49Z</time>
      </trkpt>
      <trkpt lat="43.52897" lon="5.89508">
        <ele>379</ele>
        <time>2018-06-17T05:33:53Z</time>
      </trkpt>
      <trkpt lat="43.52918" lon="5.89499">
        <ele>380</ele>
        <time>2018-06-17T05:33:58Z</time>
      </trkpt>
      <trkpt lat="43.52936" lon="5.8949">
        <ele>383</ele>
        <time>2018-06-17T05:34:03Z</time>
      </trkpt>
      <trkpt lat="43.52955" lon="5.89481">
        <ele>384</ele>
        <time>2018-06-17T05:34:08Z</time>
      </trkpt>
      <trkpt lat="43.52974" lon="5.89473">
        <ele>384</ele>
        <time>2018-06-17T05:34:13Z</time>
      </trkpt>
      <trkpt lat="43.52992" lon="5.89465">
        <ele>384</ele>
        <time>2018-06-17T05:34:18Z</time>
      </trkpt>
      <trkpt lat="43.53009" lon="5.89456">
        <ele>382</ele>
        <time>2018-06-17T05:34:23Z</time>
      </trkpt>
      <trkpt lat="43.53027" lon="5.89446">
        <ele>382</ele>
        <time>2018-06-17T05:34:28Z</time>
      </trkpt>
      <trkpt lat="43.53044" lon="5.89435">
        <ele>382</ele>
        <time>2018-06-17T05:34:32Z</time>
      </trkpt>
      <trkpt lat="43.53061" lon="5.89422">
        <ele>382</ele>
        <time>2018-06-17T05:34:37Z</time>
      </trkpt>
      <trkpt lat="43.53078" lon="5.89407">
        <ele>387</ele>
        <time>2018-06-17T05:34:43Z</time>
      </trkpt>
      <trkpt lat="43.53093" lon="5.8939">
        <ele>388</ele>
        <time>2018-06-17T05:34:49Z</time>
      </trkpt>
      <trkpt lat="43.53108" lon="5.89375">
        <ele>389</ele>
        <time>2018-06-17T05:34:56Z</time>
      </trkpt>
      <trkpt lat="43.53124" lon="5.89362">
        <ele>390</ele>
        <time>2018-06-17T05:35:02Z</time>
      </trkpt>
      <trkpt lat="43.53142" lon="5.89358">
        <ele>390</ele>
        <time>2018-06-17T05:35:07Z</time>
      </trkpt>
      <trkpt lat="43.53163" lon="5.89356">
        <ele>390</ele>
        <time>2018-06-17T05:35:13Z</time>
      </trkpt>
      <trkpt lat="43.53184" lon="5.89351">
        <ele>388</ele>
        <time>2018-06-17T05:35:19Z</time>
      </trkpt>
      <trkpt lat="43.53207" lon="5.8935">
        <ele>386</ele>
        <time>2018-06-17T05:35:24Z</time>
      </trkpt>
      <trkpt lat="43.53227" lon="5.89343">
        <ele>386</ele>
        <time>2018-06-17T05:35:29Z</time>
      </trkpt>
      <trkpt lat="43.53244" lon="5.89337">
        <ele>385</ele>
        <time>2018-06-17T05:35:34Z</time>
      </trkpt>
      <trkpt lat="43.53262" lon="5.89329">
        <ele>387</ele>
        <time>2018-06-17T05:35:39Z</time>
      </trkpt>
      <trkpt lat="43.53279" lon="5.89319">
        <ele>388</ele>
        <time>2018-06-17T05:35:44Z</time>
      </trkpt>
      <trkpt lat="43.53299" lon="5.8931">
        <ele>388</ele>
        <time>2018-06-17T05:35:50Z</time>
      </trkpt>
      <trkpt lat="43.53323" lon="5.89304">
        <ele>388</ele>
        <time>2018-06-17T05:35:55Z</time>
      </trkpt>
      <trkpt lat="43.53342" lon="5.89306">
        <ele>388</ele>
        <time>2018-06-17T05:35:58Z</time>
      </trkpt>
      <trkpt lat="43.53361" lon="5.89315">
        <ele>388</ele>
        <time>2018-06-17T05:36:02Z</time>
      </trkpt>
      <trkpt lat="43.53377" lon="5.89329">
        <ele>388</ele>
        <time>2018-06-17T05:36:07Z</time>
      </trkpt>
      <trkpt lat="43.53393" lon="5.89347">
        <ele>386</ele>
        <time>2018-06-17T05:36:13Z</time>
      </trkpt>
      <trkpt lat="43.5341" lon="5.89364">
        <ele>386</ele>
        <time>2018-06-17T05:36:19Z</time>
      </trkpt>
      <trkpt lat="43.53424" lon="5.8938">
        <ele>385</ele>
        <time>2018-06-17T05:36:25Z</time>
      </trkpt>
      <trkpt lat="43.53439" lon="5.89395">
        <ele>384</ele>
        <time>2018-06-17T05:36:31Z</time>
      </trkpt>
      <trkpt lat="43.53459" lon="5.89394">
        <ele>384</ele>
        <time>2018-06-17T05:36:38Z</time>
      </trkpt>
      <trkpt lat="43.53478" lon="5.89379">
        <ele>383</ele>
        <time>2018-06-17T05:36:42Z</time>
      </trkpt>
      <trkpt lat="43.53498" lon="5.89368">
        <ele>384</ele>
        <time>2018-06-17T05:36:45Z</time>
      </trkpt>
      <trkpt lat="43.53523" lon="5.89364">
        <ele>380</ele>
        <time>2018-06-17T05:36:48Z</time>
      </trkpt>
      <trkpt lat="43.53548" lon="5.89365">
        <ele>379</ele>
        <time>2018-06-17T05:36:51Z</time>
      </trkpt>
      <trkpt lat="43.53568" lon="5.89375">
        <ele>378</ele>
        <time>2018-06-17T05:36:54Z</time>
      </trkpt>
      <trkpt lat="43.53587" lon="5.89384">
        <ele>376</ele>
        <time>2018-06-17T05:36:57Z</time>
      </trkpt>
      <trkpt lat="43.53605" lon="5.89393">
        <ele>376</ele>
        <time>2018-06-17T05:37:00Z</time>
      </trkpt>
      <trkpt lat="43.53624" lon="5.89398">
        <ele>376</ele>
        <time>2018-06-17T05:37:04Z</time>
      </trkpt>
      <trkpt lat="43.53643" lon="5.89396">
        <ele>377</ele>
        <time>2018-06-17T05:37:08Z</time>
      </trkpt>
      <trkpt lat="43.53662" lon="5.89389">
        <ele>377</ele>
        <time>2018-06-17T05:37:12Z</time>
      </trkpt>
      <trkpt lat="43.5368" lon="5.89378">
        <ele>379</ele>
        <time>2018-06-17T05:37:16Z</time>
      </trkpt>
      <trkpt lat="43.53698" lon="5.89371">
        <ele>379</ele>
        <time>2018-06-17T05:37:20Z</time>
      </trkpt>
      <trkpt lat="43.53716" lon="5.89367">
        <ele>379</ele>
        <time>2018-06-17T05:37:24Z</time>
      </trkpt>
      <trkpt lat="43.53736" lon="5.89356">
        <ele>379</ele>
        <time>2018-06-17T05:37:29Z</time>
      </trkpt>
      <trkpt lat="43.53754" lon="5.89347">
        <ele>380</ele>
        <time>2018-06-17T05:37:34Z</time>
      </trkpt>
      <trkpt lat="43.53773" lon="5.8934">
        <ele>381</ele>
        <time>2018-06-17T05:37:39Z</time>
      </trkpt>
      <trkpt lat="43.53792" lon="5.89331">
        <ele>379</ele>
        <time>2018-06-17T05:37:44Z</time>
      </trkpt>
      <trkpt lat="43.5381" lon="5.8932">
        <ele>380</ele>
        <time>2018-06-17T05:37:49Z</time>
      </trkpt>
      <trkpt lat="43.53829" lon="5.89308">
        <ele>380</ele>
        <time>2018-06-17T05:37:55Z</time>
      </trkpt>
      <trkpt lat="43.53849" lon="5.89303">
        <ele>380</ele>
        <time>2018-06-17T05:38:01Z</time>
      </trkpt>
      <trkpt lat="43.5387" lon="5.89303">
        <ele>380</ele>
        <time>2018-06-17T05:38:07Z</time>
      </trkpt>
      <trkpt lat="43.5389" lon="5.89304">
        <ele>380</ele>
        <time>2018-06-17T05:38:14Z</time>
      </trkpt>
      <trkpt lat="43.53911" lon="5.89303">
        <ele>380</ele>
        <time>2018-06-17T05:38:21Z</time>
      </trkpt>
      <trkpt lat="43.53932" lon="5.89309">
        <ele>381</ele>
        <time>2018-06-17T05:38:26Z</time>
      </trkpt>
      <trkpt lat="43.53953" lon="5.8932">
        <ele>381</ele>
        <time>2018-06-17T05:38:31Z</time>
      </trkpt>
      <trkpt lat="43.53972" lon="5.89332">
        <ele>381</ele>
        <time>2018-06-17T05:38:35Z</time>
      </trkpt>
      <trkpt lat="43.5399" lon="5.89338">
        <ele>382</ele>
        <time>2018-06-17T05:38:40Z</time>
      </trkpt>
      <trkpt lat="43.54009" lon="5.89344">
        <ele>382</ele>
        <time>2018-06-17T05:38:49Z</time>
      </trkpt>
      <trkpt lat="43.54027" lon="5.8935">
        <ele>382</ele>
        <time>2018-06-17T05:38:58Z</time>
      </trkpt>
      <trkpt lat="43.54045" lon="5.89356">
        <ele>383</ele>
        <time>2018-06-17T05:39:07Z</time>
      </trkpt>
      <trkpt lat="43.54066" lon="5.89357">
        <ele>383</ele>
        <time>2018-06-17T05:39:14Z</time>
      </trkpt>
      <trkpt lat="43.54087" lon="5.8935">
        <ele>385</ele>
        <time>2018-06-17T05:39:18Z</time>
      </trkpt>
      <trkpt lat="43.54108" lon="5.89341">
        <ele>385</ele>
        <time>2018-06-17T05:39:22Z</time>
      </trkpt>
      <trkpt lat="43.54127" lon="5.89328">
        <ele>389</ele>
        <time>2018-06-17T05:39:26Z</time>
      </trkpt>
      <trkpt lat="43.54144" lon="5.8932">
        <ele>389</ele>
        <time>2018-06-17T05:39:30Z</time>
      </trkpt>
      <trkpt lat="43.54162" lon="5.89318">
        <ele>389</ele>
        <time>2018-06-17T05:39:34Z</time>
      </trkpt>
      <trkpt lat="43.54183" lon="5.89322">
        <ele>389</ele>
        <time>2018-06-17T05:39:38Z</time>
      </trkpt>
      <trkpt lat="43.54203" lon="5.89327">
        <ele>390</ele>
        <time>2018-06-17T05:39:42Z</time>
      </trkpt>
      <trkpt lat="43.54221" lon="5.89333">
        <ele>389</ele>
        <time>2018-06-17T05:39:47Z</time>
      </trkpt>
      <trkpt lat="43.54239" lon="5.89341">
        <ele>385</ele>
        <time>2018-06-17T05:39:54Z</time>
      </trkpt>
      <trkpt lat="43.54257" lon="5.89345">
        <ele>385</ele>
        <time>2018-06-17T05:40:01Z</time>
      </trkpt>
      <trkpt lat="43.54277" lon="5.89344">
        <ele>386</ele>
        <time>2018-06-17T05:40:09Z</time>
      </trkpt>
      <trkpt lat="43.54297" lon="5.89349">
        <ele>386</ele>
        <time>2018-06-17T05:40:16Z</time>
      </trkpt>
      <trkpt lat="43.54318" lon="5.89354">
        <ele>386</ele>
        <time>2018-06-17T05:40:23Z</time>
      </trkpt>
      <trkpt lat="43.54337" lon="5.89358">
        <ele>388</ele>
        <time>2018-06-17T05:40:30Z</time>
      </trkpt>
      <trkpt lat="43.54356" lon="5.89359">
        <ele>388</ele>
        <time>2018-06-17T05:40:36Z</time>
      </trkpt>
      <trkpt lat="43.54377" lon="5.8936">
        <ele>388</ele>
        <time>2018-06-17T05:40:43Z</time>
      </trkpt>
      <trkpt lat="43.54398" lon="5.89354">
        <ele>389</ele>
        <time>2018-06-17T05:40:49Z</time>
      </trkpt>
      <trkpt lat="43.54415" lon="5.8935">
        <ele>389</ele>
        <time>2018-06-17T05:40:55Z</time>
      </trkpt>
      <trkpt lat="43.54409" lon="5.89376">
        <ele>388</ele>
        <time>2018-06-17T05:41:04Z</time>
      </trkpt>
      <trkpt lat="43.54403" lon="5.89401">
        <ele>388</ele>
        <time>2018-06-17T05:41:10Z</time>
      </trkpt>
      <trkpt lat="43.54416" lon="5.8942">
        <ele>389</ele>
        <time>2018-06-17T05:41:16Z</time>
      </trkpt>
      <trkpt lat="43.54425" lon="5.89442">
        <ele>395</ele>
        <time>2018-06-17T05:41:23Z</time>
      </trkpt>
      <trkpt lat="43.54428" lon="5.89468">
        <ele>397</ele>
        <time>2018-06-17T05:41:30Z</time>
      </trkpt>
      <trkpt lat="43.54427" lon="5.89495">
        <ele>395</ele>
        <time>2018-06-17T05:41:37Z</time>
      </trkpt>
      <trkpt lat="43.54417" lon="5.89521">
        <ele>398</ele>
        <time>2018-06-17T05:41:42Z</time>
      </trkpt>
      <trkpt lat="43.54411" lon="5.89545">
        <ele>395</ele>
        <time>2018-06-17T05:41:46Z</time>
      </trkpt>
      <trkpt lat="43.54397" lon="5.89565">
        <ele>396</ele>
        <time>2018-06-17T05:41:52Z</time>
      </trkpt>
      <trkpt lat="43.54383" lon="5.89587">
        <ele>398</ele>
        <time>2018-06-17T05:41:58Z</time>
      </trkpt>
      <trkpt lat="43.54367" lon="5.89603">
        <ele>399</ele>
        <time>2018-06-17T05:42:05Z</time>
      </trkpt>
      <trkpt lat="43.5436" lon="5.8963">
        <ele>399</ele>
        <time>2018-06-17T05:42:11Z</time>
      </trkpt>
      <trkpt lat="43.54365" lon="5.89658">
        <ele>398</ele>
        <time>2018-06-17T05:42:15Z</time>
      </trkpt>
      <trkpt lat="43.54375" lon="5.89683">
        <ele>400</ele>
        <time>2018-06-17T05:42:18Z</time>
      </trkpt>
      <trkpt lat="43.54388" lon="5.89709">
        <ele>400</ele>
        <time>2018-06-17T05:42:23Z</time>
      </trkpt>
      <trkpt lat="43.54405" lon="5.89724">
        <ele>399</ele>
        <time>2018-06-17T05:42:28Z</time>
      </trkpt>
      <trkpt lat="43.54423" lon="5.8973">
        <ele>400</ele>
        <time>2018-06-17T05:42:33Z</time>
      </trkpt>
      <trkpt lat="43.54441" lon="5.89734">
        <ele>400</ele>
        <time>2018-06-17T05:42:39Z</time>
      </trkpt>
      <trkpt lat="43.5446" lon="5.89741">
        <ele>401</ele>
        <time>2018-06-17T05:42:45Z</time>
      </trkpt>
      <trkpt lat="43.54474" lon="5.89724">
        <ele>401</ele>
        <time>2018-06-17T05:42:51Z</time>
      </trkpt>
      <trkpt lat="43.5449" lon="5.89708">
        <ele>402</ele>
        <time>2018-06-17T05:43:01Z</time>
      </trkpt>
      <trkpt lat="43.54506" lon="5.89693">
        <ele>405</ele>
        <time>2018-06-17T05:43:08Z</time>
      </trkpt>
      <trkpt lat="43.54521" lon="5.8968">
        <ele>405</ele>
        <time>2018-06-17T05:43:14Z</time>
      </trkpt>
      <trkpt lat="43.5454" lon="5.8967">
        <ele>405</ele>
        <time>2018-06-17T05:43:22Z</time>
      </trkpt>
      <trkpt lat="43.54557" lon="5.89656">
        <ele>405</ele>
        <time>2018-06-17T05:43:29Z</time>
      </trkpt>
      <trkpt lat="43.54576" lon="5.89644">
        <ele>405</ele>
        <time>2018-06-17T05:43:35Z</time>
      </trkpt>
      <trkpt lat="43.54595" lon="5.89635">
        <ele>405</ele>
        <time>2018-06-17T05:43:42Z</time>
      </trkpt>
      <trkpt lat="43.54614" lon="5.89635">
        <ele>405</ele>
        <time>2018-06-17T05:43:48Z</time>
      </trkpt>
      <trkpt lat="43.54635" lon="5.89642">
        <ele>405</ele>
        <time>2018-06-17T05:43:55Z</time>
      </trkpt>
      <trkpt lat="43.54649" lon="5.8966">
        <ele>404</ele>
        <time>2018-06-17T05:44:02Z</time>
      </trkpt>
      <trkpt lat="43.54647" lon="5.89687">
        <ele>404</ele>
        <time>2018-06-17T05:44:09Z</time>
      </trkpt>
      <trkpt lat="43.54642" lon="5.89714">
        <ele>404</ele>
        <time>2018-06-17T05:44:16Z</time>
      </trkpt>
      <trkpt lat="43.54641" lon="5.89739">
        <ele>404</ele>
        <time>2018-06-17T05:44:21Z</time>
      </trkpt>
      <trkpt lat="43.54638" lon="5.89764">
        <ele>407</ele>
        <time>2018-06-17T05:44:27Z</time>
      </trkpt>
      <trkpt lat="43.54642" lon="5.89789">
        <ele>408</ele>
        <time>2018-06-17T05:44:32Z</time>
      </trkpt>
      <trkpt lat="43.54656" lon="5.89811">
        <ele>407</ele>
        <time>2018-06-17T05:44:37Z</time>
      </trkpt>
      <trkpt lat="43.54667" lon="5.89831">
        <ele>405</ele>
        <time>2018-06-17T05:44:42Z</time>
      </trkpt>
      <trkpt lat="43.54675" lon="5.89856">
        <ele>407</ele>
        <time>2018-06-17T05:44:51Z</time>
      </trkpt>
      <trkpt lat="43.54683" lon="5.89882">
        <ele>407</ele>
        <time>2018-06-17T05:44:58Z</time>
      </trkpt>
      <trkpt lat="43.54694" lon="5.89902">
        <ele>408</ele>
        <time>2018-06-17T05:45:04Z</time>
      </trkpt>
      <trkpt lat="43.5471" lon="5.89915">
        <ele>408</ele>
        <time>2018-06-17T05:45:11Z</time>
      </trkpt>
      <trkpt lat="43.54711" lon="5.8994">
        <ele>410</ele>
        <time>2018-06-17T05:45:23Z</time>
      </trkpt>
      <trkpt lat="43.54716" lon="5.89966">
        <ele>410</ele>
        <time>2018-06-17T05:45:36Z</time>
      </trkpt>
      <trkpt lat="43.54723" lon="5.8999">
        <ele>410</ele>
        <time>2018-06-17T05:45:44Z</time>
      </trkpt>
      <trkpt lat="43.54741" lon="5.89997">
        <ele>410</ele>
        <time>2018-06-17T05:45:55Z</time>
      </trkpt>
      <trkpt lat="43.54759" lon="5.90002">
        <ele>411</ele>
        <time>2018-06-17T05:46:08Z</time>
      </trkpt>
      <trkpt lat="43.54778" lon="5.9">
        <ele>412</ele>
        <time>2018-06-17T05:46:22Z</time>
      </trkpt>
      <trkpt lat="43.54796" lon="5.89992">
        <ele>413</ele>
        <time>2018-06-17T05:46:36Z</time>
      </trkpt>
      <trkpt lat="43.54815" lon="5.89989">
        <ele>414</ele>
        <time>2018-06-17T05:46:48Z</time>
      </trkpt>
      <trkpt lat="43.54833" lon="5.89988">
        <ele>415</ele>
        <time>2018-06-17T05:47:01Z</time>
      </trkpt>
      <trkpt lat="43.54851" lon="5.89983">
        <ele>418</ele>
        <time>2018-06-17T05:47:12Z</time>
      </trkpt>
      <trkpt lat="43.54869" lon="5.89978">
        <ele>419</ele>
        <time>2018-06-17T05:47:25Z</time>
      </trkpt>
      <trkpt lat="43.54888" lon="5.89981">
        <ele>420</ele>
        <time>2018-06-17T05:47:35Z</time>
      </trkpt>
      <trkpt lat="43.54905" lon="5.89992">
        <ele>422</ele>
        <time>2018-06-17T05:47:44Z</time>
      </trkpt>
      <trkpt lat="43.54918" lon="5.9001">
        <ele>423</ele>
        <time>2018-06-17T05:47:52Z</time>
      </trkpt>
      <trkpt lat="43.54933" lon="5.90026">
        <ele>422</ele>
        <time>2018-06-17T05:47:59Z</time>
      </trkpt>
      <trkpt lat="43.54952" lon="5.90037">
        <ele>422</ele>
        <time>2018-06-17T05:48:05Z</time>
      </trkpt>
      <trkpt lat="43.54971" lon="5.90048">
        <ele>422</ele>
        <time>2018-06-17T05:48:10Z</time>
      </trkpt>
      <trkpt lat="43.54989" lon="5.90064">
        <ele>421</ele>
        <time>2018-06-17T05:48:15Z</time>
      </trkpt>
      <trkpt lat="43.55009" lon="5.9007">
        <ele>422</ele>
        <time>2018-06-17T05:48:22Z</time>
      </trkpt>
      <trkpt lat="43.55028" lon="5.90072">
        <ele>422</ele>
        <time>2018-06-17T05:48:32Z</time>
      </trkpt>
      <trkpt lat="43.55047" lon="5.90072">
        <ele>423</ele>
        <time>2018-06-17T05:48:40Z</time>
      </trkpt>
      <trkpt lat="43.55066" lon="5.90078">
        <ele>423</ele>
        <time>2018-06-17T05:48:48Z</time>
      </trkpt>
      <trkpt lat="43.55081" lon="5.90096">
        <ele>423</ele>
        <time>2018-06-17T05:48:57Z</time>
      </trkpt>
      <trkpt lat="43.55098" lon="5.90107">
        <ele>425</ele>
        <time>2018-06-17T05:51:57Z</time>
      </trkpt>
      <trkpt lat="43.55116" lon="5.90109">
        <ele>425</ele>
        <time>2018-06-17T05:52:05Z</time>
      </trkpt>
      <trkpt lat="43.55135" lon="5.90118">
        <ele>426</ele>
        <time>2018-06-17T05:52:11Z</time>
      </trkpt>
      <trkpt lat="43.5515" lon="5.90133">
        <ele>426</ele>
        <time>2018-06-17T05:52:23Z</time>
      </trkpt>
      <trkpt lat="43.55166" lon="5.90145">
        <ele>427</ele>
        <time>2018-06-17T05:52:41Z</time>
      </trkpt>
      <trkpt lat="43.55184" lon="5.90137">
        <ele>430</ele>
        <time>2018-06-17T05:52:59Z</time>
      </trkpt>
      <trkpt lat="43.55203" lon="5.90135">
        <ele>430</ele>
        <time>2018-06-17T05:53:11Z</time>
      </trkpt>
      <trkpt lat="43.5522" lon="5.90127">
        <ele>431</ele>
        <time>2018-06-17T05:53:22Z</time>
      </trkpt>
      <trkpt lat="43.55233" lon="5.90109">
        <ele>431</ele>
        <time>2018-06-17T05:53:31Z</time>
      </trkpt>
      <trkpt lat="43.55249" lon="5.90095">
        <ele>431</ele>
        <time>2018-06-17T05:53:42Z</time>
      </trkpt>
      <trkpt lat="43.55268" lon="5.90087">
        <ele>433</ele>
        <time>2018-06-17T05:53:52Z</time>
      </trkpt>
      <trkpt lat="43.55286" lon="5.90084">
        <ele>435</ele>
        <time>2018-06-17T05:54:01Z</time>
      </trkpt>
      <trkpt lat="43.55305" lon="5.90074">
        <ele>435</ele>
        <time>2018-06-17T05:54:11Z</time>
      </trkpt>
      <trkpt lat="43.55321" lon="5.90059">
        <ele>436</ele>
        <time>2018-06-17T05:54:20Z</time>
      </trkpt>
      <trkpt lat="43.55338" lon="5.90046">
        <ele>439</ele>
        <time>2018-06-17T05:54:28Z</time>
      </trkpt>
      <trkpt lat="43.55357" lon="5.90044">
        <ele>439</ele>
        <time>2018-06-17T05:54:36Z</time>
      </trkpt>
      <trkpt lat="43.55376" lon="5.90051">
        <ele>439</ele>
        <time>2018-06-17T05:54:44Z</time>
      </trkpt>
      <trkpt lat="43.55393" lon="5.90066">
        <ele>439</ele>
        <time>2018-06-17T05:54:51Z</time>
      </trkpt>
      <trkpt lat="43.55413" lon="5.90075">
        <ele>438</ele>
        <time>2018-06-17T05:54:58Z</time>
      </trkpt>
      <trkpt lat="43.55433" lon="5.9008">
        <ele>439</ele>
        <time>2018-06-17T05:55:05Z</time>
      </trkpt>
      <trkpt lat="43.55452" lon="5.90085">
        <ele>438</ele>
        <time>2018-06-17T05:55:11Z</time>
      </trkpt>
      <trkpt lat="43.55471" lon="5.90081">
        <ele>439</ele>
        <time>2018-06-17T05:55:59Z</time>
      </trkpt>
      <trkpt lat="43.55488" lon="5.9007">
        <ele>439</ele>
        <time>2018-06-17T05:56:08Z</time>
      </trkpt>
      <trkpt lat="43.55506" lon="5.90075">
        <ele>439</ele>
        <time>2018-06-17T05:56:17Z</time>
      </trkpt>
      <trkpt lat="43.55523" lon="5.90088">
        <ele>439</ele>
        <time>2018-06-17T05:56:25Z</time>
      </trkpt>
      <trkpt lat="43.55533" lon="5.90109">
        <ele>439</ele>
        <time>2018-06-17T05:56:33Z</time>
      </trkpt>
      <trkpt lat="43.55548" lon="5.90126">
        <ele>439</ele>
        <time>2018-06-17T05:56:39Z</time>
      </trkpt>
      <trkpt lat="43.55562" lon="5.90143">
        <ele>439</ele>
        <time>2018-06-17T05:56:44Z</time>
      </trkpt>
      <trkpt lat="43.55577" lon="5.90157">
        <ele>438</ele>
        <time>2018-06-17T05:56:49Z</time>
      </trkpt>
      <trkpt lat="43.55581" lon="5.90182">
        <ele>438</ele>
        <time>2018-06-17T05:56:55Z</time>
      </trkpt>
      <trkpt lat="43.55594" lon="5.90202">
        <ele>440</ele>
        <time>2018-06-17T05:57:01Z</time>
      </trkpt>
      <trkpt lat="43.5561" lon="5.90215">
        <ele>440</ele>
        <time>2018-06-17T05:57:08Z</time>
      </trkpt>
      <trkpt lat="43.55627" lon="5.90227">
        <ele>441</ele>
        <time>2018-06-17T05:57:15Z</time>
      </trkpt>
      <trkpt lat="43.5564" lon="5.90245">
        <ele>442</ele>
        <time>2018-06-17T05:57:23Z</time>
      </trkpt>
      <trkpt lat="43.55659" lon="5.90235">
        <ele>442</ele>
        <time>2018-06-17T05:57:32Z</time>
      </trkpt>
      <trkpt lat="43.55679" lon="5.90233">
        <ele>444</ele>
        <time>2018-06-17T05:57:40Z</time>
      </trkpt>
      <trkpt lat="43.55696" lon="5.90248">
        <ele>444</ele>
        <time>2018-06-17T05:57:48Z</time>
      </trkpt>
      <trkpt lat="43.55715" lon="5.90255">
        <ele>444</ele>
        <time>2018-06-17T05:57:55Z</time>
      </trkpt>
      <trkpt lat="43.55731" lon="5.90271">
        <ele>445</ele>
        <time>2018-06-17T05:58:01Z</time>
      </trkpt>
      <trkpt lat="43.55747" lon="5.90284">
        <ele>445</ele>
        <time>2018-06-17T05:58:07Z</time>
      </trkpt>
      <trkpt lat="43.55763" lon="5.90298">
        <ele>445</ele>
        <time>2018-06-17T05:58:13Z</time>
      </trkpt>
      <trkpt lat="43.55783" lon="5.90304">
        <ele>445</ele>
        <time>2018-06-17T05:58:20Z</time>
      </trkpt>
      <trkpt lat="43.55803" lon="5.9031">
        <ele>445</ele>
        <time>2018-06-17T05:58:28Z</time>
      </trkpt>
      <trkpt lat="43.55822" lon="5.9032">
        <ele>445</ele>
        <time>2018-06-17T05:58:33Z</time>
      </trkpt>
      <trkpt lat="43.55839" lon="5.90327">
        <ele>444</ele>
        <time>2018-06-17T05:58:37Z</time>
      </trkpt>
      <trkpt lat="43.5586" lon="5.90328">
        <ele>445</ele>
        <time>2018-06-17T05:58:42Z</time>
      </trkpt>
      <trkpt lat="43.55878" lon="5.90331">
        <ele>444</ele>
        <time>2018-06-17T05:58:49Z</time>
      </trkpt>
      <trkpt lat="43.55896" lon="5.90334">
        <ele>443</ele>
        <time>2018-06-17T05:58:57Z</time>
      </trkpt>
      <trkpt lat="43.55915" lon="5.9033">
        <ele>443</ele>
        <time>2018-06-17T05:59:06Z</time>
      </trkpt>
      <trkpt lat="43.55935" lon="5.9033">
        <ele>445</ele>
        <time>2018-06-17T05:59:15Z</time>
      </trkpt>
      <trkpt lat="43.55954" lon="5.90337">
        <ele>446</ele>
        <time>2018-06-17T05:59:24Z</time>
      </trkpt>
      <trkpt lat="43.55972" lon="5.90345">
        <ele>446</ele>
        <time>2018-06-17T05:59:33Z</time>
      </trkpt>
      <trkpt lat="43.5599" lon="5.9034">
        <ele>447</ele>
        <time>2018-06-17T05:59:41Z</time>
      </trkpt>
      <trkpt lat="43.56007" lon="5.9033">
        <ele>449</ele>
        <time>2018-06-17T05:59:48Z</time>
      </trkpt>
      <trkpt lat="43.56027" lon="5.90324">
        <ele>449</ele>
        <time>2018-06-17T05:59:55Z</time>
      </trkpt>
      <trkpt lat="43.56044" lon="5.90312">
        <ele>450</ele>
        <time>2018-06-17T06:00:02Z</time>
      </trkpt>
      <trkpt lat="43.56061" lon="5.90301">
        <ele>450</ele>
        <time>2018-06-17T06:00:09Z</time>
      </trkpt>
      <trkpt lat="43.56079" lon="5.90296">
        <ele>451</ele>
        <time>2018-06-17T06:00:17Z</time>
      </trkpt>
      <trkpt lat="43.561" lon="5.90294">
        <ele>453</ele>
        <time>2018-06-17T06:00:25Z</time>
      </trkpt>
      <trkpt lat="43.56118" lon="5.90285">
        <ele>453</ele>
        <time>2018-06-17T06:00:32Z</time>
      </trkpt>
      <trkpt lat="43.56136" lon="5.90277">
        <ele>453</ele>
        <time>2018-06-17T06:00:39Z</time>
      </trkpt>
      <trkpt lat="43.56156" lon="5.90272">
        <ele>454</ele>
        <time>2018-06-17T06:00:47Z</time>
      </trkpt>
      <trkpt lat="43.56174" lon="5.90265">
        <ele>454</ele>
        <time>2018-06-17T06:01:03Z</time>
      </trkpt>
      <trkpt lat="43.5619" lon="5.90254">
        <ele>454</ele>
        <time>2018-06-17T06:01:31Z</time>
      </trkpt>
      <trkpt lat="43.56207" lon="5.90244">
        <ele>454</ele>
        <time>2018-06-17T06:01:39Z</time>
      </trkpt>
      <trkpt lat="43.56223" lon="5.90233">
        <ele>454</ele>
        <time>2018-06-17T06:01:46Z</time>
      </trkpt>
      <trkpt lat="43.56241" lon="5.90226">
        <ele>454</ele>
        <time>2018-06-17T06:01:52Z</time>
      </trkpt>
      <trkpt lat="43.56256" lon="5.90211">
        <ele>455</ele>
        <time>2018-06-17T06:01:58Z</time>
      </trkpt>
      <trkpt lat="43.56275" lon="5.90199">
        <ele>455</ele>
        <time>2018-06-17T06:02:04Z</time>
      </trkpt>
      <trkpt lat="43.56295" lon="5.90191">
        <ele>456</ele>
        <time>2018-06-17T06:02:10Z</time>
      </trkpt>
      <trkpt lat="43.56315" lon="5.90185">
        <ele>456</ele>
        <time>2018-06-17T06:02:16Z</time>
      </trkpt>
      <trkpt lat="43.56335" lon="5.90178">
        <ele>458</ele>
        <time>2018-06-17T06:02:22Z</time>
      </trkpt>
      <trkpt lat="43.56354" lon="5.90171">
        <ele>459</ele>
        <time>2018-06-17T06:02:28Z</time>
      </trkpt>
      <trkpt lat="43.56373" lon="5.90165">
        <ele>460</ele>
        <time>2018-06-17T06:02:35Z</time>
      </trkpt>
      <trkpt lat="43.56393" lon="5.90159">
        <ele>461</ele>
        <time>2018-06-17T06:02:43Z</time>
      </trkpt>
      <trkpt lat="43.56412" lon="5.90151">
        <ele>462</ele>
        <time>2018-06-17T06:02:52Z</time>
      </trkpt>
      <trkpt lat="43.56426" lon="5.90166">
        <ele>463</ele>
        <time>2018-06-17T06:03:09Z</time>
      </trkpt>
      <trkpt lat="43.56418" lon="5.9019">
        <ele>463</ele>
        <time>2018-06-17T06:03:18Z</time>
      </trkpt>
      <trkpt lat="43.56411" lon="5.90213">
        <ele>461</ele>
        <time>2018-06-17T06:03:24Z</time>
      </trkpt>
      <trkpt lat="43.56398" lon="5.90236">
        <ele>461</ele>
        <time>2018-06-17T06:03:30Z</time>
      </trkpt>
      <trkpt lat="43.56387" lon="5.90257">
        <ele>460</ele>
        <time>2018-06-17T06:03:35Z</time>
      </trkpt>
      <trkpt lat="43.56374" lon="5.90279">
        <ele>459</ele>
        <time>2018-06-17T06:03:41Z</time>
      </trkpt>
      <trkpt lat="43.56361" lon="5.903">
        <ele>459</ele>
        <time>2018-06-17T06:03:47Z</time>
      </trkpt>
      <trkpt lat="43.56349" lon="5.90322">
        <ele>458</ele>
        <time>2018-06-17T06:03:53Z</time>
      </trkpt>
      <trkpt lat="43.56334" lon="5.90342">
        <ele>457</ele>
        <time>2018-06-17T06:03:59Z</time>
      </trkpt>
      <trkpt lat="43.56321" lon="5.90362">
        <ele>456</ele>
        <time>2018-06-17T06:04:04Z</time>
      </trkpt>
      <trkpt lat="43.56308" lon="5.90381">
        <ele>455</ele>
        <time>2018-06-17T06:06:20Z</time>
      </trkpt>
      <trkpt lat="43.56292" lon="5.90393">
        <ele>455</ele>
        <time>2018-06-17T06:06:26Z</time>
      </trkpt>
      <trkpt lat="43.56275" lon="5.90403">
        <ele>454</ele>
        <time>2018-06-17T06:06:34Z</time>
      </trkpt>
      <trkpt lat="43.56256" lon="5.90405">
        <ele>454</ele>
        <time>2018-06-17T06:06:45Z</time>
      </trkpt>
      <trkpt lat="43.56238" lon="5.90408">
        <ele>453</ele>
        <time>2018-06-17T06:06:53Z</time>
      </trkpt>
      <trkpt lat="43.56222" lon="5.90422">
        <ele>453</ele>
        <time>2018-06-17T06:06:59Z</time>
      </trkpt>
      <trkpt lat="43.56202" lon="5.90432">
        <ele>453</ele>
        <time>2018-06-17T06:07:05Z</time>
      </trkpt>
      <trkpt lat="43.56183" lon="5.90437">
        <ele>453</ele>
        <time>2018-06-17T06:07:11Z</time>
      </trkpt>
      <trkpt lat="43.56165" lon="5.9043">
        <ele>453</ele>
        <time>2018-06-17T06:07:54Z</time>
      </trkpt>
      <trkpt lat="43.56146" lon="5.90436">
        <ele>453</ele>
        <time>2018-06-17T06:08:03Z</time>
      </trkpt>
      <trkpt lat="43.56126" lon="5.90437">
        <ele>452</ele>
        <time>2018-06-17T06:08:13Z</time>
      </trkpt>
      <trkpt lat="43.56111" lon="5.90454">
        <ele>452</ele>
        <time>2018-06-17T06:08:19Z</time>
      </trkpt>
      <trkpt lat="43.56097" lon="5.90475">
        <ele>452</ele>
        <time>2018-06-17T06:08:25Z</time>
      </trkpt>
      <trkpt lat="43.56082" lon="5.90494">
        <ele>452</ele>
        <time>2018-06-17T06:08:31Z</time>
      </trkpt>
      <trkpt lat="43.56074" lon="5.90517">
        <ele>451</ele>
        <time>2018-06-17T06:08:36Z</time>
      </trkpt>
      <trkpt lat="43.56067" lon="5.90544">
        <ele>450</ele>
        <time>2018-06-17T06:08:41Z</time>
      </trkpt>
      <trkpt lat="43.56059" lon="5.90569">
        <ele>449</ele>
        <time>2018-06-17T06:08:45Z</time>
      </trkpt>
      <trkpt lat="43.56058" lon="5.90595">
        <ele>447</ele>
        <time>2018-06-17T06:08:49Z</time>
      </trkpt>
      <trkpt lat="43.56061" lon="5.90622">
        <ele>447</ele>
        <time>2018-06-17T06:08:53Z</time>
      </trkpt>
      <trkpt lat="43.56063" lon="5.90648">
        <ele>446</ele>
        <time>2018-06-17T06:08:57Z</time>
      </trkpt>
      <trkpt lat="43.56049" lon="5.90671">
        <ele>444</ele>
        <time>2018-06-17T06:09:02Z</time>
      </trkpt>
      <trkpt lat="43.56033" lon="5.90683">
        <ele>445</ele>
        <time>2018-06-17T06:09:06Z</time>
      </trkpt>
      <trkpt lat="43.56016" lon="5.90701">
        <ele>445</ele>
        <time>2018-06-17T06:09:11Z</time>
      </trkpt>
      <trkpt lat="43.56003" lon="5.90719">
        <ele>444</ele>
        <time>2018-06-17T06:09:15Z</time>
      </trkpt>
      <trkpt lat="43.55985" lon="5.90737">
        <ele>445</ele>
        <time>2018-06-17T06:09:20Z</time>
      </trkpt>
      <trkpt lat="43.55969" lon="5.90755">
        <ele>444</ele>
        <time>2018-06-17T06:09:25Z</time>
      </trkpt>
      <trkpt lat="43.55953" lon="5.90772">
        <ele>444</ele>
        <time>2018-06-17T06:09:30Z</time>
      </trkpt>
      <trkpt lat="43.55936" lon="5.9079">
        <ele>444</ele>
        <time>2018-06-17T06:09:35Z</time>
      </trkpt>
      <trkpt lat="43.5592" lon="5.90806">
        <ele>444</ele>
        <time>2018-06-17T06:09:40Z</time>
      </trkpt>
      <trkpt lat="43.55901" lon="5.9082">
        <ele>443</ele>
        <time>2018-06-17T06:09:46Z</time>
      </trkpt>
      <trkpt lat="43.55886" lon="5.90836">
        <ele>442</ele>
        <time>2018-06-17T06:09:51Z</time>
      </trkpt>
      <trkpt lat="43.55871" lon="5.90854">
        <ele>442</ele>
        <time>2018-06-17T06:09:56Z</time>
      </trkpt>
      <trkpt lat="43.55856" lon="5.90873">
        <ele>442</ele>
        <time>2018-06-17T06:10:01Z</time>
      </trkpt>
      <trkpt lat="43.5584" lon="5.90892">
        <ele>441</ele>
        <time>2018-06-17T06:10:06Z</time>
      </trkpt>
      <trkpt lat="43.55823" lon="5.90909">
        <ele>440</ele>
        <time>2018-06-17T06:10:11Z</time>
      </trkpt>
      <trkpt lat="43.55804" lon="5.90932">
        <ele>439</ele>
      </trkpt>
      <trkpt lat="43.55782" lon="5.90962">
        <ele>439</ele>
      </trkpt>
      <trkpt lat="43.5576" lon="5.90984">
        <ele>439</ele>
        <time>2018-06-17T06:14:49Z</time>
      </trkpt>
      <trkpt lat="43.55744" lon="5.90996">
        <ele>439</ele>
        <time>2018-06-17T06:15:15Z</time>
      </trkpt>
      <trkpt lat="43.55725" lon="5.91004">
        <ele>439</ele>
        <time>2018-06-17T06:15:25Z</time>
      </trkpt>
      <trkpt lat="43.55707" lon="5.91003">
        <ele>439</ele>
        <time>2018-06-17T06:15:33Z</time>
      </trkpt>
      <trkpt lat="43.55689" lon="5.91003">
        <ele>439</ele>
        <time>2018-06-17T06:15:39Z</time>
      </trkpt>
      <trkpt lat="43.5567" lon="5.91013">
        <ele>439</ele>
        <time>2018-06-17T06:15:46Z</time>
      </trkpt>
      <trkpt lat="43.55651" lon="5.91017">
        <ele>439</ele>
        <time>2018-06-17T06:15:52Z</time>
      </trkpt>
      <trkpt lat="43.55632" lon="5.91011">
        <ele>439</ele>
        <time>2018-06-17T06:15:59Z</time>
      </trkpt>
      <trkpt lat="43.55614" lon="5.91004">
        <ele>438</ele>
        <time>2018-06-17T06:16:12Z</time>
      </trkpt>
      <trkpt lat="43.55598" lon="5.91014">
        <ele>438</ele>
        <time>2018-06-17T06:16:24Z</time>
      </trkpt>
      <trkpt lat="43.55579" lon="5.91017">
        <ele>437</ele>
        <time>2018-06-17T06:16:37Z</time>
      </trkpt>
      <trkpt lat="43.5556" lon="5.91029">
        <ele>437</ele>
        <time>2018-06-17T06:16:58Z</time>
      </trkpt>
      <trkpt lat="43.55547" lon="5.91046">
        <ele>436</ele>
        <time>2018-06-17T06:17:03Z</time>
      </trkpt>
      <trkpt lat="43.5553" lon="5.91062">
        <ele>436</ele>
        <time>2018-06-17T06:17:09Z</time>
      </trkpt>
      <trkpt lat="43.55516" lon="5.91081">
        <ele>436</ele>
        <time>2018-06-17T06:17:16Z</time>
      </trkpt>
      <trkpt lat="43.55506" lon="5.91105">
        <ele>437</ele>
        <time>2018-06-17T06:17:24Z</time>
      </trkpt>
      <trkpt lat="43.55496" lon="5.91127">
        <ele>435</ele>
        <time>2018-06-17T06:17:31Z</time>
      </trkpt>
      <trkpt lat="43.55484" lon="5.91146">
        <ele>436</ele>
        <time>2018-06-17T06:17:37Z</time>
      </trkpt>
      <trkpt lat="43.5547" lon="5.91164">
        <ele>436</ele>
        <time>2018-06-17T06:17:43Z</time>
      </trkpt>
      <trkpt lat="43.55456" lon="5.91184">
        <ele>436</ele>
        <time>2018-06-17T06:17:50Z</time>
      </trkpt>
      <trkpt lat="43.55443" lon="5.91206">
        <ele>436</ele>
        <time>2018-06-17T06:17:57Z</time>
      </trkpt>
      <trkpt lat="43.55428" lon="5.91225">
        <ele>435</ele>
        <time>2018-06-17T06:18:04Z</time>
      </trkpt>
      <trkpt lat="43.55418" lon="5.91247">
        <ele>434</ele>
        <time>2018-06-17T06:18:11Z</time>
      </trkpt>
      <trkpt lat="43.55406" lon="5.91269">
        <ele>436</ele>
        <time>2018-06-17T06:18:19Z</time>
      </trkpt>
      <trkpt lat="43.55391" lon="5.91284">
        <ele>437</ele>
        <time>2018-06-17T06:18:25Z</time>
      </trkpt>
      <trkpt lat="43.55371" lon="5.91294">
        <ele>437</ele>
        <time>2018-06-17T06:18:31Z</time>
      </trkpt>
      <trkpt lat="43.55354" lon="5.91311">
        <ele>437</ele>
        <time>2018-06-17T06:18:37Z</time>
      </trkpt>
      <trkpt lat="43.5534" lon="5.91327">
        <ele>438</ele>
        <time>2018-06-17T06:18:42Z</time>
      </trkpt>
      <trkpt lat="43.55325" lon="5.91346">
        <ele>439</ele>
        <time>2018-06-17T06:18:48Z</time>
      </trkpt>
      <trkpt lat="43.55312" lon="5.91368">
        <ele>439</ele>
        <time>2018-06-17T06:18:54Z</time>
      </trkpt>
      <trkpt lat="43.55302" lon="5.91388">
        <ele>440</ele>
        <time>2018-06-17T06:18:59Z</time>
      </trkpt>
      <trkpt lat="43.55293" lon="5.9141">
        <ele>440</ele>
        <time>2018-06-17T06:19:04Z</time>
      </trkpt>
      <trkpt lat="43.55283" lon="5.91431">
        <ele>440</ele>
        <time>2018-06-17T06:19:09Z</time>
      </trkpt>
      <trkpt lat="43.55273" lon="5.91456">
        <ele>440</ele>
        <time>2018-06-17T06:19:15Z</time>
      </trkpt>
      <trkpt lat="43.55263" lon="5.9148">
        <ele>440</ele>
        <time>2018-06-17T06:19:21Z</time>
      </trkpt>
      <trkpt lat="43.55258" lon="5.91505">
        <ele>439</ele>
        <time>2018-06-17T06:19:26Z</time>
      </trkpt>
      <trkpt lat="43.55248" lon="5.91529">
        <ele>438</ele>
        <time>2018-06-17T06:19:31Z</time>
      </trkpt>
      <trkpt lat="43.55241" lon="5.91553">
        <ele>439</ele>
        <time>2018-06-17T06:21:09Z</time>
      </trkpt>
      <trkpt lat="43.55232" lon="5.91579">
        <ele>439</ele>
        <time>2018-06-17T06:21:16Z</time>
      </trkpt>
      <trkpt lat="43.55221" lon="5.91605">
        <ele>439</ele>
        <time>2018-06-17T06:21:21Z</time>
      </trkpt>
      <trkpt lat="43.5521" lon="5.91631">
        <ele>439</ele>
        <time>2018-06-17T06:21:26Z</time>
      </trkpt>
      <trkpt lat="43.55201" lon="5.9166">
        <ele>438</ele>
        <time>2018-06-17T06:21:31Z</time>
      </trkpt>
      <trkpt lat="43.55194" lon="5.91686">
        <ele>437</ele>
        <time>2018-06-17T06:21:35Z</time>
      </trkpt>
      <trkpt lat="43.55183" lon="5.91708">
        <ele>436</ele>
        <time>2018-06-17T06:21:40Z</time>
      </trkpt>
      <trkpt lat="43.55173" lon="5.91734">
        <ele>434</ele>
        <time>2018-06-17T06:21:45Z</time>
      </trkpt>
      <trkpt lat="43.55169" lon="5.9176">
        <ele>432</ele>
        <time>2018-06-17T06:21:50Z</time>
      </trkpt>
      <trkpt lat="43.55167" lon="5.91785">
        <ele>434</ele>
        <time>2018-06-17T06:21:54Z</time>
      </trkpt>
      <trkpt lat="43.55165" lon="5.91814">
        <ele>431</ele>
        <time>2018-06-17T06:21:59Z</time>
      </trkpt>
      <trkpt lat="43.5516" lon="5.91838">
        <ele>431</ele>
        <time>2018-06-17T06:22:03Z</time>
      </trkpt>
      <trkpt lat="43.55152" lon="5.91865">
        <ele>431</ele>
        <time>2018-06-17T06:22:07Z</time>
      </trkpt>
      <trkpt lat="43.55143" lon="5.91893">
        <ele>431</ele>
        <time>2018-06-17T06:22:11Z</time>
      </trkpt>
      <trkpt lat="43.55127" lon="5.91914">
        <ele>430</ele>
        <time>2018-06-17T06:22:15Z</time>
      </trkpt>
      <trkpt lat="43.55111" lon="5.91936">
        <ele>431</ele>
        <time>2018-06-17T06:22:19Z</time>
      </trkpt>
      <trkpt lat="43.551" lon="5.91961">
        <ele>431</ele>
        <time>2018-06-17T06:22:23Z</time>
      </trkpt>
      <trkpt lat="43.55099" lon="5.91989">
        <ele>432</ele>
        <time>2018-06-17T06:22:28Z</time>
      </trkpt>
      <trkpt lat="43.55091" lon="5.92017">
        <ele>435</ele>
        <time>2018-06-17T06:22:33Z</time>
      </trkpt>
      <trkpt lat="43.55084" lon="5.92043">
        <ele>437</ele>
        <time>2018-06-17T06:22:38Z</time>
      </trkpt>
      <trkpt lat="43.55078" lon="5.92068">
        <ele>434</ele>
        <time>2018-06-17T06:22:44Z</time>
      </trkpt>
      <trkpt lat="43.55085" lon="5.92093">
        <ele>439</ele>
        <time>2018-06-17T06:22:57Z</time>
      </trkpt>
      <trkpt lat="43.55102" lon="5.92102">
        <ele>440</ele>
        <time>2018-06-17T06:23:10Z</time>
      </trkpt>
      <trkpt lat="43.55118" lon="5.92114">
        <ele>440</ele>
        <time>2018-06-17T06:23:25Z</time>
      </trkpt>
      <trkpt lat="43.5513" lon="5.92133">
        <ele>440</ele>
        <time>2018-06-17T06:23:41Z</time>
      </trkpt>
      <trkpt lat="43.55128" lon="5.92161">
        <ele>440</ele>
        <time>2018-06-17T06:23:51Z</time>
      </trkpt>
      <trkpt lat="43.55123" lon="5.92186">
        <ele>440</ele>
        <time>2018-06-17T06:23:57Z</time>
      </trkpt>
      <trkpt lat="43.55117" lon="5.9221">
        <ele>440</ele>
        <time>2018-06-17T06:24:02Z</time>
      </trkpt>
      <trkpt lat="43.55107" lon="5.92232">
        <ele>440</ele>
        <time>2018-06-17T06:24:07Z</time>
      </trkpt>
      <trkpt lat="43.55096" lon="5.92253">
        <ele>439</ele>
        <time>2018-06-17T06:24:12Z</time>
      </trkpt>
      <trkpt lat="43.55089" lon="5.92277">
        <ele>439</ele>
        <time>2018-06-17T06:24:17Z</time>
      </trkpt>
      <trkpt lat="43.55077" lon="5.92299">
        <ele>439</ele>
        <time>2018-06-17T06:24:23Z</time>
      </trkpt>
      <trkpt lat="43.55073" lon="5.92328">
        <ele>438</ele>
        <time>2018-06-17T06:24:31Z</time>
      </trkpt>
      <trkpt lat="43.55072" lon="5.92355">
        <ele>438</ele>
        <time>2018-06-17T06:24:37Z</time>
      </trkpt>
      <trkpt lat="43.55071" lon="5.92382">
        <ele>438</ele>
        <time>2018-06-17T06:24:43Z</time>
      </trkpt>
      <trkpt lat="43.55066" lon="5.92407">
        <ele>437</ele>
        <time>2018-06-17T06:24:49Z</time>
      </trkpt>
      <trkpt lat="43.55062" lon="5.92432">
        <ele>437</ele>
        <time>2018-06-17T06:24:54Z</time>
      </trkpt>
      <trkpt lat="43.55057" lon="5.92457">
        <ele>437</ele>
        <time>2018-06-17T06:24:59Z</time>
      </trkpt>
      <trkpt lat="43.55043" lon="5.9248">
        <ele>437</ele>
        <time>2018-06-17T06:25:05Z</time>
      </trkpt>
      <trkpt lat="43.55054" lon="5.925">
        <ele>436</ele>
        <time>2018-06-17T06:25:18Z</time>
      </trkpt>
      <trkpt lat="43.55068" lon="5.92519">
        <ele>436</ele>
        <time>2018-06-17T06:25:29Z</time>
      </trkpt>
      <trkpt lat="43.55086" lon="5.9253">
        <ele>435</ele>
        <time>2018-06-17T06:25:37Z</time>
      </trkpt>
      <trkpt lat="43.55105" lon="5.92538">
        <ele>435</ele>
        <time>2018-06-17T06:25:43Z</time>
      </trkpt>
      <trkpt lat="43.55122" lon="5.92529">
        <ele>435</ele>
        <time>2018-06-17T06:25:56Z</time>
      </trkpt>
      <trkpt lat="43.55127" lon="5.92503">
        <ele>434</ele>
        <time>2018-06-17T06:26:04Z</time>
      </trkpt>
      <trkpt lat="43.55133" lon="5.92479">
        <ele>435</ele>
        <time>2018-06-17T06:26:10Z</time>
      </trkpt>
      <trkpt lat="43.55144" lon="5.92454">
        <ele>435</ele>
        <time>2018-06-17T06:26:16Z</time>
      </trkpt>
      <trkpt lat="43.55152" lon="5.9243">
        <ele>435</ele>
        <time>2018-06-17T06:26:21Z</time>
      </trkpt>
      <trkpt lat="43.55159" lon="5.92403">
        <ele>436</ele>
        <time>2018-06-17T06:26:26Z</time>
      </trkpt>
      <trkpt lat="43.55169" lon="5.92377">
        <ele>433</ele>
        <time>2018-06-17T06:26:31Z</time>
      </trkpt>
      <trkpt lat="43.55176" lon="5.92349">
        <ele>434</ele>
        <time>2018-06-17T06:26:36Z</time>
      </trkpt>
      <trkpt lat="43.55183" lon="5.92319">
        <ele>435</ele>
        <time>2018-06-17T06:26:41Z</time>
      </trkpt>
      <trkpt lat="43.55188" lon="5.9229">
        <ele>434</ele>
        <time>2018-06-17T06:26:46Z</time>
      </trkpt>
      <trkpt lat="43.55195" lon="5.92262">
        <ele>434</ele>
        <time>2018-06-17T06:26:51Z</time>
      </trkpt>
      <trkpt lat="43.55207" lon="5.92237">
        <ele>436</ele>
        <time>2018-06-17T06:26:56Z</time>
      </trkpt>
      <trkpt lat="43.55218" lon="5.92214">
        <ele>436</ele>
        <time>2018-06-17T06:27:01Z</time>
      </trkpt>
      <trkpt lat="43.55228" lon="5.92192">
        <ele>437</ele>
        <time>2018-06-17T06:27:06Z</time>
      </trkpt>
      <trkpt lat="43.55238" lon="5.9217">
        <ele>437</ele>
        <time>2018-06-17T06:27:11Z</time>
      </trkpt>
      <trkpt lat="43.55246" lon="5.92148">
        <ele>440</ele>
        <time>2018-06-17T06:27:16Z</time>
      </trkpt>
      <trkpt lat="43.55256" lon="5.92125">
        <ele>439</ele>
        <time>2018-06-17T06:27:21Z</time>
      </trkpt>
      <trkpt lat="43.55267" lon="5.92102">
        <ele>440</ele>
        <time>2018-06-17T06:27:26Z</time>
      </trkpt>
      <trkpt lat="43.55277" lon="5.92078">
        <ele>441</ele>
        <time>2018-06-17T06:27:31Z</time>
      </trkpt>
      <trkpt lat="43.55288" lon="5.92057">
        <ele>441</ele>
        <time>2018-06-17T06:27:36Z</time>
      </trkpt>
      <trkpt lat="43.55306" lon="5.92041">
        <ele>441</ele>
        <time>2018-06-17T06:27:41Z</time>
      </trkpt>
      <trkpt lat="43.55323" lon="5.92026">
        <ele>441</ele>
        <time>2018-06-17T06:27:46Z</time>
      </trkpt>
      <trkpt lat="43.55342" lon="5.92015">
        <ele>441</ele>
        <time>2018-06-17T06:27:51Z</time>
      </trkpt>
      <trkpt lat="43.5536" lon="5.92002">
        <ele>441</ele>
        <time>2018-06-17T06:27:56Z</time>
      </trkpt>
      <trkpt lat="43.55379" lon="5.91984">
        <ele>441</ele>
        <time>2018-06-17T06:28:01Z</time>
      </trkpt>
      <trkpt lat="43.55394" lon="5.91961">
        <ele>441</ele>
        <time>2018-06-17T06:28:06Z</time>
      </trkpt>
      <trkpt lat="43.55405" lon="5.91942">
        <ele>441</ele>
        <time>2018-06-17T06:28:10Z</time>
      </trkpt>
      <trkpt lat="43.55416" lon="5.91921">
        <ele>441</ele>
        <time>2018-06-17T06:28:14Z</time>
      </trkpt>
      <trkpt lat="43.55427" lon="5.919">
        <ele>440</ele>
        <time>2018-06-17T06:28:18Z</time>
      </trkpt>
      <trkpt lat="43.55431" lon="5.91872">
        <ele>440</ele>
        <time>2018-06-17T06:28:23Z</time>
      </trkpt>
      <trkpt lat="43.55426" lon="5.91842">
        <ele>440</ele>
        <time>2018-06-17T06:28:28Z</time>
      </trkpt>
      <trkpt lat="43.55425" lon="5.91816">
        <ele>440</ele>
        <time>2018-06-17T06:28:32Z</time>
      </trkpt>
      <trkpt lat="43.55427" lon="5.9179">
        <ele>439</ele>
        <time>2018-06-17T06:28:36Z</time>
      </trkpt>
      <trkpt lat="43.55429" lon="5.91764">
        <ele>440</ele>
        <time>2018-06-17T06:28:40Z</time>
      </trkpt>
      <trkpt lat="43.55431" lon="5.91737">
        <ele>439</ele>
        <time>2018-06-17T06:28:44Z</time>
      </trkpt>
      <trkpt lat="43.55433" lon="5.9171">
        <ele>438</ele>
        <time>2018-06-17T06:28:48Z</time>
      </trkpt>
      <trkpt lat="43.55433" lon="5.91683">
        <ele>438</ele>
        <time>2018-06-17T06:28:52Z</time>
      </trkpt>
      <trkpt lat="43.5543" lon="5.91653">
        <ele>438</ele>
        <time>2018-06-17T06:28:57Z</time>
      </trkpt>
      <trkpt lat="43.55425" lon="5.91629">
        <ele>438</ele>
        <time>2018-06-17T06:29:01Z</time>
      </trkpt>
      <trkpt lat="43.55426" lon="5.91598">
        <ele>439</ele>
        <time>2018-06-17T06:29:06Z</time>
      </trkpt>
      <trkpt lat="43.55433" lon="5.91573">
        <ele>439</ele>
        <time>2018-06-17T06:29:10Z</time>
      </trkpt>
      <trkpt lat="43.55439" lon="5.9155">
        <ele>439</ele>
        <time>2018-06-17T06:29:14Z</time>
      </trkpt>
      <trkpt lat="43.55446" lon="5.91526">
        <ele>440</ele>
        <time>2018-06-17T06:29:18Z</time>
      </trkpt>
      <trkpt lat="43.55455" lon="5.91502">
        <ele>440</ele>
        <time>2018-06-17T06:29:22Z</time>
      </trkpt>
      <trkpt lat="43.5546" lon="5.91477">
        <ele>440</ele>
        <time>2018-06-17T06:29:26Z</time>
      </trkpt>
      <trkpt lat="43.55466" lon="5.91454">
        <ele>440</ele>
        <time>2018-06-17T06:29:30Z</time>
      </trkpt>
      <trkpt lat="43.55476" lon="5.9143">
        <ele>439</ele>
        <time>2018-06-17T06:29:34Z</time>
      </trkpt>
      <trkpt lat="43.55487" lon="5.91407">
        <ele>438</ele>
        <time>2018-06-17T06:29:38Z</time>
      </trkpt>
      <trkpt lat="43.55499" lon="5.91386">
        <ele>439</ele>
        <time>2018-06-17T06:29:42Z</time>
      </trkpt>
      <trkpt lat="43.5551" lon="5.91365">
        <ele>437</ele>
        <time>2018-06-17T06:29:46Z</time>
      </trkpt>
      <trkpt lat="43.55514" lon="5.91341">
        <ele>437</ele>
        <time>2018-06-17T06:29:50Z</time>
      </trkpt>
      <trkpt lat="43.55504" lon="5.91314">
        <ele>439</ele>
        <time>2018-06-17T06:29:55Z</time>
      </trkpt>
      <trkpt lat="43.55488" lon="5.91294">
        <ele>438</ele>
        <time>2018-06-17T06:30:00Z</time>
      </trkpt>
      <trkpt lat="43.55468" lon="5.91281">
        <ele>438</ele>
        <time>2018-06-17T06:30:05Z</time>
      </trkpt>
      <trkpt lat="43.55449" lon="5.91271">
        <ele>437</ele>
        <time>2018-06-17T06:30:10Z</time>
      </trkpt>
      <trkpt lat="43.5543" lon="5.91261">
        <ele>436</ele>
        <time>2018-06-17T06:30:15Z</time>
      </trkpt>
      <trkpt lat="43.55419" lon="5.91238">
        <ele>435</ele>
        <time>2018-06-17T06:30:21Z</time>
      </trkpt>
      <trkpt lat="43.55432" lon="5.91218">
        <ele>436</ele>
        <time>2018-06-17T06:30:27Z</time>
      </trkpt>
      <trkpt lat="43.55447" lon="5.912">
        <ele>436</ele>
        <time>2018-06-17T06:30:31Z</time>
      </trkpt>
      <trkpt lat="43.55461" lon="5.91179">
        <ele>436</ele>
        <time>2018-06-17T06:30:35Z</time>
      </trkpt>
      <trkpt lat="43.55476" lon="5.91159">
        <ele>436</ele>
        <time>2018-06-17T06:30:39Z</time>
      </trkpt>
      <trkpt lat="43.55491" lon="5.91139">
        <ele>436</ele>
        <time>2018-06-17T06:30:43Z</time>
      </trkpt>
      <trkpt lat="43.55504" lon="5.91113">
        <ele>437</ele>
        <time>2018-06-17T06:30:47Z</time>
      </trkpt>
      <trkpt lat="43.55515" lon="5.91088">
        <ele>437</ele>
        <time>2018-06-17T06:30:51Z</time>
      </trkpt>
      <trkpt lat="43.55531" lon="5.91066">
        <ele>436</ele>
        <time>2018-06-17T06:30:56Z</time>
      </trkpt>
      <trkpt lat="43.55544" lon="5.91049">
        <ele>436</ele>
        <time>2018-06-17T06:31:00Z</time>
      </trkpt>
      <trkpt lat="43.55556" lon="5.91025">
        <ele>436</ele>
        <time>2018-06-17T06:31:05Z</time>
      </trkpt>
      <trkpt lat="43.55561" lon="5.91">
        <ele>436</ele>
        <time>2018-06-17T06:31:10Z</time>
      </trkpt>
      <trkpt lat="43.55544" lon="5.90982">
        <ele>435</ele>
        <time>2018-06-17T06:31:15Z</time>
      </trkpt>
      <trkpt lat="43.55524" lon="5.90975">
        <ele>435</ele>
        <time>2018-06-17T06:31:19Z</time>
      </trkpt>
      <trkpt lat="43.55506" lon="5.90958">
        <ele>435</ele>
        <time>2018-06-17T06:31:24Z</time>
      </trkpt>
      <trkpt lat="43.55488" lon="5.90958">
        <ele>435</ele>
        <time>2018-06-17T06:31:28Z</time>
      </trkpt>
      <trkpt lat="43.5547" lon="5.90951">
        <ele>436</ele>
        <time>2018-06-17T06:31:32Z</time>
      </trkpt>
      <trkpt lat="43.55458" lon="5.90932">
        <ele>436</ele>
        <time>2018-06-17T06:31:37Z</time>
      </trkpt>
      <trkpt lat="43.55443" lon="5.90911">
        <ele>438</ele>
        <time>2018-06-17T06:31:43Z</time>
      </trkpt>
      <trkpt lat="43.55424" lon="5.90904">
        <ele>439</ele>
        <time>2018-06-17T06:31:48Z</time>
      </trkpt>
      <trkpt lat="43.55408" lon="5.90887">
        <ele>440</ele>
        <time>2018-06-17T06:31:54Z</time>
      </trkpt>
      <trkpt lat="43.55406" lon="5.90862">
        <ele>440</ele>
        <time>2018-06-17T06:31:59Z</time>
      </trkpt>
      <trkpt lat="43.55404" lon="5.90832">
        <ele>438</ele>
        <time>2018-06-17T06:32:04Z</time>
      </trkpt>
      <trkpt lat="43.55394" lon="5.90807">
        <ele>437</ele>
        <time>2018-06-17T06:32:09Z</time>
      </trkpt>
      <trkpt lat="43.55394" lon="5.90778">
        <ele>436</ele>
        <time>2018-06-17T06:32:14Z</time>
      </trkpt>
      <trkpt lat="43.55385" lon="5.90752">
        <ele>435</ele>
        <time>2018-06-17T06:32:19Z</time>
      </trkpt>
      <trkpt lat="43.55382" lon="5.90726">
        <ele>432</ele>
        <time>2018-06-17T06:32:23Z</time>
      </trkpt>
      <trkpt lat="43.55374" lon="5.90702">
        <ele>431</ele>
        <time>2018-06-17T06:32:27Z</time>
      </trkpt>
      <trkpt lat="43.55366" lon="5.90677">
        <ele>431</ele>
        <time>2018-06-17T06:32:32Z</time>
      </trkpt>
      <trkpt lat="43.55376" lon="5.90651">
        <ele>428</ele>
        <time>2018-06-17T06:32:37Z</time>
      </trkpt>
      <trkpt lat="43.55369" lon="5.90626">
        <ele>428</ele>
        <time>2018-06-17T06:32:42Z</time>
      </trkpt>
      <trkpt lat="43.5535" lon="5.90611">
        <ele>428</ele>
        <time>2018-06-17T06:32:47Z</time>
      </trkpt>
      <trkpt lat="43.55332" lon="5.90604">
        <ele>428</ele>
        <time>2018-06-17T06:32:51Z</time>
      </trkpt>
      <trkpt lat="43.55316" lon="5.90583">
        <ele>426</ele>
        <time>2018-06-17T06:32:56Z</time>
      </trkpt>
      <trkpt lat="43.55304" lon="5.90563">
        <ele>426</ele>
        <time>2018-06-17T06:33:00Z</time>
      </trkpt>
      <trkpt lat="43.5529" lon="5.90545">
        <ele>427</ele>
        <time>2018-06-17T06:33:04Z</time>
      </trkpt>
      <trkpt lat="43.55273" lon="5.90532">
        <ele>427</ele>
        <time>2018-06-17T06:33:08Z</time>
      </trkpt>
      <trkpt lat="43.55252" lon="5.90522">
        <ele>426</ele>
        <time>2018-06-17T06:33:13Z</time>
      </trkpt>
      <trkpt lat="43.55232" lon="5.90513">
        <ele>427</ele>
        <time>2018-06-17T06:33:18Z</time>
      </trkpt>
      <trkpt lat="43.55211" lon="5.90506">
        <ele>427</ele>
        <time>2018-06-17T06:33:23Z</time>
      </trkpt>
      <trkpt lat="43.55194" lon="5.90496">
        <ele>426</ele>
        <time>2018-06-17T06:33:27Z</time>
      </trkpt>
      <trkpt lat="43.55175" lon="5.9048">
        <ele>426</ele>
        <time>2018-06-17T06:33:32Z</time>
      </trkpt>
      <trkpt lat="43.5516" lon="5.90462">
        <ele>425</ele>
        <time>2018-06-17T06:35:24Z</time>
      </trkpt>
      <trkpt lat="43.55144" lon="5.90441">
        <ele>424</ele>
        <time>2018-06-17T06:35:30Z</time>
      </trkpt>
      <trkpt lat="43.55128" lon="5.90423">
        <ele>424</ele>
        <time>2018-06-17T06:35:35Z</time>
      </trkpt>
      <trkpt lat="43.5511" lon="5.90404">
        <ele>422</ele>
        <time>2018-06-17T06:35:40Z</time>
      </trkpt>
      <trkpt lat="43.55095" lon="5.90386">
        <ele>422</ele>
        <time>2018-06-17T06:35:45Z</time>
      </trkpt>
      <trkpt lat="43.55076" lon="5.90373">
        <ele>420</ele>
        <time>2018-06-17T06:35:50Z</time>
      </trkpt>
      <trkpt lat="43.55055" lon="5.90369">
        <ele>420</ele>
        <time>2018-06-17T06:35:55Z</time>
      </trkpt>
      <trkpt lat="43.55036" lon="5.90368">
        <ele>421</ele>
        <time>2018-06-17T06:36:22Z</time>
      </trkpt>
      <trkpt lat="43.55018" lon="5.90379">
        <ele>420</ele>
        <time>2018-06-17T06:38:01Z</time>
      </trkpt>
      <trkpt lat="43.55" lon="5.90396">
        <ele>420</ele>
        <time>2018-06-17T06:38:08Z</time>
      </trkpt>
      <trkpt lat="43.54983" lon="5.90407">
        <ele>420</ele>
        <time>2018-06-17T06:38:13Z</time>
      </trkpt>
      <trkpt lat="43.54972" lon="5.90427">
        <ele>419</ele>
        <time>2018-06-17T06:38:18Z</time>
      </trkpt>
      <trkpt lat="43.54962" lon="5.90444">
        <ele>419</ele>
      </trkpt>
      <trkpt lat="43.5496" lon="5.90453">
        <ele>419</ele>
      </trkpt>
      <trkpt lat="43.54963" lon="5.90472">
        <ele>419</ele>
        <time>2018-06-17T06:41:46Z</time>
      </trkpt>
      <trkpt lat="43.54964" lon="5.905">
        <ele>420</ele>
        <time>2018-06-17T06:42:33Z</time>
      </trkpt>
      <trkpt lat="43.54962" lon="5.90527">
        <ele>420</ele>
        <time>2018-06-17T06:42:46Z</time>
      </trkpt>
      <trkpt lat="43.54964" lon="5.90553">
        <ele>421</ele>
        <time>2018-06-17T06:42:57Z</time>
      </trkpt>
      <trkpt lat="43.5497" lon="5.90578">
        <ele>422</ele>
        <time>2018-06-17T06:43:07Z</time>
      </trkpt>
      <trkpt lat="43.54975" lon="5.90603">
        <ele>424</ele>
        <time>2018-06-17T06:43:17Z</time>
      </trkpt>
      <trkpt lat="43.54984" lon="5.90627">
        <ele>425</ele>
        <time>2018-06-17T06:43:27Z</time>
      </trkpt>
      <trkpt lat="43.54996" lon="5.90648">
        <ele>425</ele>
        <time>2018-06-17T06:43:37Z</time>
      </trkpt>
      <trkpt lat="43.55007" lon="5.90669">
        <ele>426</ele>
        <time>2018-06-17T06:43:48Z</time>
      </trkpt>
      <trkpt lat="43.55014" lon="5.90694">
        <ele>426</ele>
        <time>2018-06-17T06:43:57Z</time>
      </trkpt>
      <trkpt lat="43.55021" lon="5.90717">
        <ele>427</ele>
        <time>2018-06-17T06:44:06Z</time>
      </trkpt>
      <trkpt lat="43.55025" lon="5.90743">
        <ele>427</ele>
        <time>2018-06-17T06:44:15Z</time>
      </trkpt>
      <trkpt lat="43.5504" lon="5.90759">
        <ele>428</ele>
        <time>2018-06-17T06:44:25Z</time>
      </trkpt>
      <trkpt lat="43.55056" lon="5.9077">
        <ele>428</ele>
        <time>2018-06-17T06:44:34Z</time>
      </trkpt>
      <trkpt lat="43.55075" lon="5.90768">
        <ele>427</ele>
        <time>2018-06-17T06:44:43Z</time>
      </trkpt>
      <trkpt lat="43.55093" lon="5.90764">
        <ele>428</ele>
        <time>2018-06-17T06:44:51Z</time>
      </trkpt>
      <trkpt lat="43.55111" lon="5.90767">
        <ele>429</ele>
        <time>2018-06-17T06:45:00Z</time>
      </trkpt>
      <trkpt lat="43.55124" lon="5.90785">
        <ele>430</ele>
        <time>2018-06-17T06:45:09Z</time>
      </trkpt>
      <trkpt lat="43.55128" lon="5.90811">
        <ele>430</ele>
        <time>2018-06-17T06:45:17Z</time>
      </trkpt>
      <trkpt lat="43.55124" lon="5.90836">
        <ele>434</ele>
        <time>2018-06-17T06:45:25Z</time>
      </trkpt>
      <trkpt lat="43.55111" lon="5.90855">
        <ele>434</ele>
        <time>2018-06-17T06:45:32Z</time>
      </trkpt>
      <trkpt lat="43.55104" lon="5.90879">
        <ele>436</ele>
        <time>2018-06-17T06:45:40Z</time>
      </trkpt>
      <trkpt lat="43.55098" lon="5.90904">
        <ele>437</ele>
        <time>2018-06-17T06:45:48Z</time>
      </trkpt>
      <trkpt lat="43.55089" lon="5.90929">
        <ele>440</ele>
        <time>2018-06-17T06:45:57Z</time>
      </trkpt>
      <trkpt lat="43.55087" lon="5.90953">
        <ele>440</ele>
        <time>2018-06-17T06:46:06Z</time>
      </trkpt>
      <trkpt lat="43.55071" lon="5.90963">
        <ele>439</ele>
        <time>2018-06-17T06:48:42Z</time>
      </trkpt>
      <trkpt lat="43.55051" lon="5.9096">
        <ele>438</ele>
        <time>2018-06-17T06:48:51Z</time>
      </trkpt>
      <trkpt lat="43.55031" lon="5.90952">
        <ele>438</ele>
        <time>2018-06-17T06:48:58Z</time>
      </trkpt>
      <trkpt lat="43.55011" lon="5.90942">
        <ele>437</ele>
        <time>2018-06-17T06:49:04Z</time>
      </trkpt>
      <trkpt lat="43.54992" lon="5.90934">
        <ele>435</ele>
        <time>2018-06-17T06:49:10Z</time>
      </trkpt>
      <trkpt lat="43.54979" lon="5.90916">
        <ele>434</ele>
        <time>2018-06-17T06:49:15Z</time>
      </trkpt>
      <trkpt lat="43.54964" lon="5.90899">
        <ele>433</ele>
        <time>2018-06-17T06:49:21Z</time>
      </trkpt>
      <trkpt lat="43.54946" lon="5.90893">
        <ele>433</ele>
        <time>2018-06-17T06:49:38Z</time>
      </trkpt>
      <trkpt lat="43.54932" lon="5.90876">
        <ele>433</ele>
        <time>2018-06-17T06:49:53Z</time>
      </trkpt>
      <trkpt lat="43.54915" lon="5.90863">
        <ele>435</ele>
        <time>2018-06-17T06:50:03Z</time>
      </trkpt>
      <trkpt lat="43.54897" lon="5.90854">
        <ele>436</ele>
        <time>2018-06-17T06:50:11Z</time>
      </trkpt>
      <trkpt lat="43.5488" lon="5.90845">
        <ele>436</ele>
        <time>2018-06-17T06:50:18Z</time>
      </trkpt>
      <trkpt lat="43.54864" lon="5.9083">
        <ele>435</ele>
        <time>2018-06-17T06:50:26Z</time>
      </trkpt>
      <trkpt lat="43.54854" lon="5.90808">
        <ele>435</ele>
        <time>2018-06-17T06:50:32Z</time>
      </trkpt>
      <trkpt lat="43.5484" lon="5.90789">
        <ele>434</ele>
        <time>2018-06-17T06:50:37Z</time>
      </trkpt>
      <trkpt lat="43.54826" lon="5.90766">
        <ele>434</ele>
        <time>2018-06-17T06:50:42Z</time>
      </trkpt>
      <trkpt lat="43.54811" lon="5.90745">
        <ele>432</ele>
        <time>2018-06-17T06:50:47Z</time>
      </trkpt>
      <trkpt lat="43.54794" lon="5.90726">
        <ele>432</ele>
        <time>2018-06-17T06:50:52Z</time>
      </trkpt>
      <trkpt lat="43.54778" lon="5.90707">
        <ele>432</ele>
        <time>2018-06-17T06:50:57Z</time>
      </trkpt>
      <trkpt lat="43.54762" lon="5.90694">
        <ele>432</ele>
        <time>2018-06-17T06:51:06Z</time>
      </trkpt>
      <trkpt lat="43.54754" lon="5.90672">
        <ele>431</ele>
        <time>2018-06-17T06:52:59Z</time>
      </trkpt>
      <trkpt lat="43.54741" lon="5.90654">
        <ele>433</ele>
        <time>2018-06-17T06:53:11Z</time>
      </trkpt>
      <trkpt lat="43.54726" lon="5.90639">
        <ele>435</ele>
        <time>2018-06-17T06:53:38Z</time>
      </trkpt>
      <trkpt lat="43.54711" lon="5.90623">
        <ele>436</ele>
        <time>2018-06-17T06:53:51Z</time>
      </trkpt>
      <trkpt lat="43.54698" lon="5.90606">
        <ele>436</ele>
        <time>2018-06-17T06:54:02Z</time>
      </trkpt>
      <trkpt lat="43.54683" lon="5.9059">
        <ele>438</ele>
        <time>2018-06-17T06:54:13Z</time>
      </trkpt>
      <trkpt lat="43.5467" lon="5.90572">
        <ele>438</ele>
        <time>2018-06-17T06:54:22Z</time>
      </trkpt>
      <trkpt lat="43.54655" lon="5.90556">
        <ele>443</ele>
        <time>2018-06-17T06:54:33Z</time>
      </trkpt>
      <trkpt lat="43.54643" lon="5.90537">
        <ele>444</ele>
        <time>2018-06-17T06:54:45Z</time>
      </trkpt>
      <trkpt lat="43.5463" lon="5.90517">
        <ele>445</ele>
        <time>2018-06-17T06:54:57Z</time>
      </trkpt>
      <trkpt lat="43.54616" lon="5.905">
        <ele>446</ele>
        <time>2018-06-17T06:55:09Z</time>
      </trkpt>
      <trkpt lat="43.546" lon="5.90484">
        <ele>446</ele>
        <time>2018-06-17T06:55:19Z</time>
      </trkpt>
      <trkpt lat="43.54586" lon="5.90466">
        <ele>446</ele>
        <time>2018-06-17T06:55:28Z</time>
      </trkpt>
      <trkpt lat="43.54572" lon="5.90449">
        <ele>453</ele>
        <time>2018-06-17T06:55:34Z</time>
      </trkpt>
      <trkpt lat="43.54555" lon="5.90431">
        <ele>454</ele>
        <time>2018-06-17T06:55:39Z</time>
      </trkpt>
      <trkpt lat="43.54543" lon="5.90412">
        <ele>456</ele>
        <time>2018-06-17T06:55:59Z</time>
      </trkpt>
      <trkpt lat="43.54529" lon="5.90397">
        <ele>458</ele>
        <time>2018-06-17T06:56:30Z</time>
      </trkpt>
      <trkpt lat="43.54516" lon="5.90378">
        <ele>459</ele>
        <time>2018-06-17T06:56:49Z</time>
      </trkpt>
      <trkpt lat="43.54501" lon="5.90363">
        <ele>460</ele>
        <time>2018-06-17T06:57:08Z</time>
      </trkpt>
      <trkpt lat="43.54487" lon="5.90346">
        <ele>466</ele>
        <time>2018-06-17T06:57:25Z</time>
      </trkpt>
      <trkpt lat="43.54474" lon="5.90328">
        <ele>467</ele>
        <time>2018-06-17T06:57:41Z</time>
      </trkpt>
      <trkpt lat="43.5446" lon="5.90312">
        <ele>467</ele>
        <time>2018-06-17T06:57:55Z</time>
      </trkpt>
      <trkpt lat="43.54446" lon="5.90289">
        <ele>467</ele>
        <time>2018-06-17T06:59:53Z</time>
      </trkpt>
      <trkpt lat="43.54433" lon="5.90268">
        <ele>467</ele>
        <time>2018-06-17T07:00:01Z</time>
      </trkpt>
      <trkpt lat="43.5442" lon="5.90248">
        <ele>466</ele>
        <time>2018-06-17T07:00:05Z</time>
      </trkpt>
      <trkpt lat="43.54407" lon="5.90224">
        <ele>462</ele>
        <time>2018-06-17T07:00:09Z</time>
      </trkpt>
      <trkpt lat="43.54393" lon="5.90202">
        <ele>459</ele>
        <time>2018-06-17T07:00:12Z</time>
      </trkpt>
      <trkpt lat="43.54379" lon="5.90176">
        <ele>458</ele>
        <time>2018-06-17T07:00:15Z</time>
      </trkpt>
      <trkpt lat="43.54363" lon="5.90148">
        <ele>451</ele>
        <time>2018-06-17T07:00:18Z</time>
      </trkpt>
      <trkpt lat="43.54347" lon="5.90121">
        <ele>450</ele>
        <time>2018-06-17T07:00:21Z</time>
      </trkpt>
      <trkpt lat="43.54331" lon="5.90097">
        <ele>450</ele>
        <time>2018-06-17T07:00:24Z</time>
      </trkpt>
      <trkpt lat="43.54315" lon="5.90073">
        <ele>446</ele>
        <time>2018-06-17T07:00:27Z</time>
      </trkpt>
      <trkpt lat="43.54297" lon="5.90049">
        <ele>444</ele>
        <time>2018-06-17T07:00:30Z</time>
      </trkpt>
      <trkpt lat="43.54278" lon="5.90023">
        <ele>443</ele>
        <time>2018-06-17T07:00:33Z</time>
      </trkpt>
      <trkpt lat="43.54264" lon="5.90005">
        <ele>442</ele>
        <time>2018-06-17T07:00:35Z</time>
      </trkpt>
      <trkpt lat="43.54251" lon="5.89986">
        <ele>438</ele>
        <time>2018-06-17T07:00:37Z</time>
      </trkpt>
      <trkpt lat="43.54237" lon="5.89969">
        <ele>436</ele>
        <time>2018-06-17T07:00:39Z</time>
      </trkpt>
      <trkpt lat="43.54224" lon="5.89951">
        <ele>434</ele>
        <time>2018-06-17T07:00:41Z</time>
      </trkpt>
      <trkpt lat="43.54212" lon="5.89931">
        <ele>434</ele>
        <time>2018-06-17T07:00:43Z</time>
      </trkpt>
      <trkpt lat="43.54202" lon="5.8991">
        <ele>429</ele>
        <time>2018-06-17T07:00:45Z</time>
      </trkpt>
      <trkpt lat="43.54191" lon="5.89889">
        <ele>429</ele>
        <time>2018-06-17T07:00:47Z</time>
      </trkpt>
      <trkpt lat="43.54177" lon="5.8986">
        <ele>428</ele>
        <time>2018-06-17T07:00:50Z</time>
      </trkpt>
      <trkpt lat="43.54161" lon="5.89834">
        <ele>428</ele>
        <time>2018-06-17T07:00:53Z</time>
      </trkpt>
      <trkpt lat="43.54145" lon="5.89819">
        <ele>426</ele>
        <time>2018-06-17T07:00:56Z</time>
      </trkpt>
      <trkpt lat="43.54145" lon="5.89793">
        <ele>425</ele>
        <time>2018-06-17T07:02:36Z</time>
      </trkpt>
      <trkpt lat="43.5416" lon="5.89773">
        <ele>424</ele>
        <time>2018-06-17T07:02:42Z</time>
      </trkpt>
      <trkpt lat="43.54174" lon="5.89754">
        <ele>423</ele>
        <time>2018-06-17T07:02:48Z</time>
      </trkpt>
      <trkpt lat="43.54191" lon="5.89739">
        <ele>419</ele>
        <time>2018-06-17T07:02:53Z</time>
      </trkpt>
      <trkpt lat="43.54204" lon="5.89721">
        <ele>417</ele>
        <time>2018-06-17T07:03:08Z</time>
      </trkpt>
      <trkpt lat="43.54215" lon="5.89699">
        <ele>417</ele>
        <time>2018-06-17T07:03:22Z</time>
      </trkpt>
      <trkpt lat="43.5423" lon="5.89683">
        <ele>416</ele>
        <time>2018-06-17T07:03:32Z</time>
      </trkpt>
      <trkpt lat="43.54246" lon="5.89669">
        <ele>416</ele>
        <time>2018-06-17T07:03:42Z</time>
      </trkpt>
      <trkpt lat="43.54261" lon="5.89654">
        <ele>411</ele>
        <time>2018-06-17T07:03:49Z</time>
      </trkpt>
      <trkpt lat="43.54275" lon="5.89634">
        <ele>408</ele>
        <time>2018-06-17T07:03:56Z</time>
      </trkpt>
      <trkpt lat="43.54286" lon="5.89611">
        <ele>406</ele>
        <time>2018-06-17T07:04:02Z</time>
      </trkpt>
      <trkpt lat="43.54294" lon="5.89585">
        <ele>406</ele>
        <time>2018-06-17T07:04:08Z</time>
      </trkpt>
      <trkpt lat="43.54308" lon="5.89563">
        <ele>401</ele>
        <time>2018-06-17T07:04:14Z</time>
      </trkpt>
      <trkpt lat="43.54317" lon="5.89536">
        <ele>399</ele>
        <time>2018-06-17T07:04:19Z</time>
      </trkpt>
      <trkpt lat="43.54332" lon="5.89514">
        <ele>397</ele>
        <time>2018-06-17T07:04:24Z</time>
      </trkpt>
      <trkpt lat="43.54349" lon="5.895">
        <ele>393</ele>
        <time>2018-06-17T07:04:29Z</time>
      </trkpt>
      <trkpt lat="43.54368" lon="5.8949">
        <ele>392</ele>
        <time>2018-06-17T07:04:37Z</time>
      </trkpt>
      <trkpt lat="43.5438" lon="5.89467">
        <ele>391</ele>
        <time>2018-06-17T07:04:42Z</time>
      </trkpt>
      <trkpt lat="43.5439" lon="5.8944">
        <ele>390</ele>
        <time>2018-06-17T07:04:47Z</time>
      </trkpt>
      <trkpt lat="43.54397" lon="5.89416">
        <ele>388</ele>
        <time>2018-06-17T07:04:54Z</time>
      </trkpt>
      <trkpt lat="43.54407" lon="5.89396">
        <ele>388</ele>
        <time>2018-06-17T07:05:19Z</time>
      </trkpt>
      <trkpt lat="43.54416" lon="5.89372">
        <ele>388</ele>
        <time>2018-06-17T07:05:26Z</time>
      </trkpt>
      <trkpt lat="43.54422" lon="5.89348">
        <ele>392</ele>
        <time>2018-06-17T07:05:44Z</time>
      </trkpt>
      <trkpt lat="43.54429" lon="5.89323">
        <ele>392</ele>
        <time>2018-06-17T07:05:54Z</time>
      </trkpt>
      <trkpt lat="43.54429" lon="5.89297">
        <ele>394</ele>
        <time>2018-06-17T07:06:01Z</time>
      </trkpt>
      <trkpt lat="43.54433" lon="5.89272">
        <ele>394</ele>
        <time>2018-06-17T07:06:07Z</time>
      </trkpt>
      <trkpt lat="43.54441" lon="5.89248">
        <ele>395</ele>
        <time>2018-06-17T07:06:13Z</time>
      </trkpt>
      <trkpt lat="43.54448" lon="5.89226">
        <ele>396</ele>
        <time>2018-06-17T07:06:29Z</time>
      </trkpt>
      <trkpt lat="43.54445" lon="5.892">
        <ele>396</ele>
        <time>2018-06-17T07:06:45Z</time>
      </trkpt>
      <trkpt lat="43.54439" lon="5.89174">
        <ele>396</ele>
        <time>2018-06-17T07:06:58Z</time>
      </trkpt>
      <trkpt lat="43.54432" lon="5.89152">
        <ele>396</ele>
        <time>2018-06-17T07:07:10Z</time>
      </trkpt>
      <trkpt lat="43.54424" lon="5.89127">
        <ele>397</ele>
        <time>2018-06-17T07:07:22Z</time>
      </trkpt>
      <trkpt lat="43.54417" lon="5.89102">
        <ele>396</ele>
        <time>2018-06-17T07:07:31Z</time>
      </trkpt>
      <trkpt lat="43.54417" lon="5.89075">
        <ele>396</ele>
        <time>2018-06-17T07:07:38Z</time>
      </trkpt>
      <trkpt lat="43.54422" lon="5.8905">
        <ele>397</ele>
        <time>2018-06-17T07:07:44Z</time>
      </trkpt>
      <trkpt lat="43.54435" lon="5.89029">
        <ele>397</ele>
        <time>2018-06-17T07:07:51Z</time>
      </trkpt>
      <trkpt lat="43.54451" lon="5.89016">
        <ele>397</ele>
        <time>2018-06-17T07:08:02Z</time>
      </trkpt>
      <trkpt lat="43.54468" lon="5.89005">
        <ele>397</ele>
        <time>2018-06-17T07:08:15Z</time>
      </trkpt>
      <trkpt lat="43.54486" lon="5.89001">
        <ele>397</ele>
        <time>2018-06-17T07:08:26Z</time>
      </trkpt>
      <trkpt lat="43.54505" lon="5.88994">
        <ele>397</ele>
        <time>2018-06-17T07:08:36Z</time>
      </trkpt>
      <trkpt lat="43.54523" lon="5.88984">
        <ele>399</ele>
        <time>2018-06-17T07:08:43Z</time>
      </trkpt>
      <trkpt lat="43.54541" lon="5.8898">
        <ele>399</ele>
        <time>2018-06-17T07:08:49Z</time>
      </trkpt>
      <trkpt lat="43.54557" lon="5.88966">
        <ele>400</ele>
        <time>2018-06-17T07:08:57Z</time>
      </trkpt>
      <trkpt lat="43.54577" lon="5.8896">
        <ele>400</ele>
        <time>2018-06-17T07:09:06Z</time>
      </trkpt>
      <trkpt lat="43.54595" lon="5.88953">
        <ele>400</ele>
        <time>2018-06-17T07:09:15Z</time>
      </trkpt>
      <trkpt lat="43.54614" lon="5.88942">
        <ele>400</ele>
        <time>2018-06-17T07:09:24Z</time>
      </trkpt>
      <trkpt lat="43.54633" lon="5.88932">
        <ele>400</ele>
        <time>2018-06-17T07:09:31Z</time>
      </trkpt>
      <trkpt lat="43.54652" lon="5.88931">
        <ele>400</ele>
        <time>2018-06-17T07:09:37Z</time>
      </trkpt>
      <trkpt lat="43.5467" lon="5.88927">
        <ele>399</ele>
        <time>2018-06-17T07:09:43Z</time>
      </trkpt>
      <trkpt lat="43.5469" lon="5.88925">
        <ele>400</ele>
        <time>2018-06-17T07:09:49Z</time>
      </trkpt>
      <trkpt lat="43.54708" lon="5.88922">
        <ele>400</ele>
        <time>2018-06-17T07:09:55Z</time>
      </trkpt>
      <trkpt lat="43.54726" lon="5.88915">
        <ele>400</ele>
        <time>2018-06-17T07:10:02Z</time>
      </trkpt>
      <trkpt lat="43.54745" lon="5.88915">
        <ele>399</ele>
        <time>2018-06-17T07:10:12Z</time>
      </trkpt>
      <trkpt lat="43.54764" lon="5.88917">
        <ele>400</ele>
        <time>2018-06-17T07:10:22Z</time>
      </trkpt>
      <trkpt lat="43.54782" lon="5.88918">
        <ele>401</ele>
        <time>2018-06-17T07:10:33Z</time>
      </trkpt>
      <trkpt lat="43.54801" lon="5.88919">
        <ele>401</ele>
        <time>2018-06-17T07:10:44Z</time>
      </trkpt>
      <trkpt lat="43.54821" lon="5.88916">
        <ele>400</ele>
        <time>2018-06-17T07:10:53Z</time>
      </trkpt>
      <trkpt lat="43.54839" lon="5.88914">
        <ele>399</ele>
        <time>2018-06-17T07:11:08Z</time>
      </trkpt>
      <trkpt lat="43.54857" lon="5.88908">
        <ele>400</ele>
        <time>2018-06-17T07:11:31Z</time>
      </trkpt>
      <trkpt lat="43.54876" lon="5.88903">
        <ele>400</ele>
        <time>2018-06-17T07:11:57Z</time>
      </trkpt>
      <trkpt lat="43.54891" lon="5.88889">
        <ele>400</ele>
        <time>2018-06-17T07:12:08Z</time>
      </trkpt>
      <trkpt lat="43.54905" lon="5.88871">
        <ele>400</ele>
        <time>2018-06-17T07:12:18Z</time>
      </trkpt>
      <trkpt lat="43.54916" lon="5.88852">
        <ele>400</ele>
        <time>2018-06-17T07:12:27Z</time>
      </trkpt>
      <trkpt lat="43.54933" lon="5.88839">
        <ele>401</ele>
        <time>2018-06-17T07:12:38Z</time>
      </trkpt>
      <trkpt lat="43.54951" lon="5.88827">
        <ele>401</ele>
        <time>2018-06-17T07:12:46Z</time>
      </trkpt>
      <trkpt lat="43.54965" lon="5.88807">
        <ele>402</ele>
        <time>2018-06-17T07:12:54Z</time>
      </trkpt>
      <trkpt lat="43.54978" lon="5.88787">
        <ele>402</ele>
        <time>2018-06-17T07:13:02Z</time>
      </trkpt>
      <trkpt lat="43.54993" lon="5.88768">
        <ele>402</ele>
        <time>2018-06-17T07:13:10Z</time>
      </trkpt>
      <trkpt lat="43.55004" lon="5.88747">
        <ele>403</ele>
        <time>2018-06-17T07:13:19Z</time>
      </trkpt>
      <trkpt lat="43.55023" lon="5.88746">
        <ele>407</ele>
        <time>2018-06-17T07:13:30Z</time>
      </trkpt>
      <trkpt lat="43.55039" lon="5.88759">
        <ele>410</ele>
        <time>2018-06-17T07:13:42Z</time>
      </trkpt>
      <trkpt lat="43.55054" lon="5.88772">
        <ele>412</ele>
        <time>2018-06-17T07:13:55Z</time>
      </trkpt>
      <trkpt lat="43.55071" lon="5.88784">
        <ele>413</ele>
        <time>2018-06-17T07:14:08Z</time>
      </trkpt>
      <trkpt lat="43.55086" lon="5.88798">
        <ele>423</ele>
        <time>2018-06-17T07:14:22Z</time>
      </trkpt>
      <trkpt lat="43.55102" lon="5.88813">
        <ele>424</ele>
        <time>2018-06-17T07:14:34Z</time>
      </trkpt>
      <trkpt lat="43.55119" lon="5.88823">
        <ele>425</ele>
        <time>2018-06-17T07:14:49Z</time>
      </trkpt>
      <trkpt lat="43.55136" lon="5.88833">
        <ele>427</ele>
        <time>2018-06-17T07:15:04Z</time>
      </trkpt>
      <trkpt lat="43.55153" lon="5.88842">
        <ele>430</ele>
        <time>2018-06-17T07:15:16Z</time>
      </trkpt>
      <trkpt lat="43.55165" lon="5.88861">
        <ele>429</ele>
        <time>2018-06-17T07:15:29Z</time>
      </trkpt>
      <trkpt lat="43.5517" lon="5.88886">
        <ele>431</ele>
        <time>2018-06-17T07:15:41Z</time>
      </trkpt>
      <trkpt lat="43.55189" lon="5.88886">
        <ele>431</ele>
        <time>2018-06-17T07:15:50Z</time>
      </trkpt>
      <trkpt lat="43.55207" lon="5.88896">
        <ele>431</ele>
        <time>2018-06-17T07:16:00Z</time>
      </trkpt>
      <trkpt lat="43.5522" lon="5.88914">
        <ele>430</ele>
        <time>2018-06-17T07:16:05Z</time>
      </trkpt>
      <trkpt lat="43.55234" lon="5.88932">
        <ele>427</ele>
        <time>2018-06-17T07:16:09Z</time>
      </trkpt>
      <trkpt lat="43.5524" lon="5.88959">
        <ele>427</ele>
        <time>2018-06-17T07:16:13Z</time>
      </trkpt>
      <trkpt lat="43.5524" lon="5.88985">
        <ele>426</ele>
        <time>2018-06-17T07:16:17Z</time>
      </trkpt>
      <trkpt lat="43.55247" lon="5.89011">
        <ele>425</ele>
        <time>2018-06-17T07:16:25Z</time>
      </trkpt>
      <trkpt lat="43.55259" lon="5.89033">
        <ele>429</ele>
        <time>2018-06-17T07:16:31Z</time>
      </trkpt>
      <trkpt lat="43.5527" lon="5.89055">
        <ele>430</ele>
        <time>2018-06-17T07:16:37Z</time>
      </trkpt>
      <trkpt lat="43.55287" lon="5.89065">
        <ele>431</ele>
        <time>2018-06-17T07:16:44Z</time>
      </trkpt>
      <trkpt lat="43.55295" lon="5.89072">
        <ele>431</ele>
        <time>2018-06-17T07:19:07Z</time>
      </trkpt>
      <trkpt lat="43.55312" lon="5.89059">
        <ele>432</ele>
        <time>2018-06-17T07:20:21Z</time>
      </trkpt>
      <trkpt lat="43.5533" lon="5.89054">
        <ele>432</ele>
        <time>2018-06-17T07:20:29Z</time>
      </trkpt>
      <trkpt lat="43.55347" lon="5.89044">
        <ele>437</ele>
        <time>2018-06-17T07:20:38Z</time>
      </trkpt>
      <trkpt lat="43.55364" lon="5.89034">
        <ele>437</ele>
        <time>2018-06-17T07:20:46Z</time>
      </trkpt>
      <trkpt lat="43.55382" lon="5.89024">
        <ele>437</ele>
        <time>2018-06-17T07:20:56Z</time>
      </trkpt>
      <trkpt lat="43.55401" lon="5.89015">
        <ele>438</ele>
        <time>2018-06-17T07:21:05Z</time>
      </trkpt>
      <trkpt lat="43.55419" lon="5.89001">
        <ele>439</ele>
        <time>2018-06-17T07:21:14Z</time>
      </trkpt>
      <trkpt lat="43.55435" lon="5.8899">
        <ele>440</ele>
        <time>2018-06-17T07:21:23Z</time>
      </trkpt>
      <trkpt lat="43.5545" lon="5.88973">
        <ele>441</ele>
        <time>2018-06-17T07:21:32Z</time>
      </trkpt>
      <trkpt lat="43.55466" lon="5.88962">
        <ele>442</ele>
        <time>2018-06-17T07:21:41Z</time>
      </trkpt>
      <trkpt lat="43.55485" lon="5.88954">
        <ele>442</ele>
        <time>2018-06-17T07:21:51Z</time>
      </trkpt>
      <trkpt lat="43.55502" lon="5.88942">
        <ele>444</ele>
        <time>2018-06-17T07:22:00Z</time>
      </trkpt>
      <trkpt lat="43.55521" lon="5.88941">
        <ele>444</ele>
        <time>2018-06-17T07:22:08Z</time>
      </trkpt>
      <trkpt lat="43.55541" lon="5.8894">
        <ele>444</ele>
        <time>2018-06-17T07:22:16Z</time>
      </trkpt>
      <trkpt lat="43.55558" lon="5.88929">
        <ele>444</ele>
        <time>2018-06-17T07:22:25Z</time>
      </trkpt>
      <trkpt lat="43.55574" lon="5.88915">
        <ele>444</ele>
        <time>2018-06-17T07:22:35Z</time>
      </trkpt>
      <trkpt lat="43.55588" lon="5.889">
        <ele>446</ele>
        <time>2018-06-17T07:22:43Z</time>
      </trkpt>
      <trkpt lat="43.55602" lon="5.88881">
        <ele>447</ele>
        <time>2018-06-17T07:22:52Z</time>
      </trkpt>
      <trkpt lat="43.55618" lon="5.88867">
        <ele>447</ele>
        <time>2018-06-17T07:23:01Z</time>
      </trkpt>
      <trkpt lat="43.55634" lon="5.88853">
        <ele>448</ele>
        <time>2018-06-17T07:23:10Z</time>
      </trkpt>
      <trkpt lat="43.55649" lon="5.88837">
        <ele>448</ele>
        <time>2018-06-17T07:23:19Z</time>
      </trkpt>
      <trkpt lat="43.55664" lon="5.88823">
        <ele>449</ele>
        <time>2018-06-17T07:23:26Z</time>
      </trkpt>
      <trkpt lat="43.5568" lon="5.88811">
        <ele>451</ele>
        <time>2018-06-17T07:23:34Z</time>
      </trkpt>
      <trkpt lat="43.55701" lon="5.88812">
        <ele>451</ele>
        <time>2018-06-17T07:23:43Z</time>
      </trkpt>
      <trkpt lat="43.5572" lon="5.88814">
        <ele>451</ele>
        <time>2018-06-17T07:23:51Z</time>
      </trkpt>
      <trkpt lat="43.55738" lon="5.88806">
        <ele>452</ele>
        <time>2018-06-17T07:23:58Z</time>
      </trkpt>
      <trkpt lat="43.55757" lon="5.888">
        <ele>454</ele>
        <time>2018-06-17T07:24:05Z</time>
      </trkpt>
      <trkpt lat="43.55775" lon="5.88794">
        <ele>454</ele>
        <time>2018-06-17T07:24:12Z</time>
      </trkpt>
      <trkpt lat="43.55794" lon="5.88788">
        <ele>455</ele>
        <time>2018-06-17T07:24:19Z</time>
      </trkpt>
      <trkpt lat="43.55812" lon="5.88777">
        <ele>455</ele>
        <time>2018-06-17T07:24:26Z</time>
      </trkpt>
      <trkpt lat="43.5583" lon="5.88766">
        <ele>456</ele>
        <time>2018-06-17T07:24:33Z</time>
      </trkpt>
      <trkpt lat="43.55847" lon="5.88755">
        <ele>458</ele>
        <time>2018-06-17T07:24:39Z</time>
      </trkpt>
      <trkpt lat="43.55863" lon="5.88742">
        <ele>459</ele>
        <time>2018-06-17T07:24:46Z</time>
      </trkpt>
      <trkpt lat="43.5588" lon="5.88731">
        <ele>459</ele>
        <time>2018-06-17T07:24:53Z</time>
      </trkpt>
      <trkpt lat="43.55899" lon="5.88722">
        <ele>460</ele>
        <time>2018-06-17T07:25:00Z</time>
      </trkpt>
      <trkpt lat="43.55919" lon="5.88726">
        <ele>460</ele>
        <time>2018-06-17T07:25:07Z</time>
      </trkpt>
      <trkpt lat="43.5594" lon="5.88732">
        <ele>460</ele>
        <time>2018-06-17T07:25:13Z</time>
      </trkpt>
      <trkpt lat="43.55961" lon="5.8873">
        <ele>460</ele>
        <time>2018-06-17T07:25:19Z</time>
      </trkpt>
      <trkpt lat="43.55979" lon="5.88725">
        <ele>460</ele>
        <time>2018-06-17T07:25:24Z</time>
      </trkpt>
      <trkpt lat="43.55998" lon="5.88719">
        <ele>460</ele>
        <time>2018-06-17T07:25:30Z</time>
      </trkpt>
      <trkpt lat="43.56018" lon="5.88718">
        <ele>459</ele>
        <time>2018-06-17T07:25:38Z</time>
      </trkpt>
      <trkpt lat="43.56038" lon="5.88717">
        <ele>459</ele>
        <time>2018-06-17T07:25:45Z</time>
      </trkpt>
      <trkpt lat="43.56021" lon="5.88707">
        <ele>460</ele>
        <time>2018-06-17T07:26:47Z</time>
      </trkpt>
      <trkpt lat="43.56003" lon="5.88703">
        <ele>460</ele>
        <time>2018-06-17T07:26:56Z</time>
      </trkpt>
      <trkpt lat="43.55986" lon="5.88693">
        <ele>460</ele>
        <time>2018-06-17T07:27:03Z</time>
      </trkpt>
      <trkpt lat="43.5597" lon="5.8868">
        <ele>460</ele>
        <time>2018-06-17T07:27:11Z</time>
      </trkpt>
      <trkpt lat="43.55954" lon="5.88668">
        <ele>460</ele>
        <time>2018-06-17T07:27:18Z</time>
      </trkpt>
      <trkpt lat="43.55933" lon="5.88661">
        <ele>462</ele>
        <time>2018-06-17T07:27:24Z</time>
      </trkpt>
      <trkpt lat="43.55915" lon="5.88649">
        <ele>461</ele>
        <time>2018-06-17T07:27:30Z</time>
      </trkpt>
      <trkpt lat="43.55898" lon="5.88639">
        <ele>460</ele>
        <time>2018-06-17T07:27:35Z</time>
      </trkpt>
      <trkpt lat="43.55881" lon="5.88629">
        <ele>460</ele>
        <time>2018-06-17T07:27:40Z</time>
      </trkpt>
      <trkpt lat="43.55864" lon="5.88616">
        <ele>459</ele>
        <time>2018-06-17T07:27:46Z</time>
      </trkpt>
      <trkpt lat="43.55849" lon="5.88603">
        <ele>458</ele>
        <time>2018-06-17T07:27:52Z</time>
      </trkpt>
      <trkpt lat="43.55828" lon="5.88589">
        <ele>455</ele>
        <time>2018-06-17T07:27:58Z</time>
      </trkpt>
      <trkpt lat="43.55805" lon="5.88582">
        <ele>452</ele>
        <time>2018-06-17T07:28:02Z</time>
      </trkpt>
      <trkpt lat="43.55785" lon="5.88573">
        <ele>450</ele>
        <time>2018-06-17T07:28:06Z</time>
      </trkpt>
      <trkpt lat="43.55771" lon="5.88553">
        <ele>449</ele>
        <time>2018-06-17T07:28:10Z</time>
      </trkpt>
      <trkpt lat="43.55766" lon="5.88529">
        <ele>449</ele>
        <time>2018-06-17T07:28:14Z</time>
      </trkpt>
      <trkpt lat="43.55753" lon="5.8851">
        <ele>446</ele>
        <time>2018-06-17T07:28:21Z</time>
      </trkpt>
      <trkpt lat="43.55753" lon="5.88485">
        <ele>448</ele>
        <time>2018-06-17T07:29:21Z</time>
      </trkpt>
      <trkpt lat="43.55748" lon="5.88458">
        <ele>444</ele>
        <time>2018-06-17T07:29:28Z</time>
      </trkpt>
      <trkpt lat="43.55743" lon="5.88432">
        <ele>445</ele>
        <time>2018-06-17T07:29:34Z</time>
      </trkpt>
      <trkpt lat="43.55739" lon="5.88403">
        <ele>445</ele>
        <time>2018-06-17T07:29:40Z</time>
      </trkpt>
      <trkpt lat="43.55729" lon="5.88381">
        <ele>444</ele>
        <time>2018-06-17T07:29:46Z</time>
      </trkpt>
      <trkpt lat="43.55717" lon="5.88361">
        <ele>444</ele>
        <time>2018-06-17T07:29:51Z</time>
      </trkpt>
      <trkpt lat="43.55712" lon="5.88337">
        <ele>444</ele>
        <time>2018-06-17T07:29:56Z</time>
      </trkpt>
      <trkpt lat="43.55701" lon="5.88311">
        <ele>443</ele>
        <time>2018-06-17T07:30:01Z</time>
      </trkpt>
      <trkpt lat="43.55693" lon="5.88285">
        <ele>442</ele>
        <time>2018-06-17T07:30:06Z</time>
      </trkpt>
      <trkpt lat="43.55681" lon="5.88266">
        <ele>441</ele>
        <time>2018-06-17T07:30:11Z</time>
      </trkpt>
      <trkpt lat="43.55665" lon="5.88246">
        <ele>438</ele>
        <time>2018-06-17T07:30:16Z</time>
      </trkpt>
      <trkpt lat="43.55665" lon="5.88219">
        <ele>439</ele>
        <time>2018-06-17T07:30:21Z</time>
      </trkpt>
      <trkpt lat="43.55662" lon="5.88189">
        <ele>438</ele>
        <time>2018-06-17T07:30:26Z</time>
      </trkpt>
      <trkpt lat="43.55657" lon="5.88163">
        <ele>437</ele>
        <time>2018-06-17T07:30:31Z</time>
      </trkpt>
      <trkpt lat="43.55649" lon="5.88139">
        <ele>436</ele>
        <time>2018-06-17T07:30:36Z</time>
      </trkpt>
      <trkpt lat="43.55639" lon="5.88113">
        <ele>435</ele>
        <time>2018-06-17T07:30:41Z</time>
      </trkpt>
      <trkpt lat="43.55624" lon="5.88095">
        <ele>435</ele>
        <time>2018-06-17T07:30:47Z</time>
      </trkpt>
      <trkpt lat="43.55603" lon="5.88094">
        <ele>434</ele>
        <time>2018-06-17T07:30:53Z</time>
      </trkpt>
      <trkpt lat="43.55582" lon="5.88087">
        <ele>432</ele>
        <time>2018-06-17T07:30:58Z</time>
      </trkpt>
      <trkpt lat="43.55567" lon="5.88069">
        <ele>432</ele>
        <time>2018-06-17T07:31:05Z</time>
      </trkpt>
      <trkpt lat="43.55552" lon="5.8805">
        <ele>433</ele>
        <time>2018-06-17T07:31:11Z</time>
      </trkpt>
      <trkpt lat="43.55544" lon="5.88026">
        <ele>433</ele>
        <time>2018-06-17T07:31:16Z</time>
      </trkpt>
      <trkpt lat="43.55537" lon="5.88002">
        <ele>432</ele>
        <time>2018-06-17T07:31:21Z</time>
      </trkpt>
      <trkpt lat="43.55532" lon="5.87975">
        <ele>433</ele>
        <time>2018-06-17T07:31:27Z</time>
      </trkpt>
      <trkpt lat="43.55526" lon="5.8795">
        <ele>433</ele>
        <time>2018-06-17T07:31:33Z</time>
      </trkpt>
      <trkpt lat="43.55525" lon="5.87925">
        <ele>432</ele>
        <time>2018-06-17T07:31:40Z</time>
      </trkpt>
      <trkpt lat="43.5553" lon="5.87899">
        <ele>431</ele>
        <time>2018-06-17T07:32:23Z</time>
      </trkpt>
      <trkpt lat="43.55537" lon="5.87873">
        <ele>431</ele>
        <time>2018-06-17T07:32:30Z</time>
      </trkpt>
      <trkpt lat="43.55548" lon="5.87849">
        <ele>431</ele>
        <time>2018-06-17T07:32:36Z</time>
      </trkpt>
      <trkpt lat="43.55558" lon="5.87827">
        <ele>428</ele>
        <time>2018-06-17T07:32:41Z</time>
      </trkpt>
      <trkpt lat="43.55568" lon="5.878">
        <ele>426</ele>
        <time>2018-06-17T07:32:46Z</time>
      </trkpt>
      <trkpt lat="43.55577" lon="5.87775">
        <ele>425</ele>
        <time>2018-06-17T07:32:51Z</time>
      </trkpt>
      <trkpt lat="43.55586" lon="5.87752">
        <ele>426</ele>
        <time>2018-06-17T07:32:56Z</time>
      </trkpt>
      <trkpt lat="43.55596" lon="5.87727">
        <ele>428</ele>
        <time>2018-06-17T07:33:01Z</time>
      </trkpt>
      <trkpt lat="43.55604" lon="5.87701">
        <ele>428</ele>
        <time>2018-06-17T07:33:06Z</time>
      </trkpt>
      <trkpt lat="43.55606" lon="5.87676">
        <ele>427</ele>
        <time>2018-06-17T07:33:11Z</time>
      </trkpt>
      <trkpt lat="43.55606" lon="5.87647">
        <ele>425</ele>
        <time>2018-06-17T07:33:17Z</time>
      </trkpt>
      <trkpt lat="43.55608" lon="5.87619">
        <ele>426</ele>
        <time>2018-06-17T07:33:23Z</time>
      </trkpt>
      <trkpt lat="43.55598" lon="5.87599">
        <ele>425</ele>
        <time>2018-06-17T07:33:28Z</time>
      </trkpt>
      <trkpt lat="43.55594" lon="5.87572">
        <ele>423</ele>
        <time>2018-06-17T07:33:35Z</time>
      </trkpt>
      <trkpt lat="43.55596" lon="5.87545">
        <ele>424</ele>
        <time>2018-06-17T07:33:41Z</time>
      </trkpt>
      <trkpt lat="43.5559" lon="5.8752">
        <ele>423</ele>
        <time>2018-06-17T07:33:48Z</time>
      </trkpt>
      <trkpt lat="43.55582" lon="5.87496">
        <ele>422</ele>
        <time>2018-06-17T07:33:57Z</time>
      </trkpt>
      <trkpt lat="43.55564" lon="5.87486">
        <ele>423</ele>
        <time>2018-06-17T07:34:08Z</time>
      </trkpt>
      <trkpt lat="43.55547" lon="5.87497">
        <ele>424</ele>
        <time>2018-06-17T07:34:20Z</time>
      </trkpt>
      <trkpt lat="43.55527" lon="5.87502">
        <ele>425</ele>
        <time>2018-06-17T07:34:31Z</time>
      </trkpt>
      <trkpt lat="43.55509" lon="5.87502">
        <ele>426</ele>
        <time>2018-06-17T07:34:41Z</time>
      </trkpt>
      <trkpt lat="43.55492" lon="5.87491">
        <ele>428</ele>
        <time>2018-06-17T07:34:52Z</time>
      </trkpt>
      <trkpt lat="43.55475" lon="5.87476">
        <ele>429</ele>
        <time>2018-06-17T07:35:01Z</time>
      </trkpt>
      <trkpt lat="43.55456" lon="5.8747">
        <ele>430</ele>
        <time>2018-06-17T07:35:10Z</time>
      </trkpt>
      <trkpt lat="43.5544" lon="5.87455">
        <ele>430</ele>
        <time>2018-06-17T07:35:19Z</time>
      </trkpt>
      <trkpt lat="43.55424" lon="5.87443">
        <ele>430</ele>
        <time>2018-06-17T07:35:27Z</time>
      </trkpt>
      <trkpt lat="43.55406" lon="5.87443">
        <ele>432</ele>
        <time>2018-06-17T07:35:35Z</time>
      </trkpt>
      <trkpt lat="43.55387" lon="5.87437">
        <ele>433</ele>
        <time>2018-06-17T07:35:43Z</time>
      </trkpt>
      <trkpt lat="43.55367" lon="5.87429">
        <ele>433</ele>
        <time>2018-06-17T07:35:50Z</time>
      </trkpt>
      <trkpt lat="43.55349" lon="5.87421">
        <ele>433</ele>
        <time>2018-06-17T07:35:56Z</time>
      </trkpt>
      <trkpt lat="43.5533" lon="5.87415">
        <ele>433</ele>
        <time>2018-06-17T07:36:02Z</time>
      </trkpt>
      <trkpt lat="43.55313" lon="5.87404">
        <ele>434</ele>
        <time>2018-06-17T07:36:08Z</time>
      </trkpt>
      <trkpt lat="43.55298" lon="5.87386">
        <ele>435</ele>
        <time>2018-06-17T07:36:17Z</time>
      </trkpt>
      <trkpt lat="43.55281" lon="5.87373">
        <ele>435</ele>
        <time>2018-06-17T07:36:25Z</time>
      </trkpt>
      <trkpt lat="43.55268" lon="5.8739">
        <ele>435</ele>
        <time>2018-06-17T07:36:32Z</time>
      </trkpt>
      <trkpt lat="43.55251" lon="5.87399">
        <ele>435</ele>
        <time>2018-06-17T07:36:43Z</time>
      </trkpt>
      <trkpt lat="43.55237" lon="5.87417">
        <ele>437</ele>
        <time>2018-06-17T07:36:54Z</time>
      </trkpt>
      <trkpt lat="43.55227" lon="5.87439">
        <ele>439</ele>
        <time>2018-06-17T07:37:02Z</time>
      </trkpt>
      <trkpt lat="43.55215" lon="5.87459">
        <ele>440</ele>
        <time>2018-06-17T07:37:11Z</time>
      </trkpt>
      <trkpt lat="43.55198" lon="5.87471">
        <ele>440</ele>
        <time>2018-06-17T07:37:22Z</time>
      </trkpt>
      <trkpt lat="43.55181" lon="5.87483">
        <ele>441</ele>
        <time>2018-06-17T07:37:33Z</time>
      </trkpt>
      <trkpt lat="43.55164" lon="5.87495">
        <ele>444</ele>
        <time>2018-06-17T07:37:43Z</time>
      </trkpt>
      <trkpt lat="43.5515" lon="5.87513">
        <ele>446</ele>
        <time>2018-06-17T07:37:52Z</time>
      </trkpt>
      <trkpt lat="43.55136" lon="5.87529">
        <ele>448</ele>
        <time>2018-06-17T07:38:01Z</time>
      </trkpt>
      <trkpt lat="43.55121" lon="5.87545">
        <ele>448</ele>
        <time>2018-06-17T07:38:11Z</time>
      </trkpt>
      <trkpt lat="43.55106" lon="5.87562">
        <ele>449</ele>
        <time>2018-06-17T07:38:21Z</time>
      </trkpt>
      <trkpt lat="43.55091" lon="5.87579">
        <ele>450</ele>
        <time>2018-06-17T07:38:29Z</time>
      </trkpt>
      <trkpt lat="43.55076" lon="5.87597">
        <ele>452</ele>
        <time>2018-06-17T07:38:37Z</time>
      </trkpt>
      <trkpt lat="43.55061" lon="5.87615">
        <ele>453</ele>
        <time>2018-06-17T07:38:45Z</time>
      </trkpt>
      <trkpt lat="43.55046" lon="5.8763">
        <ele>453</ele>
        <time>2018-06-17T07:38:52Z</time>
      </trkpt>
      <trkpt lat="43.55027" lon="5.87641">
        <ele>454</ele>
        <time>2018-06-17T07:38:59Z</time>
      </trkpt>
      <trkpt lat="43.55008" lon="5.87652">
        <ele>454</ele>
        <time>2018-06-17T07:39:05Z</time>
      </trkpt>
      <trkpt lat="43.54989" lon="5.87655">
        <ele>455</ele>
        <time>2018-06-17T07:39:11Z</time>
      </trkpt>
      <trkpt lat="43.5497" lon="5.87658">
        <ele>456</ele>
        <time>2018-06-17T07:39:16Z</time>
      </trkpt>
      <trkpt lat="43.54952" lon="5.87665">
        <ele>456</ele>
        <time>2018-06-17T07:39:21Z</time>
      </trkpt>
      <trkpt lat="43.54935" lon="5.87674">
        <ele>452</ele>
        <time>2018-06-17T07:39:26Z</time>
      </trkpt>
      <trkpt lat="43.54915" lon="5.87677">
        <ele>451</ele>
        <time>2018-06-17T07:39:30Z</time>
      </trkpt>
      <trkpt lat="43.54894" lon="5.8768">
        <ele>450</ele>
        <time>2018-06-17T07:39:34Z</time>
      </trkpt>
      <trkpt lat="43.54874" lon="5.87684">
        <ele>449</ele>
        <time>2018-06-17T07:39:38Z</time>
      </trkpt>
      <trkpt lat="43.54854" lon="5.87678">
        <ele>448</ele>
        <time>2018-06-17T07:39:42Z</time>
      </trkpt>
      <trkpt lat="43.54833" lon="5.87668">
        <ele>448</ele>
        <time>2018-06-17T07:39:46Z</time>
      </trkpt>
      <trkpt lat="43.54813" lon="5.8766">
        <ele>452</ele>
        <time>2018-06-17T07:39:50Z</time>
      </trkpt>
      <trkpt lat="43.54793" lon="5.8766">
        <ele>453</ele>
        <time>2018-06-17T07:39:55Z</time>
      </trkpt>
      <trkpt lat="43.54774" lon="5.87677">
        <ele>450</ele>
        <time>2018-06-17T07:40:01Z</time>
      </trkpt>
      <trkpt lat="43.54756" lon="5.8769">
        <ele>450</ele>
        <time>2018-06-17T07:40:06Z</time>
      </trkpt>
      <trkpt lat="43.54742" lon="5.87706">
        <ele>458</ele>
        <time>2018-06-17T07:40:13Z</time>
      </trkpt>
      <trkpt lat="43.54731" lon="5.87729">
        <ele>458</ele>
        <time>2018-06-17T07:40:20Z</time>
      </trkpt>
      <trkpt lat="43.54722" lon="5.87751">
        <ele>457</ele>
        <time>2018-06-17T07:40:26Z</time>
      </trkpt>
      <trkpt lat="43.54716" lon="5.87775">
        <ele>458</ele>
        <time>2018-06-17T07:40:32Z</time>
      </trkpt>
      <trkpt lat="43.54709" lon="5.878">
        <ele>458</ele>
        <time>2018-06-17T07:40:38Z</time>
      </trkpt>
      <trkpt lat="43.547" lon="5.87822">
        <ele>458</ele>
        <time>2018-06-17T07:40:44Z</time>
      </trkpt>
      <trkpt lat="43.54686" lon="5.87838">
        <ele>457</ele>
        <time>2018-06-17T07:40:51Z</time>
      </trkpt>
      <trkpt lat="43.54675" lon="5.8786">
        <ele>457</ele>
        <time>2018-06-17T07:40:59Z</time>
      </trkpt>
      <trkpt lat="43.5466" lon="5.87879">
        <ele>460</ele>
        <time>2018-06-17T07:44:12Z</time>
      </trkpt>
      <trkpt lat="43.54647" lon="5.87898">
        <ele>460</ele>
        <time>2018-06-17T07:44:19Z</time>
      </trkpt>
      <trkpt lat="43.54634" lon="5.87919">
        <ele>457</ele>
        <time>2018-06-17T07:44:25Z</time>
      </trkpt>
      <trkpt lat="43.54616" lon="5.87935">
        <ele>457</ele>
        <time>2018-06-17T07:44:30Z</time>
      </trkpt>
      <trkpt lat="43.54601" lon="5.87952">
        <ele>456</ele>
        <time>2018-06-17T07:44:34Z</time>
      </trkpt>
      <trkpt lat="43.54583" lon="5.87967">
        <ele>457</ele>
        <time>2018-06-17T07:44:40Z</time>
      </trkpt>
      <trkpt lat="43.54566" lon="5.87986">
        <ele>456</ele>
        <time>2018-06-17T07:45:12Z</time>
      </trkpt>
      <trkpt lat="43.54547" lon="5.87992">
        <ele>458</ele>
        <time>2018-06-17T07:45:48Z</time>
      </trkpt>
      <trkpt lat="43.54536" lon="5.88014">
        <ele>454</ele>
        <time>2018-06-17T07:45:57Z</time>
      </trkpt>
      <trkpt lat="43.54524" lon="5.88034">
        <ele>454</ele>
        <time>2018-06-17T07:46:05Z</time>
      </trkpt>
      <trkpt lat="43.5451" lon="5.88052">
        <ele>454</ele>
        <time>2018-06-17T07:46:13Z</time>
      </trkpt>
      <trkpt lat="43.54498" lon="5.88074">
        <ele>456</ele>
        <time>2018-06-17T07:46:20Z</time>
      </trkpt>
      <trkpt lat="43.54484" lon="5.88094">
        <ele>454</ele>
        <time>2018-06-17T07:46:26Z</time>
      </trkpt>
      <trkpt lat="43.54468" lon="5.88114">
        <ele>454</ele>
        <time>2018-06-17T07:46:32Z</time>
      </trkpt>
      <trkpt lat="43.54455" lon="5.88133">
        <ele>453</ele>
        <time>2018-06-17T07:46:37Z</time>
      </trkpt>
      <trkpt lat="43.54448" lon="5.88162">
        <ele>453</ele>
        <time>2018-06-17T07:46:43Z</time>
      </trkpt>
      <trkpt lat="43.54437" lon="5.88185">
        <ele>448</ele>
        <time>2018-06-17T07:46:48Z</time>
      </trkpt>
      <trkpt lat="43.54418" lon="5.88191">
        <ele>448</ele>
        <time>2018-06-17T07:46:53Z</time>
      </trkpt>
      <trkpt lat="43.54399" lon="5.88209">
        <ele>451</ele>
        <time>2018-06-17T07:46:58Z</time>
      </trkpt>
      <trkpt lat="43.54382" lon="5.88226">
        <ele>450</ele>
        <time>2018-06-17T07:47:02Z</time>
      </trkpt>
      <trkpt lat="43.54367" lon="5.88238">
        <ele>451</ele>
        <time>2018-06-17T07:47:06Z</time>
      </trkpt>
      <trkpt lat="43.54348" lon="5.88249">
        <ele>451</ele>
        <time>2018-06-17T07:47:11Z</time>
      </trkpt>
      <trkpt lat="43.54332" lon="5.88263">
        <ele>450</ele>
        <time>2018-06-17T07:47:15Z</time>
      </trkpt>
      <trkpt lat="43.54311" lon="5.88274">
        <ele>448</ele>
        <time>2018-06-17T07:47:20Z</time>
      </trkpt>
      <trkpt lat="43.54293" lon="5.88288">
        <ele>448</ele>
        <time>2018-06-17T07:47:25Z</time>
      </trkpt>
      <trkpt lat="43.54278" lon="5.88301">
        <ele>447</ele>
        <time>2018-06-17T07:47:29Z</time>
      </trkpt>
      <trkpt lat="43.54259" lon="5.88315">
        <ele>446</ele>
        <time>2018-06-17T07:47:33Z</time>
      </trkpt>
      <trkpt lat="43.54241" lon="5.88326">
        <ele>446</ele>
        <time>2018-06-17T07:47:37Z</time>
      </trkpt>
      <trkpt lat="43.54221" lon="5.88333">
        <ele>446</ele>
        <time>2018-06-17T07:47:41Z</time>
      </trkpt>
      <trkpt lat="43.54202" lon="5.88338">
        <ele>443</ele>
        <time>2018-06-17T07:47:45Z</time>
      </trkpt>
      <trkpt lat="43.5418" lon="5.88339">
        <ele>443</ele>
        <time>2018-06-17T07:47:49Z</time>
      </trkpt>
      <trkpt lat="43.54159" lon="5.88351">
        <ele>442</ele>
        <time>2018-06-17T07:47:53Z</time>
      </trkpt>
      <trkpt lat="43.54139" lon="5.88366">
        <ele>442</ele>
        <time>2018-06-17T07:47:57Z</time>
      </trkpt>
      <trkpt lat="43.54119" lon="5.8838">
        <ele>442</ele>
        <time>2018-06-17T07:48:01Z</time>
      </trkpt>
      <trkpt lat="43.541" lon="5.88399">
        <ele>440</ele>
        <time>2018-06-17T07:48:05Z</time>
      </trkpt>
      <trkpt lat="43.54081" lon="5.88417">
        <ele>437</ele>
        <time>2018-06-17T07:48:09Z</time>
      </trkpt>
      <trkpt lat="43.54062" lon="5.88426">
        <ele>436</ele>
        <time>2018-06-17T07:48:14Z</time>
      </trkpt>
      <trkpt lat="43.54043" lon="5.8844">
        <ele>437</ele>
        <time>2018-06-17T07:48:19Z</time>
      </trkpt>
      <trkpt lat="43.54024" lon="5.88447">
        <ele>437</ele>
        <time>2018-06-17T07:48:24Z</time>
      </trkpt>
      <trkpt lat="43.54007" lon="5.88459">
        <ele>437</ele>
        <time>2018-06-17T07:48:28Z</time>
      </trkpt>
      <trkpt lat="43.5399" lon="5.88465">
        <ele>437</ele>
        <time>2018-06-17T07:48:32Z</time>
      </trkpt>
      <trkpt lat="43.53969" lon="5.88463">
        <ele>437</ele>
        <time>2018-06-17T07:48:36Z</time>
      </trkpt>
      <trkpt lat="43.53949" lon="5.88454">
        <ele>437</ele>
        <time>2018-06-17T07:48:40Z</time>
      </trkpt>
      <trkpt lat="43.53927" lon="5.88445">
        <ele>438</ele>
        <time>2018-06-17T07:48:44Z</time>
      </trkpt>
      <trkpt lat="43.53906" lon="5.88443">
        <ele>433</ele>
        <time>2018-06-17T07:48:48Z</time>
      </trkpt>
      <trkpt lat="43.53888" lon="5.88439">
        <ele>432</ele>
        <time>2018-06-17T07:48:52Z</time>
      </trkpt>
      <trkpt lat="43.53866" lon="5.88439">
        <ele>430</ele>
        <time>2018-06-17T07:48:56Z</time>
      </trkpt>
      <trkpt lat="43.53845" lon="5.88448">
        <ele>429</ele>
        <time>2018-06-17T07:49:00Z</time>
      </trkpt>
      <trkpt lat="43.53824" lon="5.88441">
        <ele>425</ele>
        <time>2018-06-17T07:49:04Z</time>
      </trkpt>
      <trkpt lat="43.53806" lon="5.88426">
        <ele>425</ele>
        <time>2018-06-17T07:49:10Z</time>
      </trkpt>
      <trkpt lat="43.53786" lon="5.8843">
        <ele>426</ele>
        <time>2018-06-17T07:49:15Z</time>
      </trkpt>
      <trkpt lat="43.53766" lon="5.88441">
        <ele>426</ele>
        <time>2018-06-17T07:49:20Z</time>
      </trkpt>
      <trkpt lat="43.53757" lon="5.88463">
        <ele>425</ele>
        <time>2018-06-17T07:49:24Z</time>
      </trkpt>
      <trkpt lat="43.53748" lon="5.88487">
        <ele>425</ele>
        <time>2018-06-17T07:49:29Z</time>
      </trkpt>
      <trkpt lat="43.53737" lon="5.88508">
        <ele>422</ele>
        <time>2018-06-17T07:49:34Z</time>
      </trkpt>
      <trkpt lat="43.53722" lon="5.88527">
        <ele>422</ele>
        <time>2018-06-17T07:49:38Z</time>
      </trkpt>
      <trkpt lat="43.53707" lon="5.88548">
        <ele>421</ele>
        <time>2018-06-17T07:49:42Z</time>
      </trkpt>
      <trkpt lat="43.5369" lon="5.88566">
        <ele>420</ele>
        <time>2018-06-17T07:49:46Z</time>
      </trkpt>
      <trkpt lat="43.5367" lon="5.88583">
        <ele>418</ele>
        <time>2018-06-17T07:49:50Z</time>
      </trkpt>
      <trkpt lat="43.53653" lon="5.88595">
        <ele>416</ele>
        <time>2018-06-17T07:49:53Z</time>
      </trkpt>
      <trkpt lat="43.53633" lon="5.88613">
        <ele>415</ele>
        <time>2018-06-17T07:49:57Z</time>
      </trkpt>
      <trkpt lat="43.53612" lon="5.88627">
        <ele>414</ele>
        <time>2018-06-17T07:50:01Z</time>
      </trkpt>
      <trkpt lat="43.53589" lon="5.88632">
        <ele>414</ele>
        <time>2018-06-17T07:50:05Z</time>
      </trkpt>
      <trkpt lat="43.53567" lon="5.88636">
        <ele>418</ele>
        <time>2018-06-17T07:50:09Z</time>
      </trkpt>
      <trkpt lat="43.53554" lon="5.88654">
        <ele>418</ele>
        <time>2018-06-17T07:50:13Z</time>
      </trkpt>
      <trkpt lat="43.5354" lon="5.88675">
        <ele>414</ele>
        <time>2018-06-17T07:50:18Z</time>
      </trkpt>
      <trkpt lat="43.53526" lon="5.88695">
        <ele>414</ele>
        <time>2018-06-17T07:50:22Z</time>
      </trkpt>
      <trkpt lat="43.5351" lon="5.88714">
        <ele>414</ele>
        <time>2018-06-17T07:50:26Z</time>
      </trkpt>
      <trkpt lat="43.53492" lon="5.88729">
        <ele>416</ele>
        <time>2018-06-17T07:50:31Z</time>
      </trkpt>
      <trkpt lat="43.53474" lon="5.88733">
        <ele>416</ele>
        <time>2018-06-17T07:50:37Z</time>
      </trkpt>
      <trkpt lat="43.53478" lon="5.88708">
        <ele>418</ele>
        <time>2018-06-17T07:52:33Z</time>
      </trkpt>
      <trkpt lat="43.53489" lon="5.88686">
        <ele>419</ele>
        <time>2018-06-17T07:52:43Z</time>
      </trkpt>
      <trkpt lat="43.53502" lon="5.88665">
        <ele>421</ele>
        <time>2018-06-17T07:52:52Z</time>
      </trkpt>
      <trkpt lat="43.53512" lon="5.88643">
        <ele>421</ele>
        <time>2018-06-17T07:53:00Z</time>
      </trkpt>
      <trkpt lat="43.53519" lon="5.88618">
        <ele>422</ele>
        <time>2018-06-17T07:53:10Z</time>
      </trkpt>
      <trkpt lat="43.53521" lon="5.88591">
        <ele>423</ele>
        <time>2018-06-17T07:53:20Z</time>
      </trkpt>
      <trkpt lat="43.53523" lon="5.88566">
        <ele>428</ele>
        <time>2018-06-17T07:53:27Z</time>
      </trkpt>
      <trkpt lat="43.53525" lon="5.88542">
        <ele>429</ele>
        <time>2018-06-17T07:53:35Z</time>
      </trkpt>
      <trkpt lat="43.53527" lon="5.88514">
        <ele>430</ele>
        <time>2018-06-17T07:53:45Z</time>
      </trkpt>
      <trkpt lat="43.53524" lon="5.88488">
        <ele>434</ele>
        <time>2018-06-17T07:53:54Z</time>
      </trkpt>
      <trkpt lat="43.53516" lon="5.88465">
        <ele>434</ele>
        <time>2018-06-17T07:54:02Z</time>
      </trkpt>
      <trkpt lat="43.53512" lon="5.8844">
        <ele>435</ele>
        <time>2018-06-17T07:54:10Z</time>
      </trkpt>
      <trkpt lat="43.53527" lon="5.88427">
        <ele>435</ele>
        <time>2018-06-17T07:54:21Z</time>
      </trkpt>
      <trkpt lat="43.53544" lon="5.88439">
        <ele>435</ele>
        <time>2018-06-17T07:54:30Z</time>
      </trkpt>
      <trkpt lat="43.53563" lon="5.88431">
        <ele>435</ele>
        <time>2018-06-17T07:54:38Z</time>
      </trkpt>
      <trkpt lat="43.53579" lon="5.88443">
        <ele>435</ele>
        <time>2018-06-17T07:54:46Z</time>
      </trkpt>
      <trkpt lat="43.53587" lon="5.88466">
        <ele>434</ele>
        <time>2018-06-17T07:54:54Z</time>
      </trkpt>
      <trkpt lat="43.53596" lon="5.88489">
        <ele>432</ele>
        <time>2018-06-17T07:55:02Z</time>
      </trkpt>
      <trkpt lat="43.53615" lon="5.88495">
        <ele>433</ele>
        <time>2018-06-17T07:55:10Z</time>
      </trkpt>
      <trkpt lat="43.53633" lon="5.88484">
        <ele>434</ele>
        <time>2018-06-17T07:55:18Z</time>
      </trkpt>
      <trkpt lat="43.53648" lon="5.88467">
        <ele>435</ele>
        <time>2018-06-17T07:55:26Z</time>
      </trkpt>
      <trkpt lat="43.53663" lon="5.88449">
        <ele>436</ele>
        <time>2018-06-17T07:55:35Z</time>
      </trkpt>
      <trkpt lat="43.53673" lon="5.88429">
        <ele>436</ele>
        <time>2018-06-17T07:55:44Z</time>
      </trkpt>
      <trkpt lat="43.53683" lon="5.88405">
        <ele>440</ele>
        <time>2018-06-17T07:55:53Z</time>
      </trkpt>
      <trkpt lat="43.53692" lon="5.8838">
        <ele>440</ele>
        <time>2018-06-17T07:56:02Z</time>
      </trkpt>
      <trkpt lat="43.53701" lon="5.88357">
        <ele>441</ele>
        <time>2018-06-17T07:56:11Z</time>
      </trkpt>
      <trkpt lat="43.53709" lon="5.88335">
        <ele>442</ele>
        <time>2018-06-17T07:56:19Z</time>
      </trkpt>
      <trkpt lat="43.53719" lon="5.88313">
        <ele>447</ele>
        <time>2018-06-17T07:56:27Z</time>
      </trkpt>
      <trkpt lat="43.5373" lon="5.88291">
        <ele>448</ele>
        <time>2018-06-17T07:56:36Z</time>
      </trkpt>
      <trkpt lat="43.53741" lon="5.88268">
        <ele>448</ele>
        <time>2018-06-17T07:56:45Z</time>
      </trkpt>
      <trkpt lat="43.5375" lon="5.88246">
        <ele>448</ele>
        <time>2018-06-17T07:56:53Z</time>
      </trkpt>
      <trkpt lat="43.53759" lon="5.88221">
        <ele>449</ele>
        <time>2018-06-17T07:57:01Z</time>
      </trkpt>
      <trkpt lat="43.53765" lon="5.88194">
        <ele>450</ele>
        <time>2018-06-17T07:57:10Z</time>
      </trkpt>
      <trkpt lat="43.53771" lon="5.88171">
        <ele>451</ele>
        <time>2018-06-17T07:57:18Z</time>
      </trkpt>
      <trkpt lat="43.53771" lon="5.88145">
        <ele>456</ele>
        <time>2018-06-17T07:57:26Z</time>
      </trkpt>
      <trkpt lat="43.53771" lon="5.88119">
        <ele>458</ele>
        <time>2018-06-17T07:57:35Z</time>
      </trkpt>
      <trkpt lat="43.53771" lon="5.88093">
        <ele>460</ele>
        <time>2018-06-17T07:57:43Z</time>
      </trkpt>
      <trkpt lat="43.5377" lon="5.88066">
        <ele>464</ele>
        <time>2018-06-17T07:57:52Z</time>
      </trkpt>
      <trkpt lat="43.53773" lon="5.88041">
        <ele>465</ele>
        <time>2018-06-17T07:58:01Z</time>
      </trkpt>
      <trkpt lat="43.53776" lon="5.88014">
        <ele>466</ele>
        <time>2018-06-17T07:58:11Z</time>
      </trkpt>
      <trkpt lat="43.53781" lon="5.87988">
        <ele>468</ele>
        <time>2018-06-17T07:58:19Z</time>
      </trkpt>
      <trkpt lat="43.53784" lon="5.87961">
        <ele>468</ele>
        <time>2018-06-17T07:58:28Z</time>
      </trkpt>
      <trkpt lat="43.53784" lon="5.87935">
        <ele>469</ele>
        <time>2018-06-17T07:58:36Z</time>
      </trkpt>
      <trkpt lat="43.53783" lon="5.87909">
        <ele>472</ele>
        <time>2018-06-17T07:58:45Z</time>
      </trkpt>
      <trkpt lat="43.53782" lon="5.87881">
        <ele>472</ele>
        <time>2018-06-17T07:58:54Z</time>
      </trkpt>
      <trkpt lat="43.53785" lon="5.87855">
        <ele>473</ele>
        <time>2018-06-17T07:59:05Z</time>
      </trkpt>
      <trkpt lat="43.53786" lon="5.87829">
        <ele>477</ele>
        <time>2018-06-17T07:59:15Z</time>
      </trkpt>
      <trkpt lat="43.53786" lon="5.87804">
        <ele>478</ele>
        <time>2018-06-17T07:59:25Z</time>
      </trkpt>
      <trkpt lat="43.53783" lon="5.87779">
        <ele>479</ele>
        <time>2018-06-17T07:59:34Z</time>
      </trkpt>
      <trkpt lat="43.53783" lon="5.87752">
        <ele>480</ele>
        <time>2018-06-17T07:59:45Z</time>
      </trkpt>
      <trkpt lat="43.53782" lon="5.87727">
        <ele>483</ele>
        <time>2018-06-17T07:59:55Z</time>
      </trkpt>
      <trkpt lat="43.53784" lon="5.87702">
        <ele>483</ele>
        <time>2018-06-17T08:00:05Z</time>
      </trkpt>
      <trkpt lat="43.53785" lon="5.87677">
        <ele>484</ele>
        <time>2018-06-17T08:00:14Z</time>
      </trkpt>
      <trkpt lat="43.53779" lon="5.87652">
        <ele>487</ele>
        <time>2018-06-17T08:00:24Z</time>
      </trkpt>
      <trkpt lat="43.53772" lon="5.87626">
        <ele>487</ele>
        <time>2018-06-17T08:00:34Z</time>
      </trkpt>
      <trkpt lat="43.53777" lon="5.87602">
        <ele>488</ele>
        <time>2018-06-17T08:00:44Z</time>
      </trkpt>
      <trkpt lat="43.53797" lon="5.87598">
        <ele>487</ele>
        <time>2018-06-17T08:00:55Z</time>
      </trkpt>
      <trkpt lat="43.53812" lon="5.87583">
        <ele>490</ele>
        <time>2018-06-17T08:01:05Z</time>
      </trkpt>
      <trkpt lat="43.53822" lon="5.87561">
        <ele>491</ele>
        <time>2018-06-17T08:01:15Z</time>
      </trkpt>
      <trkpt lat="43.53837" lon="5.87545">
        <ele>489</ele>
        <time>2018-06-17T08:01:25Z</time>
      </trkpt>
      <trkpt lat="43.53852" lon="5.87531">
        <ele>490</ele>
        <time>2018-06-17T08:01:36Z</time>
      </trkpt>
      <trkpt lat="43.53869" lon="5.87517">
        <ele>490</ele>
        <time>2018-06-17T08:01:46Z</time>
      </trkpt>
      <trkpt lat="43.53877" lon="5.87494">
        <ele>495</ele>
        <time>2018-06-17T08:01:56Z</time>
      </trkpt>
      <trkpt lat="43.53888" lon="5.87474">
        <ele>495</ele>
        <time>2018-06-17T08:02:06Z</time>
      </trkpt>
      <trkpt lat="43.53906" lon="5.87467">
        <ele>494</ele>
        <time>2018-06-17T08:02:15Z</time>
      </trkpt>
      <trkpt lat="43.53922" lon="5.87453">
        <ele>495</ele>
        <time>2018-06-17T08:02:25Z</time>
      </trkpt>
      <trkpt lat="43.53935" lon="5.87433">
        <ele>496</ele>
        <time>2018-06-17T08:02:34Z</time>
      </trkpt>
      <trkpt lat="43.53947" lon="5.87413">
        <ele>498</ele>
        <time>2018-06-17T08:02:43Z</time>
      </trkpt>
      <trkpt lat="43.53957" lon="5.87392">
        <ele>499</ele>
        <time>2018-06-17T08:02:53Z</time>
      </trkpt>
      <trkpt lat="43.53966" lon="5.87369">
        <ele>499</ele>
        <time>2018-06-17T08:03:04Z</time>
      </trkpt>
      <trkpt lat="43.53947" lon="5.87363">
        <ele>500</ele>
        <time>2018-06-17T08:03:23Z</time>
      </trkpt>
      <trkpt lat="43.53928" lon="5.87371">
        <ele>499</ele>
        <time>2018-06-17T08:03:31Z</time>
      </trkpt>
      <trkpt lat="43.53909" lon="5.87371">
        <ele>501</ele>
        <time>2018-06-17T08:03:38Z</time>
      </trkpt>
      <trkpt lat="43.53891" lon="5.87372">
        <ele>502</ele>
        <time>2018-06-17T08:03:44Z</time>
      </trkpt>
      <trkpt lat="43.53872" lon="5.87369">
        <ele>502</ele>
        <time>2018-06-17T08:03:51Z</time>
      </trkpt>
      <trkpt lat="43.53853" lon="5.87366">
        <ele>503</ele>
        <time>2018-06-17T08:03:58Z</time>
      </trkpt>
      <trkpt lat="43.53834" lon="5.87361">
        <ele>504</ele>
        <time>2018-06-17T08:04:06Z</time>
      </trkpt>
      <trkpt lat="43.53817" lon="5.87349">
        <ele>507</ele>
        <time>2018-06-17T08:04:13Z</time>
      </trkpt>
      <trkpt lat="43.53802" lon="5.87334">
        <ele>507</ele>
        <time>2018-06-17T08:04:19Z</time>
      </trkpt>
      <trkpt lat="43.53786" lon="5.87317">
        <ele>507</ele>
        <time>2018-06-17T08:04:25Z</time>
      </trkpt>
      <trkpt lat="43.53769" lon="5.87301">
        <ele>507</ele>
        <time>2018-06-17T08:04:32Z</time>
      </trkpt>
      <trkpt lat="43.5375" lon="5.87288">
        <ele>508</ele>
        <time>2018-06-17T08:04:39Z</time>
      </trkpt>
      <trkpt lat="43.53732" lon="5.87278">
        <ele>511</ele>
        <time>2018-06-17T08:04:45Z</time>
      </trkpt>
      <trkpt lat="43.53711" lon="5.87273">
        <ele>511</ele>
        <time>2018-06-17T08:04:52Z</time>
      </trkpt>
      <trkpt lat="43.53691" lon="5.87276">
        <ele>512</ele>
        <time>2018-06-17T08:04:59Z</time>
      </trkpt>
      <trkpt lat="43.53672" lon="5.87283">
        <ele>513</ele>
        <time>2018-06-17T08:05:06Z</time>
      </trkpt>
      <trkpt lat="43.53654" lon="5.8729">
        <ele>516</ele>
        <time>2018-06-17T08:05:12Z</time>
      </trkpt>
      <trkpt lat="43.53634" lon="5.87297">
        <ele>516</ele>
        <time>2018-06-17T08:05:18Z</time>
      </trkpt>
      <trkpt lat="43.53616" lon="5.87294">
        <ele>517</ele>
        <time>2018-06-17T08:05:24Z</time>
      </trkpt>
      <trkpt lat="43.53596" lon="5.8729">
        <ele>517</ele>
        <time>2018-06-17T08:05:30Z</time>
      </trkpt>
      <trkpt lat="43.53575" lon="5.87285">
        <ele>518</ele>
        <time>2018-06-17T08:05:36Z</time>
      </trkpt>
      <trkpt lat="43.53556" lon="5.87284">
        <ele>518</ele>
        <time>2018-06-17T08:05:41Z</time>
      </trkpt>
      <trkpt lat="43.53539" lon="5.87275">
        <ele>518</ele>
        <time>2018-06-17T08:05:46Z</time>
      </trkpt>
      <trkpt lat="43.53528" lon="5.87252">
        <ele>518</ele>
        <time>2018-06-17T08:05:52Z</time>
      </trkpt>
      <trkpt lat="43.53527" lon="5.87227">
        <ele>516</ele>
        <time>2018-06-17T08:07:54Z</time>
      </trkpt>
      <trkpt lat="43.53524" lon="5.87199">
        <ele>516</ele>
        <time>2018-06-17T08:08:00Z</time>
      </trkpt>
      <trkpt lat="43.53518" lon="5.87175">
        <ele>515</ele>
        <time>2018-06-17T08:08:05Z</time>
      </trkpt>
      <trkpt lat="43.5351" lon="5.87149">
        <ele>514</ele>
        <time>2018-06-17T08:08:10Z</time>
      </trkpt>
      <trkpt lat="43.53495" lon="5.87131">
        <ele>512</ele>
        <time>2018-06-17T08:08:16Z</time>
      </trkpt>
      <trkpt lat="43.53474" lon="5.87131">
        <ele>511</ele>
        <time>2018-06-17T08:08:22Z</time>
      </trkpt>
      <trkpt lat="43.53456" lon="5.87121">
        <ele>511</ele>
        <time>2018-06-17T08:08:27Z</time>
      </trkpt>
      <trkpt lat="43.53439" lon="5.87112">
        <ele>510</ele>
        <time>2018-06-17T08:08:31Z</time>
      </trkpt>
      <trkpt lat="43.53419" lon="5.87109">
        <ele>510</ele>
        <time>2018-06-17T08:08:35Z</time>
      </trkpt>
      <trkpt lat="43.53399" lon="5.87111">
        <ele>507</ele>
        <time>2018-06-17T08:08:39Z</time>
      </trkpt>
      <trkpt lat="43.53378" lon="5.87117">
        <ele>507</ele>
        <time>2018-06-17T08:08:43Z</time>
      </trkpt>
      <trkpt lat="43.53358" lon="5.87125">
        <ele>507</ele>
        <time>2018-06-17T08:08:47Z</time>
      </trkpt>
      <trkpt lat="43.53334" lon="5.87132">
        <ele>506</ele>
        <time>2018-06-17T08:08:51Z</time>
      </trkpt>
      <trkpt lat="43.53315" lon="5.87136">
        <ele>504</ele>
        <time>2018-06-17T08:08:54Z</time>
      </trkpt>
      <trkpt lat="43.53297" lon="5.87141">
        <ele>503</ele>
        <time>2018-06-17T08:08:57Z</time>
      </trkpt>
      <trkpt lat="43.53278" lon="5.87148">
        <ele>503</ele>
        <time>2018-06-17T08:09:00Z</time>
      </trkpt>
      <trkpt lat="43.53259" lon="5.87156">
        <ele>502</ele>
        <time>2018-06-17T08:09:03Z</time>
      </trkpt>
      <trkpt lat="43.53242" lon="5.8717">
        <ele>501</ele>
        <time>2018-06-17T08:09:06Z</time>
      </trkpt>
      <trkpt lat="43.53225" lon="5.87185">
        <ele>501</ele>
        <time>2018-06-17T08:09:09Z</time>
      </trkpt>
      <trkpt lat="43.53208" lon="5.87203">
        <ele>501</ele>
        <time>2018-06-17T08:09:12Z</time>
      </trkpt>
      <trkpt lat="43.53191" lon="5.8722">
        <ele>501</ele>
        <time>2018-06-17T08:09:15Z</time>
      </trkpt>
      <trkpt lat="43.53174" lon="5.87237">
        <ele>501</ele>
        <time>2018-06-17T08:09:18Z</time>
      </trkpt>
      <trkpt lat="43.53158" lon="5.87256">
        <ele>500</ele>
        <time>2018-06-17T08:09:22Z</time>
      </trkpt>
      <trkpt lat="43.53142" lon="5.87269">
        <ele>500</ele>
        <time>2018-06-17T08:09:30Z</time>
      </trkpt>
      <trkpt lat="43.53127" lon="5.87284">
        <ele>499</ele>
        <time>2018-06-17T08:10:04Z</time>
      </trkpt>
      <trkpt lat="43.53109" lon="5.87296">
        <ele>499</ele>
        <time>2018-06-17T08:10:26Z</time>
      </trkpt>
      <trkpt lat="43.53094" lon="5.87315">
        <ele>499</ele>
        <time>2018-06-17T08:10:34Z</time>
      </trkpt>
      <trkpt lat="43.53079" lon="5.87334">
        <ele>498</ele>
        <time>2018-06-17T08:10:40Z</time>
      </trkpt>
      <trkpt lat="43.53069" lon="5.8736">
        <ele>498</ele>
        <time>2018-06-17T08:10:45Z</time>
      </trkpt>
      <trkpt lat="43.53065" lon="5.8739">
        <ele>497</ele>
        <time>2018-06-17T08:10:50Z</time>
      </trkpt>
      <trkpt lat="43.53064" lon="5.87419">
        <ele>497</ele>
        <time>2018-06-17T08:10:55Z</time>
      </trkpt>
      <trkpt lat="43.53062" lon="5.87444">
        <ele>497</ele>
        <time>2018-06-17T08:10:59Z</time>
      </trkpt>
      <trkpt lat="43.53064" lon="5.8747">
        <ele>496</ele>
        <time>2018-06-17T08:11:03Z</time>
      </trkpt>
      <trkpt lat="43.53068" lon="5.87498">
        <ele>495</ele>
        <time>2018-06-17T08:11:07Z</time>
      </trkpt>
      <trkpt lat="43.53073" lon="5.8753">
        <ele>496</ele>
        <time>2018-06-17T08:11:11Z</time>
      </trkpt>
      <trkpt lat="43.53076" lon="5.87562">
        <ele>496</ele>
        <time>2018-06-17T08:11:15Z</time>
      </trkpt>
      <trkpt lat="43.53079" lon="5.87586">
        <ele>496</ele>
        <time>2018-06-17T08:11:18Z</time>
      </trkpt>
      <trkpt lat="43.53082" lon="5.87611">
        <ele>496</ele>
        <time>2018-06-17T08:11:21Z</time>
      </trkpt>
      <trkpt lat="43.53085" lon="5.87642">
        <ele>493</ele>
        <time>2018-06-17T08:11:25Z</time>
      </trkpt>
      <trkpt lat="43.53088" lon="5.8767">
        <ele>494</ele>
        <time>2018-06-17T08:11:29Z</time>
      </trkpt>
      <trkpt lat="43.5309" lon="5.87701">
        <ele>492</ele>
        <time>2018-06-17T08:11:34Z</time>
      </trkpt>
      <trkpt lat="43.53085" lon="5.87729">
        <ele>492</ele>
        <time>2018-06-17T08:11:39Z</time>
      </trkpt>
      <trkpt lat="43.53083" lon="5.87756">
        <ele>493</ele>
        <time>2018-06-17T08:11:43Z</time>
      </trkpt>
      <trkpt lat="43.5308" lon="5.87783">
        <ele>492</ele>
        <time>2018-06-17T08:11:47Z</time>
      </trkpt>
      <trkpt lat="43.53072" lon="5.87808">
        <ele>491</ele>
        <time>2018-06-17T08:11:51Z</time>
      </trkpt>
      <trkpt lat="43.53056" lon="5.87827">
        <ele>491</ele>
        <time>2018-06-17T08:11:55Z</time>
      </trkpt>
      <trkpt lat="43.5304" lon="5.87845">
        <ele>488</ele>
        <time>2018-06-17T08:11:59Z</time>
      </trkpt>
      <trkpt lat="43.53024" lon="5.8787">
        <ele>488</ele>
        <time>2018-06-17T08:12:03Z</time>
      </trkpt>
      <trkpt lat="43.53009" lon="5.87889">
        <ele>487</ele>
        <time>2018-06-17T08:12:06Z</time>
      </trkpt>
      <trkpt lat="43.52995" lon="5.87905">
        <ele>487</ele>
        <time>2018-06-17T08:12:09Z</time>
      </trkpt>
      <trkpt lat="43.52979" lon="5.87928">
        <ele>483</ele>
        <time>2018-06-17T08:12:13Z</time>
      </trkpt>
      <trkpt lat="43.52965" lon="5.87944">
        <ele>483</ele>
        <time>2018-06-17T08:12:16Z</time>
      </trkpt>
      <trkpt lat="43.52951" lon="5.8796">
        <ele>482</ele>
        <time>2018-06-17T08:12:19Z</time>
      </trkpt>
      <trkpt lat="43.52936" lon="5.87977">
        <ele>482</ele>
        <time>2018-06-17T08:12:22Z</time>
      </trkpt>
      <trkpt lat="43.52922" lon="5.87997">
        <ele>482</ele>
        <time>2018-06-17T08:12:25Z</time>
      </trkpt>
      <trkpt lat="43.52907" lon="5.88015">
        <ele>480</ele>
        <time>2018-06-17T08:12:28Z</time>
      </trkpt>
      <trkpt lat="43.52894" lon="5.88033">
        <ele>479</ele>
        <time>2018-06-17T08:12:31Z</time>
      </trkpt>
      <trkpt lat="43.52881" lon="5.88052">
        <ele>479</ele>
        <time>2018-06-17T08:12:34Z</time>
      </trkpt>
      <trkpt lat="43.52867" lon="5.88073">
        <ele>479</ele>
        <time>2018-06-17T08:12:37Z</time>
      </trkpt>
      <trkpt lat="43.52853" lon="5.88093">
        <ele>477</ele>
        <time>2018-06-17T08:12:40Z</time>
      </trkpt>
      <trkpt lat="43.52841" lon="5.88115">
        <ele>476</ele>
        <time>2018-06-17T08:12:43Z</time>
      </trkpt>
      <trkpt lat="43.52837" lon="5.88143">
        <ele>477</ele>
        <time>2018-06-17T08:12:46Z</time>
      </trkpt>
      <trkpt lat="43.52839" lon="5.88169">
        <ele>478</ele>
        <time>2018-06-17T08:12:49Z</time>
      </trkpt>
      <trkpt lat="43.5284" lon="5.88201">
        <ele>475</ele>
        <time>2018-06-17T08:12:53Z</time>
      </trkpt>
      <trkpt lat="43.52834" lon="5.88228">
        <ele>476</ele>
        <time>2018-06-17T08:12:57Z</time>
      </trkpt>
      <trkpt lat="43.52818" lon="5.88249">
        <ele>478</ele>
        <time>2018-06-17T08:13:01Z</time>
      </trkpt>
      <trkpt lat="43.52802" lon="5.88271">
        <ele>476</ele>
        <time>2018-06-17T08:13:05Z</time>
      </trkpt>
      <trkpt lat="43.52785" lon="5.88293">
        <ele>476</ele>
        <time>2018-06-17T08:13:09Z</time>
      </trkpt>
      <trkpt lat="43.52771" lon="5.88316">
        <ele>476</ele>
        <time>2018-06-17T08:13:13Z</time>
      </trkpt>
      <trkpt lat="43.52759" lon="5.88335">
        <ele>474</ele>
        <time>2018-06-17T08:13:18Z</time>
      </trkpt>
      <trkpt lat="43.52744" lon="5.88356">
        <ele>473</ele>
        <time>2018-06-17T08:13:24Z</time>
      </trkpt>
      <trkpt lat="43.52731" lon="5.88376">
        <ele>472</ele>
        <time>2018-06-17T08:13:28Z</time>
      </trkpt>
      <trkpt lat="43.52715" lon="5.88389">
        <ele>472</ele>
        <time>2018-06-17T08:13:31Z</time>
      </trkpt>
      <trkpt lat="43.52694" lon="5.88403">
        <ele>472</ele>
        <time>2018-06-17T08:13:35Z</time>
      </trkpt>
      <trkpt lat="43.52675" lon="5.88413">
        <ele>471</ele>
        <time>2018-06-17T08:13:38Z</time>
      </trkpt>
      <trkpt lat="43.52655" lon="5.88422">
        <ele>470</ele>
        <time>2018-06-17T08:13:41Z</time>
      </trkpt>
      <trkpt lat="43.52633" lon="5.88429">
        <ele>469</ele>
        <time>2018-06-17T08:13:44Z</time>
      </trkpt>
      <trkpt lat="43.52613" lon="5.88439">
        <ele>468</ele>
        <time>2018-06-17T08:13:47Z</time>
      </trkpt>
      <trkpt lat="43.52594" lon="5.88448">
        <ele>468</ele>
        <time>2018-06-17T08:13:50Z</time>
      </trkpt>
      <trkpt lat="43.52576" lon="5.88457">
        <ele>466</ele>
        <time>2018-06-17T08:13:53Z</time>
      </trkpt>
      <trkpt lat="43.52562" lon="5.88473">
        <ele>465</ele>
        <time>2018-06-17T08:13:56Z</time>
      </trkpt>
      <trkpt lat="43.52541" lon="5.88482">
        <ele>465</ele>
        <time>2018-06-17T08:14:00Z</time>
      </trkpt>
      <trkpt lat="43.52521" lon="5.88484">
        <ele>465</ele>
        <time>2018-06-17T08:14:03Z</time>
      </trkpt>
      <trkpt lat="43.52499" lon="5.88488">
        <ele>464</ele>
        <time>2018-06-17T08:14:06Z</time>
      </trkpt>
      <trkpt lat="43.52478" lon="5.88494">
        <ele>463</ele>
        <time>2018-06-17T08:14:09Z</time>
      </trkpt>
      <trkpt lat="43.5246" lon="5.88497">
        <ele>463</ele>
        <time>2018-06-17T08:14:12Z</time>
      </trkpt>
      <trkpt lat="43.52437" lon="5.88502">
        <ele>464</ele>
        <time>2018-06-17T08:14:16Z</time>
      </trkpt>
      <trkpt lat="43.52415" lon="5.88505">
        <ele>463</ele>
        <time>2018-06-17T08:14:20Z</time>
      </trkpt>
      <trkpt lat="43.52393" lon="5.88508">
        <ele>462</ele>
        <time>2018-06-17T08:14:24Z</time>
      </trkpt>
      <trkpt lat="43.52375" lon="5.88521">
        <ele>460</ele>
        <time>2018-06-17T08:14:28Z</time>
      </trkpt>
      <trkpt lat="43.52364" lon="5.88545">
        <ele>460</ele>
        <time>2018-06-17T08:14:33Z</time>
      </trkpt>
      <trkpt lat="43.52348" lon="5.88565">
        <ele>459</ele>
        <time>2018-06-17T08:14:39Z</time>
      </trkpt>
      <trkpt lat="43.52335" lon="5.88582">
        <ele>456</ele>
        <time>2018-06-17T08:14:44Z</time>
      </trkpt>
      <trkpt lat="43.52322" lon="5.88603">
        <ele>454</ele>
        <time>2018-06-17T08:14:51Z</time>
      </trkpt>
      <trkpt lat="43.52307" lon="5.88617">
        <ele>453</ele>
        <time>2018-06-17T08:14:56Z</time>
      </trkpt>
      <trkpt lat="43.52292" lon="5.88638">
        <ele>452</ele>
        <time>2018-06-17T08:15:01Z</time>
      </trkpt>
      <trkpt lat="43.52274" lon="5.88643">
        <ele>451</ele>
        <time>2018-06-17T08:15:07Z</time>
      </trkpt>
      <trkpt lat="43.52255" lon="5.88643">
        <ele>450</ele>
        <time>2018-06-17T08:15:11Z</time>
      </trkpt>
      <trkpt lat="43.52235" lon="5.8864">
        <ele>446</ele>
        <time>2018-06-17T08:15:15Z</time>
      </trkpt>
      <trkpt lat="43.52215" lon="5.88637">
        <ele>445</ele>
        <time>2018-06-17T08:15:19Z</time>
      </trkpt>
      <trkpt lat="43.52197" lon="5.88631">
        <ele>444</ele>
        <time>2018-06-17T08:15:23Z</time>
      </trkpt>
      <trkpt lat="43.52175" lon="5.88631">
        <ele>443</ele>
        <time>2018-06-17T08:15:27Z</time>
      </trkpt>
      <trkpt lat="43.52154" lon="5.88632">
        <ele>436</ele>
        <time>2018-06-17T08:15:32Z</time>
      </trkpt>
      <trkpt lat="43.52133" lon="5.88632">
        <ele>434</ele>
        <time>2018-06-17T08:15:37Z</time>
      </trkpt>
      <trkpt lat="43.52113" lon="5.88632">
        <ele>433</ele>
        <time>2018-06-17T08:15:42Z</time>
      </trkpt>
      <trkpt lat="43.52095" lon="5.88632">
        <ele>432</ele>
        <time>2018-06-17T08:15:47Z</time>
      </trkpt>
      <trkpt lat="43.52075" lon="5.88633">
        <ele>425</ele>
        <time>2018-06-17T08:15:54Z</time>
      </trkpt>
      <trkpt lat="43.52056" lon="5.88624">
        <ele>424</ele>
        <time>2018-06-17T08:15:59Z</time>
      </trkpt>
      <trkpt lat="43.52038" lon="5.88621">
        <ele>422</ele>
        <time>2018-06-17T08:16:04Z</time>
      </trkpt>
      <trkpt lat="43.5202" lon="5.88623">
        <ele>421</ele>
        <time>2018-06-17T08:16:09Z</time>
      </trkpt>
      <trkpt lat="43.52" lon="5.88632">
        <ele>421</ele>
        <time>2018-06-17T08:16:14Z</time>
      </trkpt>
      <trkpt lat="43.51982" lon="5.88642">
        <ele>415</ele>
        <time>2018-06-17T08:16:18Z</time>
      </trkpt>
      <trkpt lat="43.51963" lon="5.88636">
        <ele>414</ele>
        <time>2018-06-17T08:16:23Z</time>
      </trkpt>
      <trkpt lat="43.51944" lon="5.88624">
        <ele>413</ele>
        <time>2018-06-17T08:16:28Z</time>
      </trkpt>
      <trkpt lat="43.51927" lon="5.88613">
        <ele>413</ele>
        <time>2018-06-17T08:16:32Z</time>
      </trkpt>
      <trkpt lat="43.51907" lon="5.88602">
        <ele>409</ele>
        <time>2018-06-17T08:16:36Z</time>
      </trkpt>
      <trkpt lat="43.51887" lon="5.8859">
        <ele>408</ele>
        <time>2018-06-17T08:16:41Z</time>
      </trkpt>
      <trkpt lat="43.51868" lon="5.88584">
        <ele>407</ele>
        <time>2018-06-17T08:16:45Z</time>
      </trkpt>
      <trkpt lat="43.51847" lon="5.88576">
        <ele>404</ele>
        <time>2018-06-17T08:16:49Z</time>
      </trkpt>
      <trkpt lat="43.51828" lon="5.88563">
        <ele>401</ele>
        <time>2018-06-17T08:16:54Z</time>
      </trkpt>
      <trkpt lat="43.51806" lon="5.88554">
        <ele>400</ele>
        <time>2018-06-17T08:16:59Z</time>
      </trkpt>
      <trkpt lat="43.51785" lon="5.88564">
        <ele>400</ele>
        <time>2018-06-17T08:17:04Z</time>
      </trkpt>
      <trkpt lat="43.51767" lon="5.88568">
        <ele>399</ele>
        <time>2018-06-17T08:17:09Z</time>
      </trkpt>
      <trkpt lat="43.51745" lon="5.88562">
        <ele>396</ele>
        <time>2018-06-17T08:17:14Z</time>
      </trkpt>
      <trkpt lat="43.51724" lon="5.8856">
        <ele>395</ele>
        <time>2018-06-17T08:17:18Z</time>
      </trkpt>
      <trkpt lat="43.51702" lon="5.88556">
        <ele>395</ele>
        <time>2018-06-17T08:17:22Z</time>
      </trkpt>
      <trkpt lat="43.51682" lon="5.88551">
        <ele>394</ele>
        <time>2018-06-17T08:17:26Z</time>
      </trkpt>
      <trkpt lat="43.51663" lon="5.88549">
        <ele>391</ele>
        <time>2018-06-17T08:17:30Z</time>
      </trkpt>
      <trkpt lat="43.51644" lon="5.88551">
        <ele>390</ele>
        <time>2018-06-17T08:17:35Z</time>
      </trkpt>
      <trkpt lat="43.51627" lon="5.8856">
        <ele>390</ele>
        <time>2018-06-17T08:17:40Z</time>
      </trkpt>
      <trkpt lat="43.5161" lon="5.88571">
        <ele>389</ele>
        <time>2018-06-17T08:17:44Z</time>
      </trkpt>
      <trkpt lat="43.51595" lon="5.88586">
        <ele>388</ele>
        <time>2018-06-17T08:17:48Z</time>
      </trkpt>
      <trkpt lat="43.51577" lon="5.88599">
        <ele>387</ele>
        <time>2018-06-17T08:17:52Z</time>
      </trkpt>
      <trkpt lat="43.51557" lon="5.88605">
        <ele>386</ele>
        <time>2018-06-17T08:17:56Z</time>
      </trkpt>
      <trkpt lat="43.51537" lon="5.88615">
        <ele>385</ele>
        <time>2018-06-17T08:18:00Z</time>
      </trkpt>
      <trkpt lat="43.51518" lon="5.88627">
        <ele>385</ele>
        <time>2018-06-17T08:18:04Z</time>
      </trkpt>
      <trkpt lat="43.515" lon="5.88631">
        <ele>385</ele>
        <time>2018-06-17T08:18:07Z</time>
      </trkpt>
      <trkpt lat="43.51478" lon="5.8864">
        <ele>381</ele>
        <time>2018-06-17T08:18:11Z</time>
      </trkpt>
      <trkpt lat="43.51461" lon="5.88651">
        <ele>380</ele>
        <time>2018-06-17T08:18:15Z</time>
      </trkpt>
      <trkpt lat="43.51441" lon="5.88662">
        <ele>378</ele>
        <time>2018-06-17T08:18:19Z</time>
      </trkpt>
      <trkpt lat="43.5142" lon="5.8867">
        <ele>376</ele>
        <time>2018-06-17T08:18:23Z</time>
      </trkpt>
      <trkpt lat="43.514" lon="5.88681">
        <ele>373</ele>
        <time>2018-06-17T08:18:27Z</time>
      </trkpt>
      <trkpt lat="43.5138" lon="5.88696">
        <ele>372</ele>
        <time>2018-06-17T08:18:31Z</time>
      </trkpt>
      <trkpt lat="43.51358" lon="5.88695">
        <ele>371</ele>
        <time>2018-06-17T08:18:35Z</time>
      </trkpt>
      <trkpt lat="43.51338" lon="5.88685">
        <ele>370</ele>
        <time>2018-06-17T08:18:38Z</time>
      </trkpt>
      <trkpt lat="43.5132" lon="5.88681">
        <ele>366</ele>
        <time>2018-06-17T08:18:41Z</time>
      </trkpt>
      <trkpt lat="43.513" lon="5.88685">
        <ele>365</ele>
        <time>2018-06-17T08:18:45Z</time>
      </trkpt>
      <trkpt lat="43.51282" lon="5.88693">
        <ele>364</ele>
        <time>2018-06-17T08:18:49Z</time>
      </trkpt>
      <trkpt lat="43.51263" lon="5.88704">
        <ele>363</ele>
        <time>2018-06-17T08:18:55Z</time>
      </trkpt>
      <trkpt lat="43.51247" lon="5.88721">
        <ele>360</ele>
        <time>2018-06-17T08:19:01Z</time>
      </trkpt>
      <trkpt lat="43.51228" lon="5.88718">
        <ele>360</ele>
        <time>2018-06-17T08:20:06Z</time>
      </trkpt>
      <trkpt lat="43.51209" lon="5.88717">
        <ele>360</ele>
        <time>2018-06-17T08:20:12Z</time>
      </trkpt>
      <trkpt lat="43.5119" lon="5.88713">
        <ele>360</ele>
        <time>2018-06-17T08:20:18Z</time>
      </trkpt>
      <trkpt lat="43.51172" lon="5.88713">
        <ele>360</ele>
        <time>2018-06-17T08:20:23Z</time>
      </trkpt>
      <trkpt lat="43.51156" lon="5.8869">
        <ele>361</ele>
        <time>2018-06-17T08:20:28Z</time>
      </trkpt>
      <trkpt lat="43.51134" lon="5.88683">
        <ele>361</ele>
        <time>2018-06-17T08:20:32Z</time>
      </trkpt>
      <trkpt lat="43.51115" lon="5.88676">
        <ele>361</ele>
        <time>2018-06-17T08:20:36Z</time>
      </trkpt>
      <trkpt lat="43.5111" lon="5.88651">
        <ele>358</ele>
        <time>2018-06-17T08:20:40Z</time>
      </trkpt>
      <trkpt lat="43.51111" lon="5.88624">
        <ele>358</ele>
        <time>2018-06-17T08:20:44Z</time>
      </trkpt>
      <trkpt lat="43.51107" lon="5.88597">
        <ele>357</ele>
        <time>2018-06-17T08:20:48Z</time>
      </trkpt>
      <trkpt lat="43.511" lon="5.88572">
        <ele>354</ele>
        <time>2018-06-17T08:20:52Z</time>
      </trkpt>
      <trkpt lat="43.51085" lon="5.88549">
        <ele>354</ele>
        <time>2018-06-17T08:20:57Z</time>
      </trkpt>
      <trkpt lat="43.51069" lon="5.88534">
        <ele>350</ele>
        <time>2018-06-17T08:21:01Z</time>
      </trkpt>
      <trkpt lat="43.51048" lon="5.88518">
        <ele>349</ele>
        <time>2018-06-17T08:21:05Z</time>
      </trkpt>
      <trkpt lat="43.51029" lon="5.88506">
        <ele>348</ele>
        <time>2018-06-17T08:21:09Z</time>
      </trkpt>
      <trkpt lat="43.51009" lon="5.88503">
        <ele>344</ele>
        <time>2018-06-17T08:21:13Z</time>
      </trkpt>
      <trkpt lat="43.50985" lon="5.88502">
        <ele>346</ele>
        <time>2018-06-17T08:21:17Z</time>
      </trkpt>
      <trkpt lat="43.50964" lon="5.88504">
        <ele>348</ele>
        <time>2018-06-17T08:21:21Z</time>
      </trkpt>
      <trkpt lat="43.50942" lon="5.88501">
        <ele>348</ele>
        <time>2018-06-17T08:21:25Z</time>
      </trkpt>
      <trkpt lat="43.50923" lon="5.88487">
        <ele>342</ele>
        <time>2018-06-17T08:21:29Z</time>
      </trkpt>
      <trkpt lat="43.50907" lon="5.88465">
        <ele>339</ele>
        <time>2018-06-17T08:21:33Z</time>
      </trkpt>
      <trkpt lat="43.50891" lon="5.88453">
        <ele>338</ele>
        <time>2018-06-17T08:21:36Z</time>
      </trkpt>
      <trkpt lat="43.50872" lon="5.88438">
        <ele>337</ele>
        <time>2018-06-17T08:21:39Z</time>
      </trkpt>
      <trkpt lat="43.50852" lon="5.8842">
        <ele>334</ele>
        <time>2018-06-17T08:21:43Z</time>
      </trkpt>
      <trkpt lat="43.50832" lon="5.88403">
        <ele>329</ele>
        <time>2018-06-17T08:21:47Z</time>
      </trkpt>
      <trkpt lat="43.5083" lon="5.8837">
        <ele>329</ele>
        <time>2018-06-17T08:21:51Z</time>
      </trkpt>
      <trkpt lat="43.50832" lon="5.88344">
        <ele>330</ele>
        <time>2018-06-17T08:21:54Z</time>
      </trkpt>
      <trkpt lat="43.50823" lon="5.88314">
        <ele>334</ele>
        <time>2018-06-17T08:21:58Z</time>
      </trkpt>
      <trkpt lat="43.50808" lon="5.883">
        <ele>335</ele>
        <time>2018-06-17T08:22:02Z</time>
      </trkpt>
      <trkpt lat="43.50786" lon="5.88295">
        <ele>335</ele>
        <time>2018-06-17T08:22:07Z</time>
      </trkpt>
      <trkpt lat="43.50766" lon="5.88308">
        <ele>333</ele>
        <time>2018-06-17T08:22:12Z</time>
      </trkpt>
      <trkpt lat="43.50749" lon="5.88328">
        <ele>328</ele>
        <time>2018-06-17T08:22:16Z</time>
      </trkpt>
      <trkpt lat="43.5074" lon="5.8835">
        <ele>327</ele>
        <time>2018-06-17T08:22:19Z</time>
      </trkpt>
      <trkpt lat="43.50724" lon="5.88369">
        <ele>328</ele>
        <time>2018-06-17T08:22:22Z</time>
      </trkpt>
      <trkpt lat="43.5071" lon="5.88385">
        <ele>328</ele>
        <time>2018-06-17T08:22:25Z</time>
      </trkpt>
      <trkpt lat="43.50694" lon="5.88406">
        <ele>327</ele>
        <time>2018-06-17T08:22:29Z</time>
      </trkpt>
      <trkpt lat="43.50681" lon="5.88428">
        <ele>325</ele>
        <time>2018-06-17T08:22:33Z</time>
      </trkpt>
      <trkpt lat="43.50661" lon="5.88441">
        <ele>323</ele>
        <time>2018-06-17T08:22:37Z</time>
      </trkpt>
      <trkpt lat="43.50643" lon="5.8845">
        <ele>324</ele>
        <time>2018-06-17T08:22:40Z</time>
      </trkpt>
      <trkpt lat="43.50626" lon="5.88459">
        <ele>324</ele>
        <time>2018-06-17T08:22:43Z</time>
      </trkpt>
      <trkpt lat="43.50607" lon="5.8846">
        <ele>324</ele>
        <time>2018-06-17T08:22:46Z</time>
      </trkpt>
      <trkpt lat="43.5059" lon="5.8847">
        <ele>323</ele>
        <time>2018-06-17T08:22:49Z</time>
      </trkpt>
      <trkpt lat="43.50574" lon="5.88486">
        <ele>324</ele>
        <time>2018-06-17T08:22:52Z</time>
      </trkpt>
      <trkpt lat="43.50561" lon="5.88503">
        <ele>321</ele>
        <time>2018-06-17T08:22:55Z</time>
      </trkpt>
      <trkpt lat="43.50547" lon="5.8852">
        <ele>322</ele>
        <time>2018-06-17T08:22:59Z</time>
      </trkpt>
      <trkpt lat="43.50532" lon="5.8854">
        <ele>322</ele>
        <time>2018-06-17T08:23:03Z</time>
      </trkpt>
      <trkpt lat="43.50514" lon="5.88559">
        <ele>320</ele>
        <time>2018-06-17T08:23:07Z</time>
      </trkpt>
      <trkpt lat="43.50496" lon="5.88573">
        <ele>317</ele>
        <time>2018-06-17T08:23:10Z</time>
      </trkpt>
      <trkpt lat="43.50476" lon="5.88587">
        <ele>317</ele>
        <time>2018-06-17T08:23:14Z</time>
      </trkpt>
      <trkpt lat="43.50458" lon="5.88595">
        <ele>317</ele>
        <time>2018-06-17T08:23:17Z</time>
      </trkpt>
      <trkpt lat="43.50437" lon="5.88608">
        <ele>317</ele>
        <time>2018-06-17T08:23:21Z</time>
      </trkpt>
      <trkpt lat="43.50417" lon="5.88621">
        <ele>317</ele>
        <time>2018-06-17T08:23:25Z</time>
      </trkpt>
      <trkpt lat="43.50397" lon="5.88635">
        <ele>312</ele>
        <time>2018-06-17T08:23:29Z</time>
      </trkpt>
      <trkpt lat="43.50377" lon="5.88651">
        <ele>311</ele>
        <time>2018-06-17T08:23:33Z</time>
      </trkpt>
      <trkpt lat="43.5036" lon="5.88669">
        <ele>308</ele>
        <time>2018-06-17T08:23:38Z</time>
      </trkpt>
      <trkpt lat="43.50361" lon="5.88696">
        <ele>309</ele>
        <time>2018-06-17T08:23:44Z</time>
      </trkpt>
    </trkseg>
  </trk>
</gpx>